Provisional Data: West Branch Pine Creek near Galeton, PA


Please select a monitoring station.
Please select start date.
Please select start date.

Toggle Unit: C/F Toggle Unit: C/F
Sample Time Temperature (C) Temperature (F) Specific Conductivity (mS/cm) pH   Turbidity (NTU+) DO (mg/L)
5/4/2021 12:00:00 AM 10.27 50.486 0.039 6.63 3.54 10.29
5/4/2021 12:15:00 AM 10.24 50.432 0.039 6.63 3.56 10.31
5/4/2021 12:30:00 AM 10.22 50.396 0.039 6.64 3.65 10.31
5/4/2021 12:45:00 AM 10.2 50.36 0.039 6.63 3.47 10.31
5/4/2021 1:00:00 AM 10.18 50.324 0.039 6.63 3.48 10.32
5/4/2021 1:15:00 AM 10.17 50.306 0.039 6.63 3.4 10.32
5/4/2021 1:30:00 AM 10.15 50.27 0.04 6.64 3.42 10.32
5/4/2021 1:45:00 AM 10.14 50.252 0.04 6.63 3.43 10.32
5/4/2021 2:00:00 AM 10.13 50.234 0.04 6.63 3.51 10.32
5/4/2021 2:15:00 AM 10.12 50.216 0.04 6.63 3.57 10.33
5/4/2021 2:30:00 AM 10.12 50.216 0.04 6.64 3.37 10.33
5/4/2021 2:45:00 AM 10.11 50.198 0.04 6.63 3.5 10.33
5/4/2021 3:00:00 AM 10.1 50.18 0.04 6.62 3.53 10.33
5/4/2021 3:15:00 AM 10.09 50.162 0.04 6.62 3.45 10.33
5/4/2021 3:30:00 AM 10.08 50.144 0.04 6.63 3.41 10.33
5/4/2021 3:45:00 AM 10.07 50.126 0.04 6.62 3.35 10.33
5/4/2021 4:00:00 AM 10.06 50.108 0.04 6.62 3.38 10.34
5/4/2021 4:15:00 AM 10.05 50.09 0.04 6.62 3.35 10.34
5/4/2021 4:30:00 AM 10.05 50.09 0.04 6.63 3.39 10.33
5/4/2021 4:45:00 AM 10.04 50.072 0.04 6.62 3.34 10.34
5/4/2021 5:00:00 AM 10.03 50.054 0.04 6.61 3.28 10.34
5/4/2021 5:15:00 AM 10.03 50.054 0.04 6.62 3.41 10.34
5/4/2021 5:30:00 AM 10.02 50.036 0.04 6.62 3.44 10.34
5/4/2021 5:45:00 AM 10.01 50.018 0.04 6.61 3.53 10.34
5/4/2021 6:00:00 AM 10 50 0.04 6.62 3.51 10.34
5/4/2021 6:15:00 AM 10 50 0.04 6.61 3.48 10.35
5/4/2021 6:30:00 AM 9.99 49.982 0.04 6.61 3.62 10.35
5/4/2021 6:45:00 AM 9.99 49.982 0.04 6.61 3.41 10.37
5/4/2021 7:00:00 AM 9.99 49.982 0.04 6.61 3.41 10.37
5/4/2021 7:15:00 AM 9.99 49.982 0.04 6.61 3.33 10.39
5/4/2021 7:30:00 AM 10 50 0.04 6.63 3.3 10.41
5/4/2021 7:45:00 AM 10.01 50.018 0.04 6.63 3.37 10.43
5/4/2021 8:00:00 AM 10.02 50.036 0.04 6.65 3.33 10.45
5/4/2021 8:15:00 AM 10.07 50.126 0.04 6.66 3.27 10.5
5/4/2021 8:30:00 AM 10.1 50.18 0.04 6.68 3.16 10.51
5/4/2021 8:45:00 AM 10.14 50.252 0.04 6.69 3.21 10.52
5/4/2021 9:00:00 AM 10.18 50.324 0.04 6.71 3.12 10.55
5/4/2021 9:15:00 AM 10.23 50.414 0.04 6.72 3.23 10.56
5/4/2021 9:30:00 AM 10.28 50.504 0.04 6.73 3.09 10.56
5/4/2021 9:45:00 AM 10.32 50.576 0.039 6.74 3.16 10.56
5/4/2021 10:00:00 AM 10.42 50.756 0.039 6.75 3.07 10.56
5/4/2021 10:15:00 AM 10.56 51.008 0.039 6.77 3.08 10.55
5/4/2021 10:30:00 AM 10.7 51.26 0.039 6.78 3.06 10.54
5/4/2021 10:45:00 AM 10.82 51.476 0.039 6.79 3.06 10.54
5/4/2021 11:00:00 AM 10.92 51.656 0.039 6.8 2.97 10.52
5/4/2021 11:15:00 AM 11.02 51.836 0.039 6.81 3.06 10.49
5/4/2021 11:30:00 AM 11.16 52.088 0.039 6.81 3.14 10.46
5/4/2021 11:45:00 AM 11.35 52.43 0.039 6.82 3.02 10.44
5/4/2021 12:00:00 PM 11.44 52.592 0.039 6.83 3.05 10.42
5/4/2021 12:15:00 PM 11.52 52.736 0.039 6.84 3.14 10.41
5/4/2021 12:30:00 PM 11.67 53.006 0.039 6.86 3.1 10.39
5/4/2021 12:45:00 PM 11.81 53.258 0.039 6.86 3.21 10.36
5/4/2021 1:00:00 PM 11.93 53.474 0.039 6.85 3.13 10.33
5/4/2021 1:15:00 PM 12.1 53.78 0.039 6.86 3.29 10.31
5/4/2021 1:30:00 PM 12.34 54.212 0.039 6.88 3.27 10.26
5/4/2021 1:45:00 PM 12.53 54.554 0.039 6.87 3.32 10.22
5/4/2021 2:00:00 PM 12.62 54.716 0.039 6.88 3.26 10.17
5/4/2021 2:15:00 PM 12.66 54.788 0.039 6.87 3.18 10.13
5/4/2021 2:30:00 PM 12.7 54.86 0.039 6.87 3.14 10.12
5/4/2021 2:45:00 PM 12.71 54.878 0.039 6.86 3.27 10.08
5/4/2021 3:00:00 PM 12.74 54.932 0.039 6.87 3.21 10.07
5/4/2021 3:15:00 PM 12.73 54.914 0.039 6.87 3.15 10.05
5/4/2021 3:30:00 PM 12.73 54.914 0.039 6.86 3.28 10.03
5/4/2021 3:45:00 PM 12.71 54.878 0.039 6.86 3.21 10.03
5/4/2021 4:00:00 PM 12.7 54.86 0.039 6.85 3.26 10.02
5/4/2021 4:15:00 PM 12.69 54.842 0.039 6.86 3.24 10.01
5/4/2021 4:30:00 PM 12.68 54.824 0.039 6.85 3.19 10
5/4/2021 4:45:00 PM 12.64 54.752 0.039 6.84 3.18 9.97
5/4/2021 5:00:00 PM 12.6 54.68 0.039 6.83 3.28 9.95
5/4/2021 5:15:00 PM 12.57 54.626 0.039 6.82 3.32 9.95
5/4/2021 5:30:00 PM 12.56 54.608 0.039 6.82 3.28 9.97
5/4/2021 5:45:00 PM 12.55 54.59 0.039 6.81 3.19 9.99
5/4/2021 6:00:00 PM 12.53 54.554 0.039 6.83 3.32 10
5/4/2021 6:15:00 PM 12.51 54.518 0.039 6.83 3.24 10
5/4/2021 6:30:00 PM 12.49 54.482 0.039 6.82 3.33 9.98
5/4/2021 6:45:00 PM 12.46 54.428 0.039 6.8 3.29 9.97
5/4/2021 7:00:00 PM 12.43 54.374 0.039 6.8 3.3 9.97
5/4/2021 7:15:00 PM 12.39 54.302 0.039 6.8 3.29 9.96
5/4/2021 7:30:00 PM 12.33 54.194 0.039 6.79 3.25 9.95
5/4/2021 7:45:00 PM 12.28 54.104 0.039 6.78 3.31 9.94
5/4/2021 8:00:00 PM 12.23 54.014 0.039 6.78 3.27 9.92
5/4/2021 8:15:00 PM 12.18 53.924 0.039 6.76 3.44 9.91
5/4/2021 8:30:00 PM 12.12 53.816 0.04 6.74 3.39 9.9
5/4/2021 8:45:00 PM 12.07 53.726 0.04 6.73 3.41 9.9
5/4/2021 9:00:00 PM 12.02 53.636 0.04 6.72 3.38 9.9
5/4/2021 9:15:00 PM 11.96 53.528 0.04 6.72 3.45 9.9
5/4/2021 9:30:00 PM 11.91 53.438 0.04 6.71 3.42 9.9
5/4/2021 9:45:00 PM 11.85 53.33 0.04 6.7 3.49 9.91
5/4/2021 10:00:00 PM 11.79 53.222 0.04 6.7 3.45 9.93
5/4/2021 10:15:00 PM 11.74 53.132 0.04 6.69 3.46 9.94
5/4/2021 10:30:00 PM 11.68 53.024 0.04 6.68 3.52 9.95
5/4/2021 10:45:00 PM 11.62 52.916 0.04 6.68 3.38 9.96
5/4/2021 11:00:00 PM 11.57 52.826 0.04 6.68 3.5 9.98
5/4/2021 11:15:00 PM 11.53 52.754 0.04 6.67 3.59 9.99
5/4/2021 11:30:00 PM 11.49 52.682 0.04 6.67 3.42 10
5/4/2021 11:45:00 PM 11.45 52.61 0.04 6.69 3.43 10.01
5/5/2021 12:00:00 AM 11.41 52.538 0.04 6.69 3.48 10.02
5/5/2021 12:15:00 AM 11.37 52.466 0.04 6.68 3.48 10.02
5/5/2021 12:30:00 AM 11.32 52.376 0.04 6.68 3.46 10.03
5/5/2021 12:45:00 AM 11.28 52.304 0.04 6.69 3.52 10.04
5/5/2021 1:00:00 AM 11.24 52.232 0.04 6.69 3.34 10.05
5/5/2021 1:15:00 AM 11.2 52.16 0.04 6.69 3.38 10.06
5/5/2021 1:30:00 AM 11.16 52.088 0.04 6.68 3.35 10.07
5/5/2021 1:45:00 AM 11.12 52.016 0.04 6.68 3.41 10.08
5/5/2021 2:00:00 AM 11.08 51.944 0.04 6.67 3.49 10.09
5/5/2021 2:15:00 AM 11.04 51.872 0.04 6.67 3.36 10.09
5/5/2021 2:30:00 AM 11.01 51.818 0.04 6.67 3.37 10.1
5/5/2021 2:45:00 AM 10.98 51.764 0.04 6.67 3.4 10.12
5/5/2021 3:00:00 AM 10.95 51.71 0.04 6.66 3.42 10.13
5/5/2021 3:15:00 AM 10.91 51.638 0.04 6.67 3.44 10.14
5/5/2021 3:30:00 AM 10.88 51.584 0.04 6.65 3.35 10.14
5/5/2021 3:45:00 AM 10.85 51.53 0.04 6.67 3.36 10.15
5/5/2021 4:00:00 AM 10.82 51.476 0.04 6.66 3.43 10.15
5/5/2021 4:15:00 AM 10.79 51.422 0.04 6.65 3.28 10.16
5/5/2021 4:30:00 AM 10.77 51.386 0.04 6.65 3.36 10.17
5/5/2021 4:45:00 AM 10.75 51.35 0.04 6.64 3.52 10.16
5/5/2021 5:00:00 AM 10.74 51.332 0.04 6.65 3.43 10.17
5/5/2021 5:15:00 AM 10.72 51.296 0.04 6.63 3.34 10.17
5/5/2021 5:30:00 AM 10.7 51.26 0.04 6.64 3.36 10.17
5/5/2021 5:45:00 AM 10.68 51.224 0.04 6.64 3.41 10.18
5/5/2021 6:00:00 AM 10.67 51.206 0.04 6.64 3.3 10.17
5/5/2021 6:15:00 AM 10.65 51.17 0.04 6.64 3.37 10.18
5/5/2021 6:30:00 AM 10.64 51.152 0.04 6.65 3.3 10.19
5/5/2021 6:45:00 AM 10.63 51.134 0.04 6.65 3.35 10.2
5/5/2021 7:00:00 AM 10.62 51.116 0.04 6.66 3.31 10.22
5/5/2021 7:15:00 AM 10.61 51.098 0.04 6.68 3.35 10.24
5/5/2021 7:30:00 AM 10.6 51.08 0.04 6.68 3.19 10.26
5/5/2021 7:45:00 AM 10.59 51.062 0.04 6.7 3.29 10.28
5/5/2021 8:00:00 AM 10.58 51.044 0.04 6.7 3.04 10.3
5/5/2021 8:15:00 AM 10.56 51.008 0.04 6.71 3.26 10.31
5/5/2021 8:30:00 AM 10.55 50.99 0.04 6.73 3.13 10.33
5/5/2021 8:45:00 AM 10.54 50.972 0.04 6.72 3.12 10.35
5/5/2021 9:00:00 AM 10.53 50.954 0.04 6.73 3.06 10.36
5/5/2021 9:15:00 AM 10.53 50.954 0.04 6.74 3.14 10.37
5/5/2021 9:30:00 AM 10.53 50.954 0.04 6.74 3.11 10.39
5/5/2021 9:45:00 AM 10.54 50.972 0.04 6.75 3.07 10.41
5/5/2021 10:00:00 AM 10.54 50.972 0.04 6.76 3.09 10.42
5/5/2021 10:15:00 AM 10.56 51.008 0.04 6.77 3.06 10.44
5/5/2021 10:30:00 AM 10.58 51.044 0.04 6.78 3.04 10.45
5/5/2021 10:45:00 AM 10.6 51.08 0.04 6.78 2.96 10.47
5/5/2021 11:00:00 AM 10.6 51.08 0.04 6.79 2.97 10.46
5/5/2021 11:15:00 AM 10.61 51.098 0.04 6.78 2.95 10.45
5/5/2021 11:30:00 AM 10.61 51.098 0.04 6.8 2.83 10.45
5/5/2021 11:45:00 AM 10.61 51.098 0.04 6.78 2.87 10.45
5/5/2021 12:00:00 PM 10.61 51.098 0.04 6.78 2.91 10.46
5/5/2021 12:15:00 PM 10.64 51.152 0.04 6.8 3.01 10.47
5/5/2021 12:30:00 PM 10.64 51.152 0.04 6.8 3.01 10.48
5/5/2021 12:45:00 PM 10.66 51.188 0.04 6.81 2.93 10.49
5/5/2021 1:00:00 PM 10.65 51.17 0.04 6.82 3.06 10.5
5/5/2021 1:15:00 PM 10.68 51.224 0.04 6.82 2.95 10.51
5/5/2021 1:30:00 PM 10.69 51.242 0.04 6.83 2.89 10.51
5/5/2021 1:45:00 PM 10.71 51.278 0.04 6.82 2.87 10.51
5/5/2021 2:00:00 PM 10.75 51.35 0.04 6.84 2.95 10.52
5/5/2021 2:15:00 PM 10.79 51.422 0.04 6.83 2.86 10.54
5/5/2021 2:30:00 PM 10.81 51.458 0.04 6.83 2.92 10.54
5/5/2021 2:45:00 PM 10.82 51.476 0.04 6.84 2.91 10.53
5/5/2021 3:00:00 PM 10.82 51.476 0.04 6.85 3.03 10.52
5/5/2021 3:15:00 PM 10.83 51.494 0.04 6.84 3.01 10.5
5/5/2021 3:30:00 PM 10.84 51.512 0.04 6.83 3.01 10.49
5/5/2021 3:45:00 PM 10.82 51.476 0.04 6.84 2.92 10.48
5/5/2021 4:00:00 PM 10.8 51.44 0.04 6.84 2.91 10.48
5/5/2021 4:15:00 PM 10.79 51.422 0.04 6.85 3.04 10.5
5/5/2021 4:30:00 PM 10.85 51.53 0.04 6.84 3.03 10.52
5/5/2021 4:45:00 PM 10.97 51.746 0.04 6.87 2.99 10.53
5/5/2021 5:00:00 PM 11.05 51.89 0.04 6.87 3.01 10.5
5/5/2021 5:15:00 PM 11.06 51.908 0.04 6.88 2.98 10.49
5/5/2021 5:30:00 PM 11.06 51.908 0.04 6.84 2.93 10.46
5/5/2021 5:45:00 PM 11.06 51.908 0.04 6.86 3.01 10.45
5/5/2021 6:00:00 PM 10.99 51.782 0.04 6.85 3.12 10.44
5/5/2021 6:15:00 PM 10.93 51.674 0.04 6.86 3.07 10.44
5/5/2021 6:30:00 PM 10.87 51.566 0.04 6.85 3.04 10.44
5/5/2021 6:45:00 PM 10.79 51.422 0.04 6.83 3.01 10.42
5/5/2021 7:00:00 PM 10.73 51.314 0.04 6.83 3.09 10.4
5/5/2021 7:15:00 PM 10.66 51.188 0.04 6.82 2.93 10.4
5/5/2021 7:30:00 PM 10.59 51.062 0.04 6.81 3.06 10.39
5/5/2021 7:45:00 PM 10.52 50.936 0.04 6.79 3.08 10.4
5/5/2021 8:00:00 PM 10.45 50.81 0.04 6.79 3.09 10.4
5/5/2021 8:15:00 PM 10.39 50.702 0.04 6.78 3.12 10.39
5/5/2021 8:30:00 PM 10.33 50.594 0.04 6.77 3.02 10.39
5/5/2021 8:45:00 PM 10.28 50.504 0.04 6.77 3 10.39
5/5/2021 9:00:00 PM 10.22 50.396 0.04 6.76 3.04 10.4
5/5/2021 9:15:00 PM 10.17 50.306 0.04 6.76 3.11 10.41
5/5/2021 9:30:00 PM 10.11 50.198 0.04 6.74 3.15 10.41
5/5/2021 9:45:00 PM 10.05 50.09 0.04 6.74 3.2 10.42
5/5/2021 10:00:00 PM 10 50 0.04 6.74 3.21 10.43
5/5/2021 10:15:00 PM 9.95 49.91 0.04 6.73 3.17 10.44
5/5/2021 10:30:00 PM 9.89 49.802 0.04 6.74 3.1 10.46
5/5/2021 10:45:00 PM 9.84 49.712 0.04 6.74 3.12 10.47
5/5/2021 11:00:00 PM 9.79 49.622 0.04 6.75 3.09 10.49
5/5/2021 11:15:00 PM 9.74 49.532 0.04 6.74 3.16 10.5
5/5/2021 11:30:00 PM 9.68 49.424 0.04 6.74 3.14 10.51
5/5/2021 11:45:00 PM 9.64 49.352 0.04 6.74 3.14 10.53
5/6/2021 12:00:00 AM 9.59 49.262 0.04 6.73 3.16 10.55
5/6/2021 12:15:00 AM 9.54 49.172 0.04 6.73 3.07 10.55
5/6/2021 12:30:00 AM 9.5 49.1 0.04 6.74 3.11 10.56
5/6/2021 12:45:00 AM 9.45 49.01 0.04 6.72 3.12 10.58
5/6/2021 1:00:00 AM 9.4 48.92 0.04 6.73 3.14 10.58
5/6/2021 1:15:00 AM 9.35 48.83 0.04 6.73 3.16 10.59
5/6/2021 1:30:00 AM 9.3 48.74 0.04 6.73 3.13 10.61
5/6/2021 1:45:00 AM 9.25 48.65 0.04 6.73 3.24 10.62
5/6/2021 2:00:00 AM 9.2 48.56 0.04 6.73 3.07 10.63
5/6/2021 2:15:00 AM 9.16 48.488 0.04 6.73 3.07 10.65
5/6/2021 2:30:00 AM 9.12 48.416 0.04 6.71 3.04 10.67
5/6/2021 2:45:00 AM 9.09 48.362 0.04 6.73 3.01 10.67
5/6/2021 3:00:00 AM 9.05 48.29 0.04 6.71 2.98 10.68
5/6/2021 3:15:00 AM 9.01 48.218 0.04 6.72 3.01 10.69
5/6/2021 3:30:00 AM 8.98 48.164 0.04 6.73 2.97 10.7
5/6/2021 3:45:00 AM 8.94 48.092 0.04 6.73 3.07 10.71
5/6/2021 4:00:00 AM 8.91 48.038 0.04 6.72 3.01 10.72
5/6/2021 4:15:00 AM 8.88 47.984 0.04 6.72 3.05 10.73
5/6/2021 4:30:00 AM 8.85 47.93 0.04 6.73 2.94 10.74
5/6/2021 4:45:00 AM 8.82 47.876 0.04 6.71 2.95 10.74
5/6/2021 5:00:00 AM 8.8 47.84 0.04 6.72 2.94 10.75
5/6/2021 5:15:00 AM 8.76 47.768 0.041 6.72 2.94 10.75
5/6/2021 5:30:00 AM 8.73 47.714 0.041 6.72 2.93 10.76
5/6/2021 5:45:00 AM 8.7 47.66 0.041 6.71 2.92 10.77
5/6/2021 6:00:00 AM 8.67 47.606 0.041 6.73 2.95 10.78
5/6/2021 6:15:00 AM 8.62 47.516 0.041 6.73 2.97 10.8
5/6/2021 6:30:00 AM 8.59 47.462 0.041 6.73 2.9 10.82
5/6/2021 6:45:00 AM 8.57 47.426 0.041 6.74 2.84 10.86
5/6/2021 7:00:00 AM 8.56 47.408 0.041 6.74 2.87 10.88
5/6/2021 7:15:00 AM 8.53 47.354 0.041 6.75 2.93 10.92
5/6/2021 7:30:00 AM 8.51 47.318 0.041 6.75 2.98 10.93
5/6/2021 7:45:00 AM 8.5 47.3 0.04 6.76 2.77 10.98
5/6/2021 8:00:00 AM 8.49 47.282 0.04 6.77 2.91 10.99
5/6/2021 8:15:00 AM 8.5 47.3 0.04 6.77 2.91 11.01
5/6/2021 8:30:00 AM 8.51 47.318 0.04 6.79 2.81 11.04
5/6/2021 8:45:00 AM 8.58 47.444 0.04 6.79 2.87 11.05
5/6/2021 9:00:00 AM 8.65 47.57 0.04 6.81 2.74 11.06
5/6/2021 9:15:00 AM 8.73 47.714 0.04 6.82 2.81 11.06
5/6/2021 9:30:00 AM 8.78 47.804 0.04 6.81 2.75 11.07
5/6/2021 9:45:00 AM 8.75 47.75 0.04 6.82 2.76 11.06
5/6/2021 10:00:00 AM 8.8 47.84 0.04 6.83 2.69 11.07
5/6/2021 10:15:00 AM 8.95 48.11 0.04 6.83 2.74 11.07
5/6/2021 10:30:00 AM 9.13 48.434 0.04 6.85 2.73 11.04
5/6/2021 10:45:00 AM 9.18 48.524 0.04 6.84 2.76 11.03
5/6/2021 11:00:00 AM 9.26 48.668 0.04 6.85 2.77 11.01
5/6/2021 11:15:00 AM 9.48 49.064 0.04 6.86 2.77 10.99
5/6/2021 11:30:00 AM 9.65 49.37 0.04 6.87 2.74 10.96
5/6/2021 11:45:00 AM 9.87 49.766 0.04 6.87 2.76 10.91
5/6/2021 12:00:00 PM 10.09 50.162 0.04 6.87 2.7 10.87
5/6/2021 12:15:00 PM 10.16 50.288 0.04 6.87 2.73 10.85
5/6/2021 12:30:00 PM 10.32 50.576 0.04 6.87 2.73 10.83
5/6/2021 12:45:00 PM 10.32 50.576 0.04 6.88 2.73 10.81
5/6/2021 1:00:00 PM 10.54 50.972 0.04 6.89 2.68 10.77
5/6/2021 1:15:00 PM 10.74 51.332 0.04 6.88 2.79 10.73
5/6/2021 1:30:00 PM 10.77 51.386 0.04 6.88 2.67 10.7
5/6/2021 1:45:00 PM 10.79 51.422 0.04 6.88 2.72 10.7
5/6/2021 2:00:00 PM 10.9 51.62 0.04 6.9 2.72 10.67
5/6/2021 2:15:00 PM 10.99 51.782 0.04 6.89 2.76 10.64
5/6/2021 2:30:00 PM 11.11 51.998 0.04 6.9 2.79 10.61
5/6/2021 2:45:00 PM 11.16 52.088 0.04 6.91 2.88 10.58
5/6/2021 3:00:00 PM 11.2 52.16 0.04 6.9 2.78 10.57
5/6/2021 3:15:00 PM 11.27 52.286 0.04 6.9 2.79 10.54
5/6/2021 3:30:00 PM 11.35 52.43 0.04 6.92 2.84 10.52
5/6/2021 3:45:00 PM 11.41 52.538 0.04 6.91 2.77 10.5
5/6/2021 4:00:00 PM 11.43 52.574 0.04 6.92 2.79 10.49
5/6/2021 4:15:00 PM 11.44 52.592 0.04 6.91 2.73 10.48
5/6/2021 4:30:00 PM 11.48 52.664 0.04 6.92 2.77 10.48
5/6/2021 4:45:00 PM 11.48 52.664 0.04 6.91 2.76 10.47
5/6/2021 5:00:00 PM 11.53 52.754 0.04 6.91 2.83 10.46
5/6/2021 5:15:00 PM 11.57 52.826 0.04 6.91 2.88 10.45
5/6/2021 5:30:00 PM 11.57 52.826 0.04 6.92 2.76 10.42
5/6/2021 5:45:00 PM 11.54 52.772 0.04 6.91 2.82 10.41
5/6/2021 6:00:00 PM 11.5 52.7 0.04 6.9 2.89 10.4
5/6/2021 6:15:00 PM 11.44 52.592 0.04 6.91 2.97 10.41
5/6/2021 6:30:00 PM 11.4 52.52 0.04 6.91 2.8 10.4
5/6/2021 6:45:00 PM 11.4 52.52 0.04 6.89 2.78 10.39
5/6/2021 7:00:00 PM 11.37 52.466 0.04 6.89 2.78 10.38
5/6/2021 7:15:00 PM 11.3 52.34 0.04 6.88 2.88 10.36
5/6/2021 7:30:00 PM 11.22 52.196 0.04 6.87 2.96 10.34
5/6/2021 7:45:00 PM 11.14 52.052 0.04 6.86 2.91 10.33
5/6/2021 8:00:00 PM 11.05 51.89 0.04 6.85 2.87 10.31
5/6/2021 8:15:00 PM 10.95 51.71 0.04 6.82 2.91 10.31
5/6/2021 8:30:00 PM 10.84 51.512 0.04 6.81 2.91 10.3
5/6/2021 8:45:00 PM 10.72 51.296 0.04 6.8 2.9 10.3
5/6/2021 9:00:00 PM 10.6 51.08 0.04 6.79 2.95 10.3
5/6/2021 9:15:00 PM 10.49 50.882 0.04 6.78 2.95 10.33
5/6/2021 9:30:00 PM 10.37 50.666 0.04 6.77 3.07 10.35
5/6/2021 9:45:00 PM 10.25 50.45 0.041 6.76 3.04 10.37
5/6/2021 10:00:00 PM 10.13 50.234 0.041 6.75 2.93 10.4
5/6/2021 10:15:00 PM 10.02 50.036 0.041 6.75 2.98 10.41
5/6/2021 10:30:00 PM 9.91 49.838 0.041 6.75 3.01 10.44
5/6/2021 10:45:00 PM 9.8 49.64 0.041 6.74 3.06 10.46
5/6/2021 11:00:00 PM 9.7 49.46 0.041 6.74 2.97 10.49
5/6/2021 11:15:00 PM 9.6 49.28 0.041 6.73 2.94 10.52
5/6/2021 11:30:00 PM 9.5 49.1 0.041 6.73 2.93 10.54
5/6/2021 11:45:00 PM 9.4 48.92 0.041 6.72 2.92 10.55
5/7/2021 12:00:00 AM 9.31 48.758 0.041 6.73 3.09 10.57
5/7/2021 12:15:00 AM 9.22 48.596 0.041 6.72 3.06 10.6
5/7/2021 12:30:00 AM 9.13 48.434 0.041 6.73 3.04 10.62
5/7/2021 12:45:00 AM 9.04 48.272 0.041 6.72 3.04 10.65
5/7/2021 1:00:00 AM 8.95 48.11 0.041 6.73 2.93 10.68
5/7/2021 1:15:00 AM 8.87 47.966 0.041 6.73 2.99 10.69
5/7/2021 1:30:00 AM 8.78 47.804 0.041 6.72 2.98 10.71
5/7/2021 1:45:00 AM 8.7 47.66 0.041 6.7 2.97 10.73
5/7/2021 2:00:00 AM 8.61 47.498 0.041 6.73 3.11 10.75
5/7/2021 2:15:00 AM 8.53 47.354 0.041 6.73 2.92 10.77
5/7/2021 2:30:00 AM 8.46 47.228 0.041 6.74 3.07 10.8
5/7/2021 2:45:00 AM 8.39 47.102 0.041 6.73 3.01 10.82
5/7/2021 3:00:00 AM 8.32 46.976 0.041 6.72 2.99 10.85
5/7/2021 3:15:00 AM 8.25 46.85 0.041 6.72 3.01 10.85
5/7/2021 3:30:00 AM 8.18 46.724 0.041 6.72 2.96 10.86
5/7/2021 3:45:00 AM 8.12 46.616 0.041 6.73 2.94 10.89
5/7/2021 4:00:00 AM 8.05 46.49 0.041 6.73 2.97 10.9
5/7/2021 4:15:00 AM 7.99 46.382 0.041 6.71 3.02 10.91
5/7/2021 4:30:00 AM 7.93 46.274 0.041 6.7 2.91 10.94
5/7/2021 4:45:00 AM 7.87 46.166 0.041 6.72 2.94 10.95
5/7/2021 5:00:00 AM 7.82 46.076 0.041 6.73 3.03 10.97
5/7/2021 5:15:00 AM 7.77 45.986 0.041 6.68 2.89 10.98
5/7/2021 5:30:00 AM 7.71 45.878 0.041 6.71 2.99 11
5/7/2021 5:45:00 AM 7.66 45.788 0.041 6.72 2.97 11.01
5/7/2021 6:00:00 AM 7.6 45.68 0.041 6.72 2.94 11.03
5/7/2021 6:15:00 AM 7.55 45.59 0.041 6.71 2.93 11.04
5/7/2021 6:30:00 AM 7.5 45.5 0.041 6.72 3.02 11.06
5/7/2021 6:45:00 AM 7.47 45.446 0.041 6.72 3 11.1
5/7/2021 7:00:00 AM 7.44 45.392 0.041 6.73 2.95 11.13
5/7/2021 7:15:00 AM 7.43 45.374 0.041 6.73 2.89 11.17
5/7/2021 7:30:00 AM 7.43 45.374 0.041 6.75 2.94 11.21
5/7/2021 7:45:00 AM 7.45 45.41 0.041 6.73 2.93 11.24
5/7/2021 8:00:00 AM 7.47 45.446 0.041 6.77 2.8 11.27
5/7/2021 8:15:00 AM 7.49 45.482 0.041 6.78 2.95 11.29
5/7/2021 8:30:00 AM 7.52 45.536 0.041 6.79 2.83 11.3
5/7/2021 8:45:00 AM 7.57 45.626 0.041 6.8 2.84 11.31
5/7/2021 9:00:00 AM 7.62 45.716 0.041 6.79 2.88 11.33
5/7/2021 9:15:00 AM 7.69 45.842 0.041 6.82 2.8 11.33
5/7/2021 9:30:00 AM 7.78 46.004 0.041 6.81 2.74 11.33
5/7/2021 9:45:00 AM 7.88 46.184 0.041 6.84 2.82 11.32
5/7/2021 10:00:00 AM 7.97 46.346 0.041 6.85 2.77 11.3
5/7/2021 10:15:00 AM 8.06 46.508 0.041 6.86 2.79 11.27
5/7/2021 10:30:00 AM 8.19 46.742 0.041 6.85 2.81 11.26
5/7/2021 10:45:00 AM 8.34 47.012 0.041 6.86 2.73 11.25
5/7/2021 11:00:00 AM 8.44 47.192 0.041 6.88 2.72 11.22
5/7/2021 11:15:00 AM 8.58 47.444 0.041 6.87 2.86 11.18
5/7/2021 11:30:00 AM 8.63 47.534 0.041 6.88 2.76 11.16
5/7/2021 11:45:00 AM 8.72 47.696 0.04 6.85 2.81 11.12
5/7/2021 12:00:00 PM 8.77 47.786 0.04 6.89 2.74 11.1
5/7/2021 12:15:00 PM 8.89 48.002 0.04 6.9 2.67 11.08
5/7/2021 12:30:00 PM 9.01 48.218 0.04 6.88 2.81 11.05
5/7/2021 12:45:00 PM 9.13 48.434 0.04 6.89 2.74 11.01
5/7/2021 1:00:00 PM 9.23 48.614 0.04 6.91 2.7 10.97
5/7/2021 1:15:00 PM 9.29 48.722 0.04 6.88 2.76 10.95
5/7/2021 1:30:00 PM 9.34 48.812 0.04 6.9 2.76 10.93
5/7/2021 1:45:00 PM 9.38 48.884 0.04 6.9 2.8 10.91
5/7/2021 2:00:00 PM 9.39 48.902 0.04 6.91 2.79 10.89
5/7/2021 2:15:00 PM 9.41 48.938 0.04 6.9 2.82 10.86
5/7/2021 2:30:00 PM 9.41 48.938 0.04 6.89 2.76 10.83
5/7/2021 2:45:00 PM 9.4 48.92 0.04 6.89 2.9 10.8
5/7/2021 3:00:00 PM 9.39 48.902 0.04 6.89 2.87 10.79
5/7/2021 3:15:00 PM 9.4 48.92 0.04 6.86 2.82 10.78
5/7/2021 3:30:00 PM 9.42 48.956 0.04 6.88 2.96 10.79
5/7/2021 3:45:00 PM 9.43 48.974 0.04 6.88 2.87 10.79
5/7/2021 4:00:00 PM 9.43 48.974 0.04 6.86 2.82 10.8
5/7/2021 4:15:00 PM 9.43 48.974 0.04 6.87 2.89 10.78
5/7/2021 4:30:00 PM 9.41 48.938 0.04 6.87 2.87 10.78
5/7/2021 4:45:00 PM 9.41 48.938 0.04 6.87 2.83 10.78
5/7/2021 5:00:00 PM 9.41 48.938 0.04 6.84 2.87 10.79
5/7/2021 5:15:00 PM 9.4 48.92 0.04 6.87 2.96 10.75
5/7/2021 5:30:00 PM 9.38 48.884 0.04 6.85 2.96 10.74
5/7/2021 5:45:00 PM 9.36 48.848 0.04 6.85 2.88 10.74
5/7/2021 6:00:00 PM 9.34 48.812 0.04 6.83 2.91 10.73
5/7/2021 6:15:00 PM 9.32 48.776 0.04 6.84 3.06 10.72
5/7/2021 6:30:00 PM 9.29 48.722 0.04 6.85 2.95 10.73
5/7/2021 6:45:00 PM 9.26 48.668 0.04 6.84 3.01 10.73
5/7/2021 7:00:00 PM 9.23 48.614 0.04 6.81 2.96 10.73
5/7/2021 7:15:00 PM 9.19 48.542 0.04 6.82 2.95 10.72
5/7/2021 7:30:00 PM 9.15 48.47 0.04 6.79 2.99 10.72
5/7/2021 7:45:00 PM 9.09 48.362 0.04 6.79 3.03 10.72
5/7/2021 8:00:00 PM 9.05 48.29 0.04 6.8 3.04 10.72
5/7/2021 8:15:00 PM 9 48.2 0.04 6.79 3.07 10.71
5/7/2021 8:30:00 PM 8.95 48.11 0.04 6.76 3.14 10.71
5/7/2021 8:45:00 PM 8.91 48.038 0.041 6.78 3.13 10.7
5/7/2021 9:00:00 PM 8.86 47.948 0.041 6.76 3.26 10.7
5/7/2021 9:15:00 PM 8.82 47.876 0.041 6.76 3.25 10.71
5/7/2021 9:30:00 PM 8.78 47.804 0.041 6.77 3.16 10.71
5/7/2021 9:45:00 PM 8.75 47.75 0.041 6.75 3.1 10.71
5/7/2021 10:00:00 PM 8.72 47.696 0.041 6.76 3.15 10.72
5/7/2021 10:15:00 PM 8.69 47.642 0.041 6.76 3.15 10.72
5/7/2021 10:30:00 PM 8.66 47.588 0.041 6.75 3.13 10.74
5/7/2021 10:45:00 PM 8.63 47.534 0.041 6.75 3.09 10.74
5/7/2021 11:00:00 PM 8.59 47.462 0.041 6.76 3.14 10.76
5/7/2021 11:15:00 PM 8.55 47.39 0.041 6.74 3.08 10.76
5/7/2021 11:30:00 PM 8.52 47.336 0.041 6.75 3.12 10.77
5/7/2021 11:45:00 PM 8.49 47.282 0.041 6.75 3.05 10.79
5/8/2021 12:00:00 AM 8.46 47.228 0.041 6.72 3.25 10.79
5/8/2021 12:15:00 AM 8.43 47.174 0.041 6.75 3.2 10.8
5/8/2021 12:30:00 AM 8.4 47.12 0.041 6.73 3.09 10.8
5/8/2021 12:45:00 AM 8.37 47.066 0.041 6.75 3.04 10.81
5/8/2021 1:00:00 AM 8.35 47.03 0.041 6.74 3.03 10.82
5/8/2021 1:15:00 AM 8.32 46.976 0.041 6.74 3.07 10.82
5/8/2021 1:30:00 AM 8.3 46.94 0.041 6.72 3.03 10.82
5/8/2021 1:45:00 AM 8.28 46.904 0.041 6.75 3.08 10.83
5/8/2021 2:00:00 AM 8.25 46.85 0.041 6.71 3.04 10.83
5/8/2021 2:15:00 AM 8.23 46.814 0.041 6.73 3 10.84
5/8/2021 2:30:00 AM 8.2 46.76 0.041 6.75 2.96 10.85
5/8/2021 2:45:00 AM 8.18 46.724 0.041 6.73 2.99 10.85
5/8/2021 3:00:00 AM 8.15 46.67 0.041 6.72 3.04 10.86
5/8/2021 3:15:00 AM 8.13 46.634 0.041 6.75 3.03 10.87
5/8/2021 3:30:00 AM 8.11 46.598 0.041 6.73 2.95 10.87
5/8/2021 3:45:00 AM 8.09 46.562 0.041 6.71 2.93 10.87
5/8/2021 4:00:00 AM 8.06 46.508 0.041 6.74 2.98 10.88
5/8/2021 4:15:00 AM 8.04 46.472 0.041 6.7 2.99 10.88
5/8/2021 4:30:00 AM 8.02 46.436 0.041 6.75 2.98 10.89
5/8/2021 4:45:00 AM 8 46.4 0.041 6.73 2.91 10.9
5/8/2021 5:00:00 AM 7.97 46.346 0.041 6.73 2.99 10.91
5/8/2021 5:15:00 AM 7.95 46.31 0.041 6.74 2.97 10.91
5/8/2021 5:30:00 AM 7.91 46.238 0.041 6.71 2.95 10.92
5/8/2021 5:45:00 AM 7.87 46.166 0.041 6.75 3.01 10.93
5/8/2021 6:00:00 AM 7.83 46.094 0.041 6.71 3.03 10.95
5/8/2021 6:15:00 AM 7.8 46.04 0.041 6.74 2.86 10.96
5/8/2021 6:30:00 AM 7.78 46.004 0.041 6.73 2.89 10.98
5/8/2021 6:45:00 AM 7.78 46.004 0.041 6.76 2.88 11.02
5/8/2021 7:00:00 AM 7.78 46.004 0.041 6.77 2.84 11.06
5/8/2021 7:15:00 AM 7.78 46.004 0.041 6.77 2.89 11.1
5/8/2021 7:30:00 AM 7.79 46.022 0.041 6.78 2.87 11.13
5/8/2021 7:45:00 AM 7.82 46.076 0.041 6.8 2.87 11.16
5/8/2021 8:00:00 AM 7.84 46.112 0.041 6.8 2.9 11.19
5/8/2021 8:15:00 AM 7.88 46.184 0.041 6.82 2.85 11.21
5/8/2021 8:30:00 AM 7.91 46.238 0.041 6.8 2.79 11.21
5/8/2021 8:45:00 AM 7.93 46.274 0.041 6.84 2.77 11.21
5/8/2021 9:00:00 AM 7.96 46.328 0.041 6.84 2.78 11.21
5/8/2021 9:15:00 AM 7.98 46.364 0.041 6.84 2.77 11.21
5/8/2021 9:30:00 AM 8 46.4 0.041 6.84 2.79 11.22
5/8/2021 9:45:00 AM 8.04 46.472 0.041 6.84 2.78 11.21
5/8/2021 10:00:00 AM 8.07 46.526 0.041 6.86 2.69 11.2
5/8/2021 10:15:00 AM 8.09 46.562 0.041 6.87 2.72 11.2
5/8/2021 10:30:00 AM 8.11 46.598 0.041 6.85 2.74 11.2
5/8/2021 10:45:00 AM 8.15 46.67 0.041 6.86 2.65 11.21
5/8/2021 11:00:00 AM 8.19 46.742 0.041 6.86 2.75 11.21
5/8/2021 11:15:00 AM 8.24 46.832 0.041 6.87 2.76 11.21
5/8/2021 11:30:00 AM 8.37 47.066 0.041 6.87 2.73 11.2
5/8/2021 11:45:00 AM 8.39 47.102 0.041 6.89 2.72 11.2
5/8/2021 12:00:00 PM 8.55 47.39 0.041 6.89 2.72 11.18
5/8/2021 12:15:00 PM 8.59 47.462 0.041 6.89 2.7 11.16
5/8/2021 12:30:00 PM 8.66 47.588 0.041 6.88 2.71 11.12
5/8/2021 12:45:00 PM 8.73 47.714 0.04 6.9 2.8 11.1
5/8/2021 1:00:00 PM 8.74 47.732 0.04 6.87 2.73 11.11
5/8/2021 1:15:00 PM 8.79 47.822 0.04 6.88 2.67 11.08
5/8/2021 1:30:00 PM 8.86 47.948 0.04 6.89 2.71 11.06
5/8/2021 1:45:00 PM 8.87 47.966 0.04 6.86 2.71 11.06
5/8/2021 2:00:00 PM 9.02 48.236 0.04 6.9 2.71 11.07
5/8/2021 2:15:00 PM 9.15 48.47 0.04 6.86 2.83 11.06
5/8/2021 2:30:00 PM 9.33 48.794 0.04 6.91 2.75 11.01
5/8/2021 2:45:00 PM 9.4 48.92 0.04 6.87 2.73 10.97
5/8/2021 3:00:00 PM 9.41 48.938 0.04 6.9 2.73 10.94
5/8/2021 3:15:00 PM 9.53 49.154 0.04 6.91 2.61 10.94
5/8/2021 3:30:00 PM 9.53 49.154 0.04 6.91 2.78 10.94
5/8/2021 3:45:00 PM 9.6 49.28 0.04 6.91 2.72 10.93
5/8/2021 4:00:00 PM 9.62 49.316 0.04 6.92 2.77 10.91
5/8/2021 4:15:00 PM 9.56 49.208 0.04 6.91 2.8 10.88
5/8/2021 4:30:00 PM 9.51 49.118 0.04 6.89 2.74 10.84
5/8/2021 4:45:00 PM 9.45 49.01 0.04 6.88 2.8 10.8
5/8/2021 5:00:00 PM 9.45 49.01 0.04 6.89 2.86 10.81
5/8/2021 5:15:00 PM 9.41 48.938 0.04 6.88 2.87 10.83
5/8/2021 5:30:00 PM 9.41 48.938 0.04 6.88 2.86 10.86
5/8/2021 5:45:00 PM 9.42 48.956 0.04 6.87 2.84 10.88
5/8/2021 6:00:00 PM 9.45 49.01 0.04 6.88 2.87 10.87
5/8/2021 6:15:00 PM 9.48 49.064 0.04 6.87 2.84 10.85
5/8/2021 6:30:00 PM 9.47 49.046 0.04 6.87 2.95 10.8
5/8/2021 6:45:00 PM 9.44 48.992 0.04 6.86 3.03 10.76
5/8/2021 7:00:00 PM 9.42 48.956 0.04 6.83 3.05 10.75
5/8/2021 7:15:00 PM 9.42 48.956 0.04 6.85 2.95 10.74
5/8/2021 7:30:00 PM 9.38 48.884 0.04 6.84 2.92 10.74
5/8/2021 7:45:00 PM 9.33 48.794 0.04 6.82 2.92 10.73
5/8/2021 8:00:00 PM 9.28 48.704 0.041 6.83 2.96 10.73
5/8/2021 8:15:00 PM 9.23 48.614 0.041 6.83 2.97 10.72
5/8/2021 8:30:00 PM 9.17 48.506 0.041 6.82 2.93 10.71
5/8/2021 8:45:00 PM 9.1 48.38 0.041 6.81 2.86 10.72
5/8/2021 9:00:00 PM 9.02 48.236 0.041 6.78 2.93 10.72
5/8/2021 9:15:00 PM 8.96 48.128 0.041 6.79 3.05 10.73
5/8/2021 9:30:00 PM 8.89 48.002 0.041 6.78 3.05 10.74
5/8/2021 9:45:00 PM 8.82 47.876 0.041 6.77 3.01 10.75
5/8/2021 10:00:00 PM 8.75 47.75 0.041 6.79 2.94 10.76
5/8/2021 10:15:00 PM 8.68 47.624 0.041 6.77 2.95 10.77
5/8/2021 10:30:00 PM 8.6 47.48 0.041 6.77 3.03 10.81
5/8/2021 10:45:00 PM 8.53 47.354 0.041 6.75 3.05 10.82
5/8/2021 11:00:00 PM 8.45 47.21 0.041 6.75 2.98 10.83
5/8/2021 11:15:00 PM 8.39 47.102 0.041 6.77 2.99 10.85
5/8/2021 11:30:00 PM 8.32 46.976 0.041 6.75 3 10.87
5/8/2021 11:45:00 PM 8.26 46.868 0.041 6.74 2.97 10.89
5/9/2021 12:00:00 AM 8.21 46.778 0.041 6.75 2.86 10.9
5/9/2021 12:15:00 AM 8.17 46.706 0.041 6.74 2.95 10.92
5/9/2021 12:30:00 AM 8.12 46.616 0.041 6.74 2.86 10.93
5/9/2021 12:45:00 AM 8.07 46.526 0.041 6.74 2.97 10.93
5/9/2021 1:00:00 AM 8.02 46.436 0.041 6.74 2.89 10.95
5/9/2021 1:15:00 AM 7.96 46.328 0.041 6.75 2.96 10.97
5/9/2021 1:30:00 AM 7.9 46.22 0.041 6.74 2.95 10.99
5/9/2021 1:45:00 AM 7.84 46.112 0.041 6.75 2.87 11
5/9/2021 2:00:00 AM 7.77 45.986 0.041 6.74 2.92 11.02
5/9/2021 2:15:00 AM 7.7 45.86 0.041 6.71 2.85 11.05
5/9/2021 2:30:00 AM 7.63 45.734 0.041 6.74 2.86 11.06
5/9/2021 2:45:00 AM 7.57 45.626 0.041 6.73 2.9 11.08
5/9/2021 3:00:00 AM 7.51 45.518 0.041 6.72 2.84 11.09
5/9/2021 3:15:00 AM 7.45 45.41 0.041 6.74 2.81 11.11
5/9/2021 3:30:00 AM 7.39 45.302 0.041 6.74 2.88 11.12
5/9/2021 3:45:00 AM 7.33 45.194 0.041 6.74 2.8 11.14
5/9/2021 4:00:00 AM 7.27 45.086 0.041 6.74 2.82 11.16
5/9/2021 4:15:00 AM 7.22 44.996 0.041 6.74 2.77 11.18
5/9/2021 4:30:00 AM 7.17 44.906 0.041 6.72 2.9 11.19
5/9/2021 4:45:00 AM 7.11 44.798 0.041 6.74 2.84 11.21
5/9/2021 5:00:00 AM 7.06 44.708 0.041 6.75 2.84 11.23
5/9/2021 5:15:00 AM 7.02 44.636 0.041 6.75 2.84 11.25
5/9/2021 5:30:00 AM 6.97 44.546 0.041 6.71 2.83 11.26
5/9/2021 5:45:00 AM 6.92 44.456 0.041 6.75 2.8 11.27
5/9/2021 6:00:00 AM 6.88 44.384 0.041 6.74 2.72 11.28
5/9/2021 6:15:00 AM 6.85 44.33 0.041 6.71 2.76 11.3
5/9/2021 6:30:00 AM 6.81 44.258 0.041 6.75 2.82 11.32
5/9/2021 6:45:00 AM 6.79 44.222 0.041 6.76 2.76 11.36
5/9/2021 7:00:00 AM 6.77 44.186 0.041 6.75 2.82 11.39
5/9/2021 7:15:00 AM 6.76 44.168 0.041 6.77 2.76 11.43
5/9/2021 7:30:00 AM 6.76 44.168 0.041 6.78 2.83 11.47
5/9/2021 7:45:00 AM 6.76 44.168 0.041 6.79 2.79 11.5
5/9/2021 8:00:00 AM 6.76 44.168 0.041 6.79 2.67 11.51
5/9/2021 8:15:00 AM 6.79 44.222 0.041 6.78 2.65 11.53
5/9/2021 8:30:00 AM 6.8 44.24 0.041 6.79 2.71 11.55
5/9/2021 8:45:00 AM 6.87 44.366 0.041 6.82 2.69 11.56
5/9/2021 9:00:00 AM 6.97 44.546 0.041 6.83 2.63 11.57
5/9/2021 9:15:00 AM 7.06 44.708 0.041 6.84 2.62 11.57
5/9/2021 9:30:00 AM 7.14 44.852 0.041 6.86 2.61 11.57
5/9/2021 9:45:00 AM 7.23 45.014 0.041 6.85 2.67 11.55
5/9/2021 10:00:00 AM 7.38 45.284 0.041 6.83 2.58 11.52
5/9/2021 10:15:00 AM 7.48 45.464 0.041 6.87 2.6 11.49
5/9/2021 10:30:00 AM 7.55 45.59 0.041 6.88 2.57 11.48
5/9/2021 10:45:00 AM 7.63 45.734 0.041 6.88 2.58 11.46
5/9/2021 11:00:00 AM 7.7 45.86 0.041 6.85 2.59 11.44
5/9/2021 11:15:00 AM 7.76 45.968 0.041 6.86 2.57 11.42
5/9/2021 11:30:00 AM 7.83 46.094 0.041 6.9 2.6 11.39
5/9/2021 11:45:00 AM 7.87 46.166 0.041 6.89 2.6 11.38
5/9/2021 12:00:00 PM 7.91 46.238 0.041 6.86 2.63 11.37
5/9/2021 12:15:00 PM 7.93 46.274 0.041 6.91 2.56 11.35
5/9/2021 12:30:00 PM 7.95 46.31 0.041 6.9 2.59 11.34
5/9/2021 12:45:00 PM 7.97 46.346 0.041 6.9 2.59 11.33
5/9/2021 1:00:00 PM 7.99 46.382 0.041 6.89 2.56 11.32
5/9/2021 1:15:00 PM 8 46.4 0.041 6.9 2.6 11.3
5/9/2021 1:30:00 PM 8 46.4 0.041 6.9 2.6 11.29
5/9/2021 1:45:00 PM 7.99 46.382 0.041 6.89 2.58 11.26
5/9/2021 2:00:00 PM 7.98 46.364 0.04 6.86 2.58 11.26
5/9/2021 2:15:00 PM 7.97 46.346 0.04 6.89 2.62 11.25
5/9/2021 2:30:00 PM 7.94 46.292 0.04 6.89 2.63 11.25
5/9/2021 2:45:00 PM 7.93 46.274 0.04 6.86 2.72 11.24
5/9/2021 3:00:00 PM 7.91 46.238 0.04 6.88 2.65 11.23
5/9/2021 3:15:00 PM 7.87 46.166 0.04 6.87 2.71 11.23
5/9/2021 3:30:00 PM 7.83 46.094 0.04 6.87 2.76 11.22
5/9/2021 3:45:00 PM 7.77 45.986 0.04 6.86 2.84 11.22
5/9/2021 4:00:00 PM 7.68 45.824 0.04 6.85 2.79 11.22
5/9/2021 4:15:00 PM 7.57 45.626 0.04 6.84 2.92 11.23
5/9/2021 4:30:00 PM 7.42 45.356 0.04 6.85 3.04 11.22
5/9/2021 4:45:00 PM 7.24 45.032 0.04 6.82 2.99 11.24
5/9/2021 5:00:00 PM 7.06 44.708 0.04 6.82 3.07 11.26
5/9/2021 5:15:00 PM 6.9 44.42 0.04 6.81 3.2 11.27
5/9/2021 5:30:00 PM 6.66 43.988 0.04 6.81 3.19 11.3
5/9/2021 5:45:00 PM 6.57 43.826 0.04 6.8 3.32 11.35
5/9/2021 6:00:00 PM 6.54 43.772 0.04 6.8 3.36 11.38
5/9/2021 6:15:00 PM 6.51 43.718 0.04 6.77 3.38 11.4
5/9/2021 6:30:00 PM 6.47 43.646 0.04 6.8 3.51 11.42
5/9/2021 6:45:00 PM 6.44 43.592 0.04 6.77 3.69 11.43
5/9/2021 7:00:00 PM 6.4 43.52 0.04 6.78 3.87 11.44
5/9/2021 7:15:00 PM 6.34 43.412 0.04 6.78 3.87 11.44
5/9/2021 7:30:00 PM 6.29 43.322 0.04 6.76 4.23 11.44
5/9/2021 7:45:00 PM 6.25 43.25 0.04 6.76 4.14 11.44
5/9/2021 8:00:00 PM 6.2 43.16 0.04 6.72 4.48 11.44
5/9/2021 8:15:00 PM 6.16 43.088 0.04 6.75 4.55 11.44
5/9/2021 8:30:00 PM 6.13 43.034 0.04 6.74 4.85 11.44
5/9/2021 8:45:00 PM 6.1 42.98 0.04 6.73 5.02 11.44
5/9/2021 9:00:00 PM 6.09 42.962 0.04 6.72 5.41 11.44
5/9/2021 9:15:00 PM 6.07 42.926 0.04 6.71 5.56 11.44
5/9/2021 9:30:00 PM 6.06 42.908 0.04 6.71 6.07 11.45
5/9/2021 9:45:00 PM 6.05 42.89 0.04 6.73 6.05 11.44
5/9/2021 10:00:00 PM 6.03 42.854 0.04 6.71 6.21 11.45
5/9/2021 10:15:00 PM 6.02 42.836 0.04 6.57 6.76 11.45
5/9/2021 10:30:00 PM 6.01 42.818 0.04 6.52 6.8 11.44
5/9/2021 10:45:00 PM 6.01 42.818 0.04 6.55 6.99 11.45
5/9/2021 11:00:00 PM 6 42.8 0.04 6.56 7.37 11.45
5/9/2021 11:15:00 PM 6 42.8 0.04 6.55 7.32 11.44
5/9/2021 11:30:00 PM 6 42.8 0.04 6.55 7.58 11.45
5/9/2021 11:45:00 PM 5.99 42.782 0.04 6.54 7.95 11.45
5/10/2021 12:00:00 AM 5.98 42.764 0.039 6.51 8.08 11.46
5/10/2021 12:15:00 AM 5.98 42.764 0.039 6.52 8.05 11.46
5/10/2021 12:30:00 AM 5.98 42.764 0.039 6.51 8.25 11.46
5/10/2021 12:45:00 AM 5.98 42.764 0.039 6.53 8.27 11.46
5/10/2021 1:00:00 AM 5.99 42.782 0.039 6.53 8.3 11.45
5/10/2021 1:15:00 AM 6 42.8 0.039 6.55 8.26 11.45
5/10/2021 1:30:00 AM 6.01 42.818 0.039 6.55 8.22 11.44
5/10/2021 1:45:00 AM 6.02 42.836 0.039 6.59 8.17 11.44
5/10/2021 2:00:00 AM 6.03 42.854 0.039 6.59 7.79 11.44
5/10/2021 2:15:00 AM 6.04 42.872 0.039 6.58 7.88 11.44
5/10/2021 2:30:00 AM 6.06 42.908 0.039 6.59 7.54 11.44
5/10/2021 2:45:00 AM 6.07 42.926 0.039 6.6 7.53 11.43
5/10/2021 3:00:00 AM 6.09 42.962 0.039 6.61 7.45 11.43
5/10/2021 3:15:00 AM 6.1 42.98 0.039 6.61 7.59 11.42
5/10/2021 3:30:00 AM 6.11 42.998 0.039 6.59 7.13 11.42
5/10/2021 3:45:00 AM 6.12 43.016 0.039 6.59 6.89 11.41
5/10/2021 4:00:00 AM 6.14 43.052 0.039 6.6 7.02 11.41
5/10/2021 4:15:00 AM 6.15 43.07 0.039 6.65 6.34 11.41
5/10/2021 4:30:00 AM 6.17 43.106 0.039 6.63 6.21 11.41
5/10/2021 4:45:00 AM 6.18 43.124 0.039 6.64 5.89 11.41
5/10/2021 5:00:00 AM 6.2 43.16 0.039 6.64 5.97 11.41
5/10/2021 5:15:00 AM 6.21 43.178 0.039 6.63 5.65 11.4
5/10/2021 5:30:00 AM 6.23 43.214 0.039 6.63 5.55 11.4
5/10/2021 5:45:00 AM 6.24 43.232 0.039 6.64 5.43 11.4
5/10/2021 6:00:00 AM 6.26 43.268 0.039 6.64 5.44 11.4
5/10/2021 6:15:00 AM 6.28 43.304 0.039 6.63 5.32 11.4
5/10/2021 6:30:00 AM 6.29 43.322 0.039 6.65 4.97 11.4
5/10/2021 6:45:00 AM 6.31 43.358 0.039 6.64 5.12 11.41
5/10/2021 7:00:00 AM 6.34 43.412 0.039 6.64 5.02 11.43
5/10/2021 7:15:00 AM 6.36 43.448 0.039 6.65 4.97 11.45
5/10/2021 7:30:00 AM 6.39 43.502 0.039 6.65 4.88 11.47
5/10/2021 7:45:00 AM 6.43 43.574 0.039 6.67 4.71 11.48
5/10/2021 8:00:00 AM 6.46 43.628 0.039 6.69 4.67 11.49
5/10/2021 8:15:00 AM 6.49 43.682 0.039 6.68 4.6 11.49
5/10/2021 8:30:00 AM 6.53 43.754 0.039 6.69 4.62 11.49
5/10/2021 8:45:00 AM 6.56 43.808 0.039 6.7 4.54 11.5
5/10/2021 9:00:00 AM 6.62 43.916 0.039 6.7 4.52 11.5
5/10/2021 9:15:00 AM 6.74 44.132 0.039 6.71 4.57 11.5
5/10/2021 9:30:00 AM 6.87 44.366 0.039 6.71 4.34 11.48
5/10/2021 9:45:00 AM 6.98 44.564 0.039 6.73 4.34 11.49
5/10/2021 10:00:00 AM 7.06 44.708 0.039 6.71 4.37 11.47
5/10/2021 10:15:00 AM 7.19 44.942 0.039 6.71 4.41 11.44
5/10/2021 10:30:00 AM 7.37 45.266 0.039 6.74 4.49 11.42
5/10/2021 10:45:00 AM 7.54 45.572 0.039 6.75 4.47 11.4
5/10/2021 11:00:00 AM 7.68 45.824 0.039 6.73 4.47 11.37
5/10/2021 11:15:00 AM 7.76 45.968 0.039 6.75 4.4 11.33
5/10/2021 11:30:00 AM 8.03 46.454 0.039 6.75 4.48 11.31
5/10/2021 11:45:00 AM 8.12 46.616 0.039 6.74 4.5 11.26
5/10/2021 12:00:00 PM 8.34 47.012 0.039 6.72 4.5 11.24
5/10/2021 12:15:00 PM 8.39 47.102 0.038 6.77 4.48 11.21
5/10/2021 12:30:00 PM 8.6 47.48 0.038 6.76 4.6 11.18
5/10/2021 12:45:00 PM 8.7 47.66 0.038 6.79 4.66 11.14
5/10/2021 1:00:00 PM 8.91 48.038 0.038 6.78 4.58 11.1
5/10/2021 1:15:00 PM 9.08 48.344 0.038 6.79 4.62 11.07
5/10/2021 1:30:00 PM 9.2 48.56 0.038 6.79 4.65 11.03
5/10/2021 1:45:00 PM 9.36 48.848 0.038 6.76 4.68 10.99
5/10/2021 2:00:00 PM 9.57 49.226 0.038 6.78 4.69 10.97
5/10/2021 2:15:00 PM 9.68 49.424 0.038 6.78 4.81 10.94
5/10/2021 2:30:00 PM 9.84 49.712 0.038 6.8 4.92 10.91
5/10/2021 2:45:00 PM 9.91 49.838 0.038 6.78 4.91 10.88
5/10/2021 3:00:00 PM 9.96 49.928 0.038 6.8 5.08 10.84
5/10/2021 3:15:00 PM 10.16 50.288 0.038 6.8 4.91 10.82
5/10/2021 3:30:00 PM 10.36 50.648 0.038 6.81 4.89 10.77
5/10/2021 3:45:00 PM 10.52 50.936 0.038 6.77 5.02 10.72
5/10/2021 4:00:00 PM 10.6 51.08 0.038 6.81 4.94 10.67
5/10/2021 4:15:00 PM 10.59 51.062 0.038 6.78 5.1 10.62
5/10/2021 4:30:00 PM 10.55 50.99 0.038 6.8 5.08 10.61
5/10/2021 4:45:00 PM 10.44 50.792 0.038 6.79 4.99 10.63
5/10/2021 5:00:00 PM 10.36 50.648 0.038 6.78 4.93 10.65
5/10/2021 5:15:00 PM 10.3 50.54 0.038 6.77 5.16 10.65
5/10/2021 5:30:00 PM 10.27 50.486 0.038 6.82 5.17 10.66
5/10/2021 5:45:00 PM 10.22 50.396 0.038 6.78 5.43 10.66
5/10/2021 6:00:00 PM 10.17 50.306 0.038 6.76 5.14 10.67
5/10/2021 6:15:00 PM 10.09 50.162 0.038 6.77 5.04 10.66
5/10/2021 6:30:00 PM 10.03 50.054 0.038 6.79 4.94 10.66
5/10/2021 6:45:00 PM 9.93 49.874 0.038 6.76 4.85 10.67
5/10/2021 7:00:00 PM 9.84 49.712 0.038 6.74 4.95 10.67
5/10/2021 7:15:00 PM 9.73 49.514 0.038 6.72 5.04 10.68
5/10/2021 7:30:00 PM 9.63 49.334 0.038 6.74 4.91 10.69
5/10/2021 7:45:00 PM 9.51 49.118 0.038 6.69 4.94 10.7
5/10/2021 8:00:00 PM 9.39 48.902 0.038 6.73 4.78 10.7
5/10/2021 8:15:00 PM 9.27 48.686 0.038 6.7 4.98 10.71
5/10/2021 8:30:00 PM 9.16 48.488 0.038 6.68 5.02 10.73
5/10/2021 8:45:00 PM 9.04 48.272 0.038 6.7 5.11 10.75
5/10/2021 9:00:00 PM 8.93 48.074 0.038 6.67 5.02 10.76
5/10/2021 9:15:00 PM 8.83 47.894 0.038 6.65 5.22 10.77
5/10/2021 9:30:00 PM 8.73 47.714 0.038 6.67 5.01 10.78
5/10/2021 9:45:00 PM 8.64 47.552 0.038 6.66 5.23 10.81
5/10/2021 10:00:00 PM 8.56 47.408 0.038 6.67 5.07 10.83
5/10/2021 10:15:00 PM 8.48 47.264 0.038 6.63 5.36 10.86
5/10/2021 10:30:00 PM 8.4 47.12 0.038 6.65 5.02 10.88
5/10/2021 10:45:00 PM 8.33 46.994 0.038 6.64 5.32 10.89
5/10/2021 11:00:00 PM 8.27 46.886 0.038 6.62 5.11 10.91
5/10/2021 11:15:00 PM 8.2 46.76 0.038 6.63 5.15 10.91
5/10/2021 11:30:00 PM 8.14 46.652 0.038 6.62 5.18 10.93
5/10/2021 11:45:00 PM 8.08 46.544 0.038 6.62 5.21 10.95
5/11/2021 12:00:00 AM 8.01 46.418 0.038 6.61 5.14 10.97
5/11/2021 12:15:00 AM 7.95 46.31 0.038 6.61 5.11 10.98
5/11/2021 12:30:00 AM 7.9 46.22 0.038 6.62 5.18 11
5/11/2021 12:45:00 AM 7.84 46.112 0.038 6.61 5.01 11.02
5/11/2021 1:00:00 AM 7.78 46.004 0.038 6.61 5 11.03
5/11/2021 1:15:00 AM 7.72 45.896 0.038 6.61 5.08 11.05
5/11/2021 1:30:00 AM 7.67 45.806 0.038 6.61 5.23 11.06
5/11/2021 1:45:00 AM 7.61 45.698 0.038 6.61 5.04 11.08
5/11/2021 2:00:00 AM 7.56 45.608 0.038 6.61 4.94 11.09
5/11/2021 2:15:00 AM 7.51 45.518 0.038 6.6 5 11.11
5/11/2021 2:30:00 AM 7.46 45.428 0.038 6.58 5.1 11.12
5/11/2021 2:45:00 AM 7.41 45.338 0.038 6.6 5.09 11.13
5/11/2021 3:00:00 AM 7.37 45.266 0.038 6.57 5.04 11.15
5/11/2021 3:15:00 AM 7.33 45.194 0.038 6.59 5.07 11.16
5/11/2021 3:30:00 AM 7.3 45.14 0.038 6.6 5.2 11.17
5/11/2021 3:45:00 AM 7.27 45.086 0.038 6.59 4.98 11.18
5/11/2021 4:00:00 AM 7.25 45.05 0.038 6.53 4.99 11.19
5/11/2021 4:15:00 AM 7.21 44.978 0.038 6.56 4.99 11.2
5/11/2021 4:30:00 AM 7.18 44.924 0.038 6.56 5 11.21
5/11/2021 4:45:00 AM 7.14 44.852 0.038 6.55 5.12 11.22
5/11/2021 5:00:00 AM 7.1 44.78 0.038 6.55 5.01 11.22
5/11/2021 5:15:00 AM 7.06 44.708 0.038 6.55 5.1 11.24
5/11/2021 5:30:00 AM 7.02 44.636 0.038 6.54 5.03 11.25
5/11/2021 5:45:00 AM 6.98 44.564 0.038 6.54 4.99 11.26
5/11/2021 6:00:00 AM 6.95 44.51 0.038 6.54 4.98 11.27
5/11/2021 6:15:00 AM 6.92 44.456 0.038 6.53 5.03 11.28
5/11/2021 6:30:00 AM 6.89 44.402 0.038 6.54 4.97 11.3
5/11/2021 6:45:00 AM 6.87 44.366 0.038 6.56 5.04 11.32
5/11/2021 7:00:00 AM 6.85 44.33 0.038 6.55 5.04 11.34
5/11/2021 7:15:00 AM 6.84 44.312 0.038 6.56 4.82 11.37
5/11/2021 7:30:00 AM 6.84 44.312 0.038 6.58 4.79 11.39
5/11/2021 7:45:00 AM 6.84 44.312 0.038 6.6 4.81 11.41
5/11/2021 8:00:00 AM 6.86 44.348 0.038 6.58 4.8 11.42
5/11/2021 8:15:00 AM 6.88 44.384 0.038 6.62 4.79 11.44
5/11/2021 8:30:00 AM 6.92 44.456 0.038 6.62 4.6 11.45
5/11/2021 8:45:00 AM 6.97 44.546 0.038 6.64 4.77 11.46
5/11/2021 9:00:00 AM 7.03 44.654 0.038 6.65 4.59 11.46
5/11/2021 9:15:00 AM 7.11 44.798 0.038 6.68 4.65 11.46
5/11/2021 9:30:00 AM 7.19 44.942 0.038 6.68 4.63 11.45
5/11/2021 9:45:00 AM 7.27 45.086 0.038 6.67 4.72 11.44
5/11/2021 10:00:00 AM 7.37 45.266 0.038 6.7 4.52 11.42
5/11/2021 10:15:00 AM 7.51 45.518 0.038 6.69 4.67 11.41
5/11/2021 10:30:00 AM 7.65 45.77 0.038 6.7 4.55 11.39
5/11/2021 10:45:00 AM 7.76 45.968 0.038 6.72 4.67 11.36
5/11/2021 11:00:00 AM 7.85 46.13 0.038 6.69 4.53 11.34
5/11/2021 11:15:00 AM 7.95 46.31 0.038 6.72 4.56 11.32
5/11/2021 11:30:00 AM 8.06 46.508 0.038 6.71 4.61 11.29
5/11/2021 11:45:00 AM 8.12 46.616 0.038 6.73 4.6 11.27
5/11/2021 12:00:00 PM 8.22 46.796 0.038 6.73 4.51 11.26
5/11/2021 12:15:00 PM 8.44 47.192 0.037 6.74 4.44 11.22
5/11/2021 12:30:00 PM 8.55 47.39 0.037 6.75 4.51 11.19
5/11/2021 12:45:00 PM 8.68 47.624 0.037 6.75 4.63 11.16
5/11/2021 1:00:00 PM 8.81 47.858 0.037 6.73 4.67 11.13
5/11/2021 1:15:00 PM 8.86 47.948 0.037 6.74 4.57 11.11
5/11/2021 1:30:00 PM 9.02 48.236 0.037 6.74 4.47 11.09
5/11/2021 1:45:00 PM 9.13 48.434 0.037 6.74 4.71 11.06
5/11/2021 2:00:00 PM 9.23 48.614 0.037 6.75 4.66 11.02
5/11/2021 2:15:00 PM 9.36 48.848 0.037 6.73 4.5 10.99
5/11/2021 2:30:00 PM 9.4 48.92 0.037 6.75 4.51 10.95
5/11/2021 2:45:00 PM 9.49 49.082 0.037 6.74 4.46 10.94
5/11/2021 3:00:00 PM 9.65 49.37 0.037 6.74 4.43 10.91
5/11/2021 3:15:00 PM 9.69 49.442 0.037 6.75 4.4 10.88
5/11/2021 3:30:00 PM 9.75 49.55 0.037 6.73 4.39 10.86
5/11/2021 3:45:00 PM 9.87 49.766 0.037 6.75 4.37 10.82
5/11/2021 4:00:00 PM 9.96 49.928 0.037 6.74 4.37 10.81
5/11/2021 4:15:00 PM 9.98 49.964 0.037 6.74 4.65 10.8
5/11/2021 4:30:00 PM 10 50 0.037 6.76 4.41 10.78
5/11/2021 4:45:00 PM 10.02 50.036 0.037 6.76 4.41 10.77
5/11/2021 5:00:00 PM 9.99 49.982 0.037 6.74 4.35 10.76
5/11/2021 5:15:00 PM 9.96 49.928 0.037 6.76 4.35 10.76
5/11/2021 5:30:00 PM 9.98 49.964 0.037 6.76 4.32 10.76
5/11/2021 5:45:00 PM 9.98 49.964 0.037 6.76 4.5 10.75
5/11/2021 6:00:00 PM 9.93 49.874 0.037 6.75 4.46 10.74
5/11/2021 6:15:00 PM 9.88 49.784 0.037 6.74 4.44 10.74
5/11/2021 6:30:00 PM 9.79 49.622 0.037 6.75 4.31 10.75
5/11/2021 6:45:00 PM 9.71 49.478 0.037 6.73 4.41 10.77
5/11/2021 7:00:00 PM 9.6 49.28 0.037 6.7 4.32 10.77
5/11/2021 7:15:00 PM 9.49 49.082 0.037 6.68 4.12 10.78
5/11/2021 7:30:00 PM 9.38 48.884 0.037 6.7 4.21 10.77
5/11/2021 7:45:00 PM 9.27 48.686 0.037 6.68 4.14 10.78
5/11/2021 8:00:00 PM 9.14 48.452 0.037 6.68 4.33 10.81
5/11/2021 8:15:00 PM 9.03 48.254 0.038 6.69 4.21 10.82
5/11/2021 8:30:00 PM 8.93 48.074 0.038 6.66 4.31 10.83
5/11/2021 8:45:00 PM 8.82 47.876 0.038 6.65 4.37 10.83
5/11/2021 9:00:00 PM 8.72 47.696 0.038 6.64 4.37 10.85
5/11/2021 9:15:00 PM 8.63 47.534 0.038 6.64 4.28 10.86
5/11/2021 9:30:00 PM 8.53 47.354 0.038 6.64 4.36 10.89
5/11/2021 9:45:00 PM 8.45 47.21 0.038 6.64 4.25 10.91
5/11/2021 10:00:00 PM 8.36 47.048 0.038 6.62 4.26 10.94
5/11/2021 10:15:00 PM 8.28 46.904 0.038 6.62 4.3 10.96
5/11/2021 10:30:00 PM 8.19 46.742 0.038 6.62 4.24 10.97
5/11/2021 10:45:00 PM 8.11 46.598 0.038 6.61 4.19 10.99
5/11/2021 11:00:00 PM 8.02 46.436 0.038 6.6 4.15 11.01
5/11/2021 11:15:00 PM 7.93 46.274 0.038 6.61 4.27 11.03
5/11/2021 11:30:00 PM 7.85 46.13 0.038 6.6 4.21 11.05
5/11/2021 11:45:00 PM 7.77 45.986 0.038 6.59 4.1 11.08
5/12/2021 12:00:00 AM 7.7 45.86 0.038 6.62 4.14 11.1
5/12/2021 12:15:00 AM 7.63 45.734 0.038 6.6 4.21 11.12
5/12/2021 12:30:00 AM 7.56 45.608 0.038 6.6 4 11.14
5/12/2021 12:45:00 AM 7.5 45.5 0.038 6.6 3.97 11.15
5/12/2021 1:00:00 AM 7.45 45.41 0.038 6.6 4.02 11.17
5/12/2021 1:15:00 AM 7.39 45.302 0.038 6.58 3.94 11.19
5/12/2021 1:30:00 AM 7.33 45.194 0.038 6.6 4.01 11.2
5/12/2021 1:45:00 AM 7.27 45.086 0.038 6.59 3.97 11.22
5/12/2021 2:00:00 AM 7.22 44.996 0.038 6.59 3.85 11.23
5/12/2021 2:15:00 AM 7.18 44.924 0.038 6.6 3.83 11.24
5/12/2021 2:30:00 AM 7.14 44.852 0.038 6.6 3.97 11.26
5/12/2021 2:45:00 AM 7.1 44.78 0.038 6.61 3.85 11.27
5/12/2021 3:00:00 AM 7.06 44.708 0.038 6.6 3.82 11.28
5/12/2021 3:15:00 AM 7.02 44.636 0.038 6.59 3.79 11.29
5/12/2021 3:30:00 AM 6.99 44.582 0.038 6.6 3.83 11.3
5/12/2021 3:45:00 AM 6.96 44.528 0.038 6.58 3.87 11.31
5/12/2021 4:00:00 AM 6.93 44.474 0.038 6.59 3.73 11.32
5/12/2021 4:15:00 AM 6.9 44.42 0.038 6.58 3.84 11.32
5/12/2021 4:30:00 AM 6.87 44.366 0.038 6.53 3.71 11.33
5/12/2021 4:45:00 AM 6.84 44.312 0.038 6.54 3.84 11.33
5/12/2021 5:00:00 AM 6.82 44.276 0.038 6.55 3.7 11.34
5/12/2021 5:15:00 AM 6.79 44.222 0.038 6.55 3.8 11.35
5/12/2021 5:30:00 AM 6.76 44.168 0.038 6.56 3.72 11.36
5/12/2021 5:45:00 AM 6.73 44.114 0.038 6.55 3.87 11.37
5/12/2021 6:00:00 AM 6.71 44.078 0.038 6.55 3.67 11.38
5/12/2021 6:15:00 AM 6.68 44.024 0.038 6.54 3.87 11.39
5/12/2021 6:30:00 AM 6.66 43.988 0.038 6.53 3.79 11.41
5/12/2021 6:45:00 AM 6.64 43.952 0.038 6.54 3.72 11.43
5/12/2021 7:00:00 AM 6.63 43.934 0.038 6.54 3.66 11.45
5/12/2021 7:15:00 AM 6.63 43.934 0.038 6.58 3.58 11.48
5/12/2021 7:30:00 AM 6.65 43.97 0.038 6.55 3.6 11.51
5/12/2021 7:45:00 AM 6.67 44.006 0.038 6.58 3.55 11.52
5/12/2021 8:00:00 AM 6.69 44.042 0.038 6.6 3.6 11.54
5/12/2021 8:15:00 AM 6.74 44.132 0.038 6.57 3.4 11.55
5/12/2021 8:30:00 AM 6.79 44.222 0.038 6.6 3.43 11.55
5/12/2021 8:45:00 AM 6.85 44.33 0.038 6.61 3.41 11.55
5/12/2021 9:00:00 AM 6.91 44.438 0.038 6.62 3.41 11.56
5/12/2021 9:15:00 AM 6.98 44.564 0.038 6.63 3.4 11.56
5/12/2021 9:30:00 AM 7.09 44.762 0.038 6.64 3.36 11.55
5/12/2021 9:45:00 AM 7.2 44.96 0.038 6.63 3.22 11.53
5/12/2021 10:00:00 AM 7.33 45.194 0.038 6.66 3.35 11.5
5/12/2021 10:15:00 AM 7.48 45.464 0.038 6.64 3.34 11.48
5/12/2021 10:30:00 AM 7.63 45.734 0.038 6.65 3.29 11.47
5/12/2021 10:45:00 AM 7.81 46.058 0.038 6.65 3.26 11.43
5/12/2021 11:00:00 AM 7.99 46.382 0.038 6.66 3.26 11.4
5/12/2021 11:15:00 AM 8.17 46.706 0.038 6.69 3.26 11.37
5/12/2021 11:30:00 AM 8.29 46.922 0.038 6.68 3.32 11.35
5/12/2021 11:45:00 AM 8.36 47.048 0.038 6.66 3.34 11.3
5/12/2021 12:00:00 PM 8.52 47.336 0.037 6.69 3.18 11.28
5/12/2021 12:15:00 PM 8.67 47.606 0.037 6.68 3.27 11.24
5/12/2021 12:30:00 PM 8.78 47.804 0.037 6.7 3.26 11.2
5/12/2021 12:45:00 PM 8.95 48.11 0.037 6.72 3.17 11.18
5/12/2021 1:00:00 PM 9.1 48.38 0.037 6.72 3.21 11.14
5/12/2021 1:15:00 PM 9.15 48.47 0.037 6.69 3.24 11.11
5/12/2021 1:30:00 PM 9.28 48.704 0.037 6.72 3.26 11.08
5/12/2021 1:45:00 PM 9.33 48.794 0.037 6.71 3.33 11.04
5/12/2021 2:00:00 PM 9.4 48.92 0.037 6.72 3.28 11.03
5/12/2021 2:15:00 PM 9.5 49.1 0.037 6.7 3.3 11.03
5/12/2021 2:30:00 PM 9.6 49.28 0.037 6.73 3.23 11.01
5/12/2021 2:45:00 PM 9.75 49.55 0.037 6.71 3.33 10.98
5/12/2021 3:00:00 PM 9.97 49.946 0.037 6.73 3.33 10.93
5/12/2021 3:15:00 PM 10.02 50.036 0.037 6.71 3.34 10.9
5/12/2021 3:30:00 PM 10.09 50.162 0.037 6.74 3.29 10.89
5/12/2021 3:45:00 PM 10.18 50.324 0.037 6.72 3.25 10.86
5/12/2021 4:00:00 PM 10.18 50.324 0.037 6.75 3.28 10.84
5/12/2021 4:15:00 PM 10.12 50.216 0.037 6.72 3.32 10.83
5/12/2021 4:30:00 PM 10.09 50.162 0.037 6.75 3.27 10.83
5/12/2021 4:45:00 PM 10.2 50.36 0.037 6.72 3.28 10.83
5/12/2021 5:00:00 PM 10.22 50.396 0.037 6.74 3.35 10.82
5/12/2021 5:15:00 PM 10.24 50.432 0.037 6.74 3.31 10.8
5/12/2021 5:30:00 PM 10.26 50.468 0.037 6.75 3.41 10.79
5/12/2021 5:45:00 PM 10.23 50.414 0.037 6.72 3.35 10.77
5/12/2021 6:00:00 PM 10.18 50.324 0.037 6.76 3.46 10.76
5/12/2021 6:15:00 PM 10.11 50.198 0.037 6.7 3.33 10.77
5/12/2021 6:30:00 PM 10.04 50.072 0.037 6.72 3.28 10.77
5/12/2021 6:45:00 PM 9.95 49.91 0.038 6.71 3.38 10.76
5/12/2021 7:00:00 PM 9.87 49.766 0.038 6.73 3.4 10.77
5/12/2021 7:15:00 PM 9.78 49.604 0.038 6.72 3.33 10.78
5/12/2021 7:30:00 PM 9.68 49.424 0.038 6.73 3.39 10.78
5/12/2021 7:45:00 PM 9.57 49.226 0.038 6.7 3.34 10.79
5/12/2021 8:00:00 PM 9.47 49.046 0.038 6.7 3.44 10.78
5/12/2021 8:15:00 PM 9.36 48.848 0.038 6.68 3.41 10.78
5/12/2021 8:30:00 PM 9.26 48.668 0.038 6.7 3.58 10.79
5/12/2021 8:45:00 PM 9.16 48.488 0.038 6.68 3.5 10.81
5/12/2021 9:00:00 PM 9.07 48.326 0.038 6.66 3.31 10.82
5/12/2021 9:15:00 PM 8.98 48.164 0.038 6.67 3.5 10.83
5/12/2021 9:30:00 PM 8.89 48.002 0.038 6.68 3.41 10.84
5/12/2021 9:45:00 PM 8.81 47.858 0.038 6.65 3.42 10.85
5/12/2021 10:00:00 PM 8.72 47.696 0.038 6.66 3.39 10.87
5/12/2021 10:15:00 PM 8.64 47.552 0.038 6.65 3.39 10.88
5/12/2021 10:30:00 PM 8.55 47.39 0.038 6.65 3.42 10.91
5/12/2021 10:45:00 PM 8.47 47.246 0.038 6.63 3.34 10.94
5/12/2021 11:00:00 PM 8.38 47.084 0.038 6.63 3.37 10.96
5/12/2021 11:15:00 PM 8.3 46.94 0.038 6.6 3.32 10.98
5/12/2021 11:30:00 PM 8.22 46.796 0.038 6.6 3.42 11
5/12/2021 11:45:00 PM 8.15 46.67 0.038 6.64 3.42 11.01
5/13/2021 12:00:00 AM 8.07 46.526 0.038 6.6 3.46 11.03
5/13/2021 12:15:00 AM 8.01 46.418 0.038 6.6 3.36 11.05
5/13/2021 12:30:00 AM 7.94 46.292 0.038 6.6 3.35 11.07
5/13/2021 12:45:00 AM 7.87 46.166 0.038 6.6 3.32 11.09
5/13/2021 1:00:00 AM 7.79 46.022 0.038 6.6 3.26 11.11
5/13/2021 1:15:00 AM 7.72 45.896 0.038 6.6 3.41 11.13
5/13/2021 1:30:00 AM 7.65 45.77 0.038 6.59 3.29 11.16
5/13/2021 1:45:00 AM 7.58 45.644 0.038 6.59 3.28 11.18
5/13/2021 2:00:00 AM 7.51 45.518 0.038 6.59 3.25 11.18
5/13/2021 2:15:00 AM 7.45 45.41 0.038 6.59 3.3 11.2
5/13/2021 2:30:00 AM 7.39 45.302 0.038 6.59 3.19 11.22
5/13/2021 2:45:00 AM 7.33 45.194 0.038 6.6 3.21 11.23
5/13/2021 3:00:00 AM 7.27 45.086 0.038 6.6 3.18 11.25
5/13/2021 3:15:00 AM 7.22 44.996 0.038 6.59 3.27 11.26
5/13/2021 3:30:00 AM 7.17 44.906 0.038 6.6 3.34 11.27
5/13/2021 3:45:00 AM 7.12 44.816 0.038 6.6 3.29 11.29
5/13/2021 4:00:00 AM 7.07 44.726 0.038 6.6 3.29 11.32
5/13/2021 4:15:00 AM 7.03 44.654 0.038 6.58 3.38 11.33
5/13/2021 4:30:00 AM 6.98 44.564 0.038 6.59 3.23 11.34
5/13/2021 4:45:00 AM 6.93 44.474 0.038 6.57 3.2 11.35
5/13/2021 5:00:00 AM 6.89 44.402 0.038 6.58 3.19 11.36
5/13/2021 5:15:00 AM 6.85 44.33 0.038 6.59 3.13 11.37
5/13/2021 5:30:00 AM 6.8 44.24 0.038 6.59 3.22 11.38
5/13/2021 5:45:00 AM 6.76 44.168 0.038 6.59 3.11 11.39
5/13/2021 6:00:00 AM 6.72 44.096 0.038 6.56 3.17 11.41
5/13/2021 6:15:00 AM 6.68 44.024 0.038 6.59 3.14 11.43
5/13/2021 6:30:00 AM 6.65 43.97 0.038 6.59 3.15 11.45
5/13/2021 6:45:00 AM 6.62 43.916 0.038 6.57 3.17 11.47
5/13/2021 7:00:00 AM 6.6 43.88 0.038 6.6 3.15 11.5
5/13/2021 7:15:00 AM 6.59 43.862 0.038 6.58 3.09 11.52
5/13/2021 7:30:00 AM 6.59 43.862 0.038 6.59 3.01 11.55
5/13/2021 7:45:00 AM 6.59 43.862 0.038 6.59 2.93 11.57
5/13/2021 8:00:00 AM 6.61 43.898 0.038 6.6 2.96 11.58
5/13/2021 8:15:00 AM 6.65 43.97 0.038 6.61 2.95 11.6
5/13/2021 8:30:00 AM 6.7 44.06 0.038 6.59 3.01 11.6
5/13/2021 8:45:00 AM 6.76 44.168 0.038 6.63 2.97 11.6
5/13/2021 9:00:00 AM 6.84 44.312 0.038 6.63 2.91 11.6
5/13/2021 9:15:00 AM 6.93 44.474 0.038 6.64 2.92 11.61
5/13/2021 9:30:00 AM 7.02 44.636 0.038 6.63 2.86 11.6
5/13/2021 9:45:00 AM 7.19 44.942 0.038 6.64 2.78 11.58
5/13/2021 10:00:00 AM 7.32 45.176 0.038 6.65 2.82 11.55
5/13/2021 10:15:00 AM 7.4 45.32 0.038 6.66 2.83 11.51
5/13/2021 10:30:00 AM 7.51 45.518 0.038 6.66 2.82 11.48
5/13/2021 10:45:00 AM 7.68 45.824 0.038 6.67 2.79 11.47
5/13/2021 11:00:00 AM 7.81 46.058 0.038 6.68 2.75 11.44
5/13/2021 11:15:00 AM 7.98 46.364 0.038 6.69 2.77 11.41
5/13/2021 11:30:00 AM 8.15 46.67 0.038 6.7 2.8 11.37
5/13/2021 11:45:00 AM 8.23 46.814 0.038 6.69 2.78 11.32
5/13/2021 12:00:00 PM 8.35 47.03 0.038 6.72 2.85 11.33
5/13/2021 12:15:00 PM 8.45 47.21 0.038 6.72 2.83 11.3
5/13/2021 12:30:00 PM 8.66 47.588 0.038 6.72 2.87 11.27
5/13/2021 12:45:00 PM 8.84 47.912 0.038 6.73 2.82 11.23
5/13/2021 1:00:00 PM 9.06 48.308 0.038 6.73 2.8 11.2
5/13/2021 1:15:00 PM 9.14 48.452 0.038 6.74 2.81 11.16
5/13/2021 1:30:00 PM 9.34 48.812 0.038 6.75 2.81 11.11
5/13/2021 1:45:00 PM 9.47 49.046 0.038 6.75 2.86 11.08
5/13/2021 2:00:00 PM 9.6 49.28 0.038 6.75 2.88 11.06
5/13/2021 2:15:00 PM 9.72 49.496 0.038 6.75 2.96 11.02
5/13/2021 2:30:00 PM 9.83 49.694 0.038 6.77 2.96 11
5/13/2021 2:45:00 PM 9.85 49.73 0.038 6.75 2.88 10.97
5/13/2021 3:00:00 PM 9.92 49.856 0.038 6.77 2.93 10.95
5/13/2021 3:15:00 PM 9.89 49.802 0.038 6.76 2.89 10.95
5/13/2021 3:30:00 PM 9.95 49.91 0.038 6.77 2.91 10.93
5/13/2021 3:45:00 PM 9.96 49.928 0.038 6.77 2.96 10.91
5/13/2021 4:00:00 PM 9.98 49.964 0.038 6.76 2.93 10.88
5/13/2021 4:15:00 PM 10 50 0.038 6.76 2.96 10.88
5/13/2021 4:30:00 PM 9.98 49.964 0.038 6.75 2.87 10.85
5/13/2021 4:45:00 PM 9.99 49.982 0.038 6.76 2.88 10.85
5/13/2021 5:00:00 PM 9.96 49.928 0.038 6.74 2.96 10.85
5/13/2021 5:15:00 PM 10.01 50.018 0.038 6.75 2.92 10.84
5/13/2021 5:30:00 PM 10.03 50.054 0.038 6.74 2.92 10.84
5/13/2021 5:45:00 PM 10.05 50.09 0.038 6.75 2.92 10.82
5/13/2021 6:00:00 PM 10.04 50.072 0.038 6.75 2.95 10.81
5/13/2021 6:15:00 PM 10.03 50.054 0.038 6.75 2.95 10.81
5/13/2021 6:30:00 PM 9.98 49.964 0.038 6.74 2.93 10.79
5/13/2021 6:45:00 PM 9.93 49.874 0.038 6.73 2.94 10.76
5/13/2021 7:00:00 PM 9.85 49.73 0.038 6.72 2.92 10.75
5/13/2021 7:15:00 PM 9.78 49.604 0.038 6.69 2.89 10.75
5/13/2021 7:30:00 PM 9.72 49.496 0.038 6.68 2.87 10.75
5/13/2021 7:45:00 PM 9.67 49.406 0.038 6.67 2.94 10.75
5/13/2021 8:00:00 PM 9.63 49.334 0.038 6.68 2.88 10.74
5/13/2021 8:15:00 PM 9.57 49.226 0.038 6.67 2.82 10.74
5/13/2021 8:30:00 PM 9.49 49.082 0.038 6.66 2.92 10.74
5/13/2021 8:45:00 PM 9.41 48.938 0.038 6.65 2.87 10.73
5/13/2021 9:00:00 PM 9.33 48.794 0.038 6.65 3.09 10.73
5/13/2021 9:15:00 PM 9.25 48.65 0.038 6.65 3.27 10.74
5/13/2021 9:30:00 PM 9.17 48.506 0.038 6.63 3.13 10.76
5/13/2021 9:45:00 PM 9.09 48.362 0.038 6.62 3.13 10.78
5/13/2021 10:00:00 PM 9 48.2 0.038 6.63 3.24 10.8
5/13/2021 10:15:00 PM 8.92 48.056 0.038 6.62 3.24 10.82
5/13/2021 10:30:00 PM 8.84 47.912 0.038 6.62 3.1 10.82
5/13/2021 10:45:00 PM 8.76 47.768 0.038 6.61 3.16 10.84
5/13/2021 11:00:00 PM 8.69 47.642 0.038 6.6 3.17 10.86
5/13/2021 11:15:00 PM 8.61 47.498 0.039 6.61 3.28 10.88
5/13/2021 11:30:00 PM 8.54 47.372 0.039 6.6 3.04 10.91
5/13/2021 11:45:00 PM 8.47 47.246 0.039 6.6 3.08 10.93
5/14/2021 12:00:00 AM 8.39 47.102 0.039 6.6 3.03 10.95
5/14/2021 12:15:00 AM 8.32 46.976 0.039 6.6 3.03 10.97
5/14/2021 12:30:00 AM 8.24 46.832 0.039 6.59 3.1 10.97
5/14/2021 12:45:00 AM 8.17 46.706 0.039 6.59 3.04 11
5/14/2021 1:00:00 AM 8.1 46.58 0.039 6.59 3.02 11.01
5/14/2021 1:15:00 AM 8.03 46.454 0.039 6.59 3.02 11.03
5/14/2021 1:30:00 AM 7.96 46.328 0.039 6.59 3 11.06
5/14/2021 1:45:00 AM 7.9 46.22 0.039 6.6 3.06 11.07
5/14/2021 2:00:00 AM 7.83 46.094 0.039 6.59 3.17 11.09
5/14/2021 2:15:00 AM 7.77 45.986 0.039 6.58 2.84 11.11
5/14/2021 2:30:00 AM 7.71 45.878 0.039 6.58 2.84 11.13
5/14/2021 2:45:00 AM 7.65 45.77 0.039 6.59 2.81 11.14
5/14/2021 3:00:00 AM 7.59 45.662 0.039 6.58 2.83 11.16
5/14/2021 3:15:00 AM 7.53 45.554 0.039 6.59 3.52 11.17
5/14/2021 3:30:00 AM 7.48 45.464 0.039 6.58 2.79 11.19
5/14/2021 3:45:00 AM 7.42 45.356 0.039 6.58 2.81 11.2
5/14/2021 4:00:00 AM 7.37 45.266 0.039 6.58 2.78 11.21
5/14/2021 4:15:00 AM 7.32 45.176 0.039 6.58 2.81 11.23
5/14/2021 4:30:00 AM 7.27 45.086 0.039 6.57 2.78 11.25
5/14/2021 4:45:00 AM 7.22 44.996 0.039 6.58 2.81 11.26
5/14/2021 5:00:00 AM 7.18 44.924 0.039 6.58 2.84 11.28
5/14/2021 5:15:00 AM 7.13 44.834 0.039 6.59 2.75 11.29
5/14/2021 5:30:00 AM 7.09 44.762 0.039 6.57 2.83 11.31
5/14/2021 5:45:00 AM 7.04 44.672 0.039 6.59 2.78 11.32
5/14/2021 6:00:00 AM 7 44.6 0.039 6.58 2.74 11.34
5/14/2021 6:15:00 AM 6.97 44.546 0.039 6.58 2.71 11.36
5/14/2021 6:30:00 AM 6.93 44.474 0.039 6.58 2.76 11.37
5/14/2021 6:45:00 AM 6.91 44.438 0.039 6.6 2.67 11.41
5/14/2021 7:00:00 AM 6.89 44.402 0.039 6.6 2.75 11.43
5/14/2021 7:15:00 AM 6.87 44.366 0.039 6.59 2.69 11.45
5/14/2021 7:30:00 AM 6.87 44.366 0.039 6.61 2.71 11.48
5/14/2021 7:45:00 AM 6.88 44.384 0.039 6.63 2.66 11.5
5/14/2021 8:00:00 AM 6.9 44.42 0.039 6.63 2.64 11.52
5/14/2021 8:15:00 AM 6.93 44.474 0.039 6.63 2.64 11.54
5/14/2021 8:30:00 AM 6.98 44.564 0.039 6.65 2.67 11.55
5/14/2021 8:45:00 AM 7.05 44.69 0.039 6.65 2.6 11.56
5/14/2021 9:00:00 AM 7.13 44.834 0.039 6.67 2.57 11.56
5/14/2021 9:15:00 AM 7.23 45.014 0.039 6.67 2.64 11.55
5/14/2021 9:30:00 AM 7.34 45.212 0.039 6.68 2.58 11.54
5/14/2021 9:45:00 AM 7.48 45.464 0.039 6.68 2.65 11.52
5/14/2021 10:00:00 AM 7.63 45.734 0.039 6.68 2.56 11.5
5/14/2021 10:15:00 AM 7.8 46.04 0.039 6.7 2.55 11.47
5/14/2021 10:30:00 AM 7.99 46.382 0.039 6.71 2.49 11.45
5/14/2021 10:45:00 AM 8.2 46.76 0.038 6.72 2.48 11.4
5/14/2021 11:00:00 AM 8.42 47.156 0.038 6.72 2.57 11.37
5/14/2021 11:15:00 AM 8.6 47.48 0.038 6.72 2.53 11.33
5/14/2021 11:30:00 AM 8.71 47.678 0.038 6.73 2.58 11.28
5/14/2021 11:45:00 AM 8.78 47.804 0.038 6.74 2.63 11.24
5/14/2021 12:00:00 PM 8.89 48.002 0.038 6.75 2.58 11.22
5/14/2021 12:15:00 PM 9.02 48.236 0.038 6.76 2.57 11.19
5/14/2021 12:30:00 PM 9.12 48.416 0.038 6.75 2.57 11.17
5/14/2021 12:45:00 PM 9.28 48.704 0.038 6.77 2.52 11.13
5/14/2021 1:00:00 PM 9.46 49.028 0.038 6.76 2.6 11.11
5/14/2021 1:15:00 PM 9.65 49.37 0.038 6.78 2.59 11.08
5/14/2021 1:30:00 PM 9.9 49.82 0.038 6.79 2.62 11.03
5/14/2021 1:45:00 PM 10.11 50.198 0.038 6.8 2.71 10.99
5/14/2021 2:00:00 PM 10.35 50.63 0.038 6.8 2.58 10.96
5/14/2021 2:15:00 PM 10.57 51.026 0.038 6.79 2.66 10.89
5/14/2021 2:30:00 PM 10.68 51.224 0.038 6.79 2.68 10.83
5/14/2021 2:45:00 PM 10.74 51.332 0.038 6.79 2.7 10.81
5/14/2021 3:00:00 PM 10.89 51.602 0.038 6.8 2.68 10.76
5/14/2021 3:15:00 PM 10.81 51.458 0.038 6.78 2.68 10.74
5/14/2021 3:30:00 PM 10.85 51.53 0.038 6.79 2.66 10.72
5/14/2021 3:45:00 PM 10.91 51.638 0.038 6.79 2.68 10.69
5/14/2021 4:00:00 PM 11.01 51.818 0.038 6.8 2.63 10.68
5/14/2021 4:15:00 PM 11.17 52.106 0.038 6.8 2.66 10.68
5/14/2021 4:30:00 PM 11.26 52.268 0.038 6.82 2.67 10.66
5/14/2021 4:45:00 PM 11.4 52.52 0.038 6.81 2.76 10.62
5/14/2021 5:00:00 PM 11.54 52.772 0.038 6.81 2.71 10.59
5/14/2021 5:15:00 PM 11.46 52.628 0.038 6.81 2.65 10.58
5/14/2021 5:30:00 PM 11.34 52.412 0.038 6.81 2.74 10.6
5/14/2021 5:45:00 PM 11.16 52.088 0.038 6.79 2.65 10.62
5/14/2021 6:00:00 PM 11.07 51.926 0.038 6.8 2.7 10.63
5/14/2021 6:15:00 PM 11.04 51.872 0.038 6.8 2.71 10.63
5/14/2021 6:30:00 PM 10.98 51.764 0.038 6.79 2.7 10.63
5/14/2021 6:45:00 PM 10.88 51.584 0.038 6.79 2.61 10.62
5/14/2021 7:00:00 PM 10.77 51.386 0.038 6.77 2.7 10.62
5/14/2021 7:15:00 PM 10.68 51.224 0.038 6.78 2.73 10.6
5/14/2021 7:30:00 PM 10.6 51.08 0.038 6.76 2.71 10.58
5/14/2021 7:45:00 PM 10.52 50.936 0.038 6.73 2.69 10.58
5/14/2021 8:00:00 PM 10.43 50.774 0.038 6.72 2.68 10.58
5/14/2021 8:15:00 PM 10.34 50.612 0.039 6.71 2.75 10.57
5/14/2021 8:30:00 PM 10.24 50.432 0.039 6.69 2.74 10.57
5/14/2021 8:45:00 PM 10.15 50.27 0.039 6.67 2.69 10.56
5/14/2021 9:00:00 PM 10.06 50.108 0.039 6.68 2.78 10.56
5/14/2021 9:15:00 PM 9.97 49.946 0.039 6.65 2.85 10.56
5/14/2021 9:30:00 PM 9.88 49.784 0.039 6.65 2.72 10.57
5/14/2021 9:45:00 PM 9.79 49.622 0.039 6.64 2.81 10.6
5/14/2021 10:00:00 PM 9.71 49.478 0.039 6.64 2.77 10.61
5/14/2021 10:15:00 PM 9.63 49.334 0.039 6.64 2.73 10.63
5/14/2021 10:30:00 PM 9.56 49.208 0.039 6.62 2.84 10.65
5/14/2021 10:45:00 PM 9.48 49.064 0.039 6.63 2.82 10.67
5/14/2021 11:00:00 PM 9.42 48.956 0.039 6.62 2.88 10.68
5/14/2021 11:15:00 PM 9.35 48.83 0.039 6.62 2.84 10.69
5/14/2021 11:30:00 PM 9.28 48.704 0.039 6.62 2.78 10.71
5/14/2021 11:45:00 PM 9.22 48.596 0.039 6.62 2.72 10.73
5/15/2021 12:00:00 AM 9.15 48.47 0.039 6.6 2.76 10.75
5/15/2021 12:15:00 AM 9.08 48.344 0.039 6.61 2.77 10.77
5/15/2021 12:30:00 AM 9.01 48.218 0.039 6.61 2.75 10.79
5/15/2021 12:45:00 AM 8.93 48.074 0.039 6.62 2.76 10.81
5/15/2021 1:00:00 AM 8.86 47.948 0.039 6.61 2.82 10.82
5/15/2021 1:15:00 AM 8.8 47.84 0.039 6.6 2.75 10.83
5/15/2021 1:30:00 AM 8.74 47.732 0.039 6.6 2.71 10.85
5/15/2021 1:45:00 AM 8.69 47.642 0.039 6.61 2.61 10.85
5/15/2021 2:00:00 AM 8.64 47.552 0.039 6.59 2.68 10.87
5/15/2021 2:15:00 AM 8.6 47.48 0.039 6.59 2.66 10.89
5/15/2021 2:30:00 AM 8.56 47.408 0.039 6.59 2.7 10.9
5/15/2021 2:45:00 AM 8.52 47.336 0.039 6.6 2.72 10.91
5/15/2021 3:00:00 AM 8.49 47.282 0.039 6.59 2.68 10.92
5/15/2021 3:15:00 AM 8.47 47.246 0.039 6.6 2.75 10.93
5/15/2021 3:30:00 AM 8.44 47.192 0.039 6.59 2.69 10.94
5/15/2021 3:45:00 AM 8.41 47.138 0.039 6.6 2.72 10.95
5/15/2021 4:00:00 AM 8.38 47.084 0.039 6.58 2.66 10.96
5/15/2021 4:15:00 AM 8.33 46.994 0.039 6.61 2.66 10.97
5/15/2021 4:30:00 AM 8.28 46.904 0.039 6.59 2.66 10.99
5/15/2021 4:45:00 AM 8.24 46.832 0.039 6.6 2.78 10.98
5/15/2021 5:00:00 AM 8.18 46.724 0.039 6.59 2.71 11
5/15/2021 5:15:00 AM 8.13 46.634 0.039 6.59 2.68 11.01
5/15/2021 5:30:00 AM 8.08 46.544 0.039 6.6 2.64 11.02
5/15/2021 5:45:00 AM 8.03 46.454 0.039 6.6 2.68 11.03
5/15/2021 6:00:00 AM 7.98 46.364 0.039 6.59 2.65 11.05
5/15/2021 6:15:00 AM 7.94 46.292 0.039 6.6 2.66 11.08
5/15/2021 6:30:00 AM 7.89 46.202 0.039 6.59 2.7 11.11
5/15/2021 6:45:00 AM 7.85 46.13 0.039 6.61 2.67 11.14
5/15/2021 7:00:00 AM 7.82 46.076 0.039 6.6 2.65 11.18
5/15/2021 7:15:00 AM 7.79 46.022 0.039 6.64 2.67 11.21
5/15/2021 7:30:00 AM 7.78 46.004 0.039 6.64 2.57 11.24
5/15/2021 7:45:00 AM 7.77 45.986 0.039 6.65 2.54 11.27
5/15/2021 8:00:00 AM 7.78 46.004 0.039 6.66 2.55 11.3
5/15/2021 8:15:00 AM 7.8 46.04 0.039 6.67 2.51 11.31
5/15/2021 8:30:00 AM 7.84 46.112 0.039 6.68 2.48 11.34
5/15/2021 8:45:00 AM 7.88 46.184 0.039 6.68 2.53 11.35
5/15/2021 9:00:00 AM 7.94 46.292 0.039 6.69 2.55 11.36
5/15/2021 9:15:00 AM 8.03 46.454 0.039 6.7 2.44 11.35
5/15/2021 9:30:00 AM 8.12 46.616 0.039 6.71 2.49 11.34
5/15/2021 9:45:00 AM 8.24 46.832 0.039 6.73 2.42 11.33
5/15/2021 10:00:00 AM 8.38 47.084 0.039 6.73 2.49 11.32
5/15/2021 10:15:00 AM 8.53 47.354 0.039 6.74 2.5 11.31
5/15/2021 10:30:00 AM 8.69 47.642 0.039 6.74 2.46 11.26
5/15/2021 10:45:00 AM 8.87 47.966 0.039 6.77 2.47 11.25
5/15/2021 11:00:00 AM 9.05 48.29 0.039 6.76 2.6 11.21
5/15/2021 11:15:00 AM 9.15 48.47 0.039 6.77 2.62 11.18
5/15/2021 11:30:00 AM 9.19 48.542 0.039 6.77 2.57 11.15
5/15/2021 11:45:00 AM 9.36 48.848 0.039 6.77 2.51 11.11
5/15/2021 12:00:00 PM 9.46 49.028 0.039 6.78 2.58 11.1
5/15/2021 12:15:00 PM 9.54 49.172 0.039 6.79 2.61 11.08
5/15/2021 12:30:00 PM 9.75 49.55 0.039 6.8 2.67 11.06
5/15/2021 12:45:00 PM 9.9 49.82 0.039 6.81 2.54 11.02
5/15/2021 1:00:00 PM 10.05 50.09 0.039 6.81 2.55 10.98
5/15/2021 1:15:00 PM 10.12 50.216 0.039 6.81 2.67 10.96
5/15/2021 1:30:00 PM 10.35 50.63 0.039 6.81 2.61 10.95
5/15/2021 1:45:00 PM 10.39 50.702 0.039 6.82 2.62 10.91
5/15/2021 2:00:00 PM 10.56 51.008 0.039 6.84 2.68 10.89
5/15/2021 2:15:00 PM 10.74 51.332 0.039 6.83 2.69 10.87
5/15/2021 2:30:00 PM 10.86 51.548 0.039 6.84 2.73 10.81
5/15/2021 2:45:00 PM 11.06 51.908 0.039 6.84 2.61 10.78
5/15/2021 3:00:00 PM 11.39 52.502 0.039 6.87 2.63 10.72
5/15/2021 3:15:00 PM 11.52 52.736 0.039 6.85 2.69 10.67
5/15/2021 3:30:00 PM 11.57 52.826 0.038 6.85 2.66 10.63
5/15/2021 3:45:00 PM 11.59 52.862 0.039 6.83 2.64 10.6
5/15/2021 4:00:00 PM 11.58 52.844 0.039 6.85 2.72 10.57
5/15/2021 4:15:00 PM 11.55 52.79 0.039 6.85 2.77 10.58
5/15/2021 4:30:00 PM 11.57 52.826 0.039 6.87 2.68 10.59
5/15/2021 4:45:00 PM 11.58 52.844 0.039 6.87 2.67 10.59
5/15/2021 5:00:00 PM 11.61 52.898 0.039 6.86 2.69 10.58
5/15/2021 5:15:00 PM 11.59 52.862 0.039 6.87 2.68 10.57
5/15/2021 5:30:00 PM 11.6 52.88 0.039 6.86 2.61 10.56
5/15/2021 5:45:00 PM 11.58 52.844 0.039 6.86 2.54 10.55
5/15/2021 6:00:00 PM 11.54 52.772 0.039 6.86 2.67 10.52
5/15/2021 6:15:00 PM 11.54 52.772 0.039 6.86 2.83 10.5
5/15/2021 6:30:00 PM 11.57 52.826 0.039 6.84 2.73 10.49
5/15/2021 6:45:00 PM 11.6 52.88 0.039 6.83 2.82 10.46
5/15/2021 7:00:00 PM 11.57 52.826 0.039 6.83 2.67 10.43
5/15/2021 7:15:00 PM 11.53 52.754 0.039 6.8 2.66 10.41
5/15/2021 7:30:00 PM 11.47 52.646 0.039 6.79 3.09 10.38
5/15/2021 7:45:00 PM 11.41 52.538 0.039 6.78 2.78 10.36
5/15/2021 8:00:00 PM 11.35 52.43 0.039 6.75 2.81 10.33
5/15/2021 8:15:00 PM 11.28 52.304 0.039 6.75 2.76 10.32
5/15/2021 8:30:00 PM 11.21 52.178 0.039 6.73 2.77 10.3
5/15/2021 8:45:00 PM 11.12 52.016 0.039 6.72 2.82 10.31
5/15/2021 9:00:00 PM 11.03 51.854 0.039 6.71 2.73 10.31
5/15/2021 9:15:00 PM 10.93 51.674 0.039 6.69 2.67 10.32
5/15/2021 9:30:00 PM 10.84 51.512 0.039 6.68 2.72 10.34
5/15/2021 9:45:00 PM 10.75 51.35 0.039 6.67 2.73 10.35
5/15/2021 10:00:00 PM 10.67 51.206 0.039 6.67 2.77 10.36
5/15/2021 10:15:00 PM 10.59 51.062 0.039 6.67 2.75 10.37
5/15/2021 10:30:00 PM 10.5 50.9 0.039 6.66 2.76 10.39
5/15/2021 10:45:00 PM 10.42 50.756 0.039 6.66 2.74 10.41
5/15/2021 11:00:00 PM 10.34 50.612 0.039 6.64 2.74 10.43
5/15/2021 11:15:00 PM 10.26 50.468 0.039 6.65 2.76 10.45
5/15/2021 11:30:00 PM 10.18 50.324 0.039 6.64 2.8 10.47
5/15/2021 11:45:00 PM 10.1 50.18 0.04 6.63 2.81 10.48
5/16/2021 12:00:00 AM 10.03 50.054 0.04 6.64 2.76 10.49
5/16/2021 12:15:00 AM 9.97 49.946 0.04 6.63 2.74 10.51
5/16/2021 12:30:00 AM 9.91 49.838 0.04 6.63 2.79 10.53
5/16/2021 12:45:00 AM 9.85 49.73 0.04 6.63 2.68 10.55
5/16/2021 1:00:00 AM 9.79 49.622 0.04 6.63 2.88 10.57
5/16/2021 1:15:00 AM 9.73 49.514 0.04 6.62 2.74 10.58
5/16/2021 1:30:00 AM 9.67 49.406 0.04 6.63 2.73 10.6
5/16/2021 1:45:00 AM 9.61 49.298 0.04 6.62 2.69 10.62
5/16/2021 2:00:00 AM 9.55 49.19 0.04 6.62 2.75 10.63
5/16/2021 2:15:00 AM 9.47 49.046 0.04 6.63 2.7 10.64
5/16/2021 2:30:00 AM 9.4 48.92 0.04 6.62 2.75 10.66
5/16/2021 2:45:00 AM 9.32 48.776 0.04 6.63 2.73 10.68
5/16/2021 3:00:00 AM 9.24 48.632 0.04 6.63 2.75 10.7
5/16/2021 3:15:00 AM 9.16 48.488 0.04 6.63 2.74 10.72
5/16/2021 3:30:00 AM 9.09 48.362 0.04 6.62 2.73 10.74
5/16/2021 3:45:00 AM 9.02 48.236 0.04 6.61 2.67 10.76
5/16/2021 4:00:00 AM 8.94 48.092 0.04 6.63 2.66 10.78
5/16/2021 4:15:00 AM 8.88 47.984 0.04 6.63 2.66 10.8
5/16/2021 4:30:00 AM 8.83 47.894 0.04 6.62 2.66 10.8
5/16/2021 4:45:00 AM 8.78 47.804 0.04 6.61 2.69 10.82
5/16/2021 5:00:00 AM 8.74 47.732 0.04 6.63 2.68 10.83
5/16/2021 5:15:00 AM 8.69 47.642 0.04 6.62 2.66 10.84
5/16/2021 5:30:00 AM 8.65 47.57 0.04 6.62 2.68 10.86
5/16/2021 5:45:00 AM 8.62 47.516 0.04 6.62 2.65 10.87
5/16/2021 6:00:00 AM 8.58 47.444 0.04 6.62 2.63 10.88
5/16/2021 6:15:00 AM 8.56 47.408 0.04 6.63 2.61 10.9
5/16/2021 6:30:00 AM 8.53 47.354 0.04 6.63 2.64 10.93
5/16/2021 6:45:00 AM 8.51 47.318 0.04 6.64 2.7 10.95
5/16/2021 7:00:00 AM 8.5 47.3 0.04 6.63 2.64 10.99
5/16/2021 7:15:00 AM 8.49 47.282 0.04 6.66 2.65 11.03
5/16/2021 7:30:00 AM 8.5 47.3 0.04 6.67 2.53 11.08
5/16/2021 7:45:00 AM 8.51 47.318 0.04 6.68 2.59 11.11
5/16/2021 8:00:00 AM 8.53 47.354 0.04 6.68 2.53 11.14
5/16/2021 8:15:00 AM 8.55 47.39 0.04 6.71 2.51 11.16
5/16/2021 8:30:00 AM 8.57 47.426 0.04 6.7 2.51 11.17
5/16/2021 8:45:00 AM 8.6 47.48 0.04 6.72 2.51 11.17
5/16/2021 9:00:00 AM 8.65 47.57 0.04 6.74 2.55 11.2
5/16/2021 9:15:00 AM 8.71 47.678 0.04 6.74 2.54 11.22
5/16/2021 9:30:00 AM 8.77 47.786 0.04 6.76 2.47 11.22
5/16/2021 9:45:00 AM 8.83 47.894 0.039 6.77 2.45 11.22
5/16/2021 10:00:00 AM 8.87 47.966 0.039 6.77 2.49 11.21
5/16/2021 10:15:00 AM 8.92 48.056 0.039 6.78 2.51 11.21
5/16/2021 10:30:00 AM 8.98 48.164 0.039 6.78 2.48 11.21
5/16/2021 10:45:00 AM 9.05 48.29 0.039 6.79 2.48 11.2
5/16/2021 11:00:00 AM 9.13 48.434 0.039 6.81 2.55 11.2
5/16/2021 11:15:00 AM 9.21 48.578 0.039 6.81 2.41 11.19
5/16/2021 11:30:00 AM 9.31 48.758 0.039 6.82 2.49 11.17
5/16/2021 11:45:00 AM 9.42 48.956 0.039 6.83 2.5 11.16
5/16/2021 12:00:00 PM 9.52 49.136 0.039 6.83 2.45 11.14
5/16/2021 12:15:00 PM 9.61 49.298 0.039 6.84 2.46 11.12
5/16/2021 12:30:00 PM 9.66 49.388 0.039 6.84 2.42 11.07
5/16/2021 12:45:00 PM 9.7 49.46 0.039 6.84 2.42 11.04
5/16/2021 1:00:00 PM 9.74 49.532 0.039 6.82 2.46 11.01
5/16/2021 1:15:00 PM 9.78 49.604 0.039 6.85 2.42 10.99
5/16/2021 1:30:00 PM 9.85 49.73 0.039 6.84 2.46 10.98
5/16/2021 1:45:00 PM 9.91 49.838 0.039 6.85 2.53 10.96
5/16/2021 2:00:00 PM 9.95 49.91 0.039 6.84 2.54 10.93
5/16/2021 2:15:00 PM 9.99 49.982 0.039 6.83 2.67 10.9
5/16/2021 2:30:00 PM 10.02 50.036 0.039 6.84 2.54 10.9
5/16/2021 2:45:00 PM 10.09 50.162 0.039 6.84 2.61 10.9
5/16/2021 3:00:00 PM 10.15 50.27 0.039 6.85 2.65 10.91
5/16/2021 3:15:00 PM 10.19 50.342 0.039 6.84 2.55 10.89
5/16/2021 3:30:00 PM 10.21 50.378 0.039 6.85 2.52 10.88
5/16/2021 3:45:00 PM 10.25 50.45 0.039 6.85 2.49 10.88
5/16/2021 4:00:00 PM 10.31 50.558 0.039 6.86 2.59 10.88
5/16/2021 4:15:00 PM 10.37 50.666 0.039 6.86 2.53 10.87
5/16/2021 4:30:00 PM 10.42 50.756 0.039 6.87 2.49 10.85
5/16/2021 4:45:00 PM 10.44 50.792 0.039 6.86 2.54 10.83
5/16/2021 5:00:00 PM 10.47 50.846 0.039 6.86 2.6 10.83
5/16/2021 5:15:00 PM 10.51 50.918 0.039 6.87 2.5 10.83
5/16/2021 5:30:00 PM 10.52 50.936 0.039 6.86 2.46 10.81
5/16/2021 5:45:00 PM 10.53 50.954 0.039 6.87 2.59 10.79
5/16/2021 6:00:00 PM 10.52 50.936 0.039 6.86 2.55 10.79
5/16/2021 6:15:00 PM 10.49 50.882 0.039 6.86 2.53 10.78
5/16/2021 6:30:00 PM 10.48 50.864 0.039 6.84 2.57 10.76
5/16/2021 6:45:00 PM 10.45 50.81 0.039 6.83 2.58 10.74
5/16/2021 7:00:00 PM 10.4 50.72 0.039 6.83 2.54 10.72
5/16/2021 7:15:00 PM 10.36 50.648 0.039 6.81 2.65 10.71
5/16/2021 7:30:00 PM 10.3 50.54 0.039 6.81 2.54 10.7
5/16/2021 7:45:00 PM 10.25 50.45 0.039 6.79 2.56 10.68
5/16/2021 8:00:00 PM 10.19 50.342 0.039 6.77 2.57 10.67
5/16/2021 8:15:00 PM 10.13 50.234 0.039 6.77 2.56 10.64
5/16/2021 8:30:00 PM 10.06 50.108 0.039 6.75 2.64 10.62
5/16/2021 8:45:00 PM 10 50 0.04 6.74 2.6 10.6
5/16/2021 9:00:00 PM 9.95 49.91 0.04 6.73 2.59 10.58
5/16/2021 9:15:00 PM 9.9 49.82 0.04 6.7 2.63 10.58
5/16/2021 9:30:00 PM 9.85 49.73 0.04 6.71 2.55 10.58
5/16/2021 9:45:00 PM 9.8 49.64 0.04 6.69 2.6 10.59
5/16/2021 10:00:00 PM 9.75 49.55 0.04 6.69 2.6 10.6
5/16/2021 10:15:00 PM 9.69 49.442 0.04 6.68 2.6 10.61
5/16/2021 10:30:00 PM 9.63 49.334 0.04 6.68 2.64 10.62
5/16/2021 10:45:00 PM 9.58 49.244 0.04 6.68 2.57 10.63
5/16/2021 11:00:00 PM 9.51 49.118 0.04 6.67 2.57 10.65
5/16/2021 11:15:00 PM 9.45 49.01 0.04 6.66 2.62 10.65
5/16/2021 11:30:00 PM 9.39 48.902 0.04 6.67 2.66 10.66
5/16/2021 11:45:00 PM 9.33 48.794 0.04 6.65 2.6 10.68
5/17/2021 12:00:00 AM 9.26 48.668 0.04 6.66 2.63 10.7
5/17/2021 12:15:00 AM 9.2 48.56 0.04 6.65 2.72 10.72
5/17/2021 12:30:00 AM 9.13 48.434 0.04 6.66 2.72 10.73
5/17/2021 12:45:00 AM 9.07 48.326 0.04 6.65 2.66 10.75
5/17/2021 1:00:00 AM 8.99 48.182 0.04 6.66 2.62 10.77
5/17/2021 1:15:00 AM 8.92 48.056 0.04 6.64 2.67 10.8
5/17/2021 1:30:00 AM 8.85 47.93 0.04 6.66 2.63 10.81
5/17/2021 1:45:00 AM 8.78 47.804 0.04 6.65 2.69 10.83
5/17/2021 2:00:00 AM 8.71 47.678 0.04 6.65 2.63 10.84
5/17/2021 2:15:00 AM 8.64 47.552 0.04 6.65 2.59 10.86
5/17/2021 2:30:00 AM 8.58 47.444 0.04 6.65 2.9 10.89
5/17/2021 2:45:00 AM 8.51 47.318 0.04 6.66 2.75 10.89
5/17/2021 3:00:00 AM 8.44 47.192 0.04 6.66 2.68 10.92
5/17/2021 3:15:00 AM 8.38 47.084 0.04 6.65 2.6 10.94
5/17/2021 3:30:00 AM 8.32 46.976 0.04 6.66 2.6 10.96
5/17/2021 3:45:00 AM 8.25 46.85 0.04 6.67 2.54 10.97
5/17/2021 4:00:00 AM 8.19 46.742 0.04 6.66 2.55 10.99
5/17/2021 4:15:00 AM 8.13 46.634 0.04 6.65 2.57 11
5/17/2021 4:30:00 AM 8.07 46.526 0.04 6.66 2.56 11.01
5/17/2021 4:45:00 AM 8.01 46.418 0.04 6.65 2.59 11.03
5/17/2021 5:00:00 AM 7.95 46.31 0.04 6.67 2.56 11.05
5/17/2021 5:15:00 AM 7.89 46.202 0.04 6.66 2.58 11.07
5/17/2021 5:30:00 AM 7.84 46.112 0.04 6.66 2.58 11.08
5/17/2021 5:45:00 AM 7.79 46.022 0.04 6.65 2.5 11.1
5/17/2021 6:00:00 AM 7.73 45.914 0.04 6.66 2.55 11.13
5/17/2021 6:15:00 AM 7.68 45.824 0.04 6.66 2.54 11.15
5/17/2021 6:30:00 AM 7.64 45.752 0.04 6.66 2.55 11.18
5/17/2021 6:45:00 AM 7.61 45.698 0.04 6.66 2.57 11.22
5/17/2021 7:00:00 AM 7.58 45.644 0.04 6.68 2.59 11.26
5/17/2021 7:15:00 AM 7.57 45.626 0.04 6.68 2.55 11.29
5/17/2021 7:30:00 AM 7.56 45.608 0.04 6.7 2.51 11.32
5/17/2021 7:45:00 AM 7.57 45.626 0.04 6.7 2.51 11.35
5/17/2021 8:00:00 AM 7.59 45.662 0.04 6.72 2.58 11.38
5/17/2021 8:15:00 AM 7.63 45.734 0.04 6.72 2.52 11.4
5/17/2021 8:30:00 AM 7.69 45.842 0.04 6.74 2.45 11.42
5/17/2021 8:45:00 AM 7.76 45.968 0.04 6.73 2.42 11.43
5/17/2021 9:00:00 AM 7.85 46.13 0.04 6.76 2.43 11.42
5/17/2021 9:15:00 AM 7.96 46.328 0.04 6.76 2.38 11.41
5/17/2021 9:30:00 AM 8.09 46.562 0.04 6.78 2.4 11.4
5/17/2021 9:45:00 AM 8.24 46.832 0.04 6.78 2.38 11.4
5/17/2021 10:00:00 AM 8.4 47.12 0.04 6.8 2.38 11.37
5/17/2021 10:15:00 AM 8.58 47.444 0.04 6.8 2.37 11.34
5/17/2021 10:30:00 AM 8.78 47.804 0.04 6.81 2.4 11.3
5/17/2021 10:45:00 AM 8.99 48.182 0.04 6.82 2.39 11.28
5/17/2021 11:00:00 AM 9.21 48.578 0.04 6.83 2.46 11.23
5/17/2021 11:15:00 AM 9.45 49.01 0.04 6.84 2.45 11.18
5/17/2021 11:30:00 AM 9.7 49.46 0.04 6.85 2.39 11.15
5/17/2021 11:45:00 AM 9.95 49.91 0.04 6.84 2.38 11.08
5/17/2021 12:00:00 PM 10.22 50.396 0.04 6.87 2.52 11.04
5/17/2021 12:15:00 PM 10.49 50.882 0.04 6.86 2.47 10.99
5/17/2021 12:30:00 PM 10.76 51.368 0.04 6.87 2.38 10.92
5/17/2021 12:45:00 PM 11.05 51.89 0.04 6.88 2.41 10.87
5/17/2021 1:00:00 PM 11.33 52.394 0.04 6.89 2.37 10.8
5/17/2021 1:15:00 PM 11.62 52.916 0.04 6.89 2.38 10.75
5/17/2021 1:30:00 PM 11.84 53.312 0.039 6.87 2.35 10.68
5/17/2021 1:45:00 PM 11.9 53.42 0.039 6.9 2.4 10.62
5/17/2021 2:00:00 PM 11.96 53.528 0.039 6.91 2.4 10.58
5/17/2021 2:15:00 PM 11.89 53.402 0.039 6.9 2.39 10.58
5/17/2021 2:30:00 PM 11.9 53.42 0.039 6.91 2.46 10.59
5/17/2021 2:45:00 PM 11.71 53.078 0.039 6.9 2.41 10.6
5/17/2021 3:00:00 PM 11.69 53.042 0.039 6.91 2.45 10.59
5/17/2021 3:15:00 PM 11.74 53.132 0.039 6.93 2.37 10.57
5/17/2021 3:30:00 PM 11.81 53.258 0.039 6.92 2.37 10.55
5/17/2021 3:45:00 PM 11.9 53.42 0.039 6.92 2.4 10.53
5/17/2021 4:00:00 PM 12.09 53.762 0.039 6.93 2.52 10.52
5/17/2021 4:15:00 PM 12.25 54.05 0.039 6.93 2.59 10.49
5/17/2021 4:30:00 PM 12.47 54.446 0.039 6.92 2.56 10.41
5/17/2021 4:45:00 PM 12.48 54.464 0.039 6.91 2.48 10.37
5/17/2021 5:00:00 PM 12.55 54.59 0.039 6.91 2.38 10.36
5/17/2021 5:15:00 PM 12.64 54.752 0.039 6.91 2.4 10.34
5/17/2021 5:30:00 PM 12.67 54.806 0.039 6.92 2.44 10.3
5/17/2021 5:45:00 PM 12.64 54.752 0.039 6.91 2.4 10.3
5/17/2021 6:00:00 PM 12.64 54.752 0.039 6.9 2.53 10.3
5/17/2021 6:15:00 PM 12.61 54.698 0.04 6.91 2.46 10.26
5/17/2021 6:30:00 PM 12.57 54.626 0.04 6.89 2.39 10.24
5/17/2021 6:45:00 PM 12.49 54.482 0.04 6.88 2.47 10.24
5/17/2021 7:00:00 PM 12.39 54.302 0.04 6.88 2.47 10.26
5/17/2021 7:15:00 PM 12.3 54.14 0.04 6.86 2.39 10.25
5/17/2021 7:30:00 PM 12.2 53.96 0.04 6.84 2.45 10.23
5/17/2021 7:45:00 PM 12.13 53.834 0.04 6.83 2.43 10.22
5/17/2021 8:00:00 PM 12.07 53.726 0.04 6.8 2.43 10.19
5/17/2021 8:15:00 PM 12 53.6 0.04 6.8 2.57 10.18
5/17/2021 8:30:00 PM 11.93 53.474 0.04 6.78 2.51 10.15
5/17/2021 8:45:00 PM 11.86 53.348 0.04 6.76 2.49 10.14
5/17/2021 9:00:00 PM 11.79 53.222 0.04 6.75 2.54 10.13
5/17/2021 9:15:00 PM 11.73 53.114 0.04 6.73 2.49 10.13
5/17/2021 9:30:00 PM 11.67 53.006 0.04 6.73 2.6 10.13
5/17/2021 9:45:00 PM 11.59 52.862 0.04 6.72 2.65 10.15
5/17/2021 10:00:00 PM 11.5 52.7 0.04 6.71 2.61 10.17
5/17/2021 10:15:00 PM 11.41 52.538 0.04 6.7 2.63 10.18
5/17/2021 10:30:00 PM 11.32 52.376 0.04 6.7 2.59 10.19
5/17/2021 10:45:00 PM 11.22 52.196 0.04 6.71 2.59 10.21
5/17/2021 11:00:00 PM 11.13 52.034 0.04 6.7 2.57 10.24
5/17/2021 11:15:00 PM 11.04 51.872 0.041 6.7 2.58 10.27
5/17/2021 11:30:00 PM 10.95 51.71 0.041 6.69 2.59 10.29
5/17/2021 11:45:00 PM 10.87 51.566 0.041 6.69 2.62 10.32
5/18/2021 12:00:00 AM 10.78 51.404 0.041 6.7 2.65 10.33
5/18/2021 12:15:00 AM 10.69 51.242 0.041 6.68 2.59 10.35
5/18/2021 12:30:00 AM 10.6 51.08 0.041 6.68 2.58 10.38
5/18/2021 12:45:00 AM 10.51 50.918 0.041 6.68 2.6 10.4
5/18/2021 1:00:00 AM 10.43 50.774 0.041 6.68 2.67 10.42
5/18/2021 1:15:00 AM 10.34 50.612 0.041 6.67 2.57 10.44
5/18/2021 1:30:00 AM 10.25 50.45 0.041 6.68 2.6 10.46
5/18/2021 1:45:00 AM 10.17 50.306 0.041 6.67 2.6 10.49
5/18/2021 2:00:00 AM 10.08 50.144 0.041 6.67 2.6 10.5
5/18/2021 2:15:00 AM 10 50 0.041 6.67 2.59 10.51
5/18/2021 2:30:00 AM 9.93 49.874 0.041 6.66 2.68 10.53
5/18/2021 2:45:00 AM 9.86 49.748 0.041 6.66 2.57 10.56
5/18/2021 3:00:00 AM 9.79 49.622 0.041 6.67 2.57 10.57
5/18/2021 3:15:00 AM 9.73 49.514 0.041 6.67 2.57 10.59
5/18/2021 3:30:00 AM 9.67 49.406 0.041 6.66 2.58 10.61
5/18/2021 3:45:00 AM 9.61 49.298 0.041 6.65 2.59 10.62
5/18/2021 4:00:00 AM 9.56 49.208 0.041 6.66 2.6 10.64
5/18/2021 4:15:00 AM 9.5 49.1 0.041 6.66 2.54 10.65
5/18/2021 4:30:00 AM 9.45 49.01 0.041 6.67 2.61 10.66
5/18/2021 4:45:00 AM 9.39 48.902 0.041 6.66 2.57 10.67
5/18/2021 5:00:00 AM 9.34 48.812 0.041 6.66 2.56 10.68
5/18/2021 5:15:00 AM 9.28 48.704 0.041 6.67 2.57 10.69
5/18/2021 5:30:00 AM 9.22 48.596 0.041 6.66 2.62 10.72
5/18/2021 5:45:00 AM 9.16 48.488 0.041 6.66 2.6 10.74
5/18/2021 6:00:00 AM 9.11 48.398 0.041 6.66 2.55 10.76
5/18/2021 6:15:00 AM 9.06 48.308 0.041 6.66 2.51 10.79
5/18/2021 6:30:00 AM 9.01 48.218 0.041 6.66 2.57 10.83
5/18/2021 6:45:00 AM 8.97 48.146 0.041 6.68 2.53 10.87
5/18/2021 7:00:00 AM 8.93 48.074 0.041 6.68 2.5 10.91
5/18/2021 7:15:00 AM 8.91 48.038 0.041 6.69 2.53 10.95
5/18/2021 7:30:00 AM 8.9 48.02 0.041 6.7 2.48 10.98
5/18/2021 7:45:00 AM 8.9 48.02 0.041 6.72 2.5 11.02
5/18/2021 8:00:00 AM 8.92 48.056 0.041 6.73 2.46 11.05
5/18/2021 8:15:00 AM 8.96 48.128 0.041 6.75 2.42 11.08
5/18/2021 8:30:00 AM 9.01 48.218 0.041 6.77 2.46 11.09
5/18/2021 8:45:00 AM 9.08 48.344 0.041 6.76 2.47 11.11
5/18/2021 9:00:00 AM 9.16 48.488 0.041 6.78 2.39 11.12
5/18/2021 9:15:00 AM 9.26 48.668 0.041 6.78 2.38 11.11
5/18/2021 9:30:00 AM 9.39 48.902 0.041 6.79 2.37 11.1
5/18/2021 9:45:00 AM 9.53 49.154 0.04 6.82 2.41 11.1
5/18/2021 10:00:00 AM 9.69 49.442 0.04 6.82 2.38 11.07
5/18/2021 10:15:00 AM 9.87 49.766 0.04 6.84 2.39 11.05
5/18/2021 10:30:00 AM 10.06 50.108 0.04 6.85 2.37 11.03
5/18/2021 10:45:00 AM 10.27 50.486 0.04 6.85 2.37 11
5/18/2021 11:00:00 AM 10.52 50.936 0.04 6.88 2.35 10.98
5/18/2021 11:15:00 AM 10.62 51.116 0.04 6.88 2.33 10.92
5/18/2021 11:30:00 AM 10.89 51.602 0.04 6.88 2.38 10.91
5/18/2021 11:45:00 AM 11.15 52.07 0.04 6.9 2.31 10.86
5/18/2021 12:00:00 PM 11.47 52.646 0.04 6.91 2.35 10.81
5/18/2021 12:15:00 PM 11.73 53.114 0.04 6.91 2.32 10.76
5/18/2021 12:30:00 PM 11.94 53.492 0.04 6.92 2.32 10.69
5/18/2021 12:45:00 PM 12.21 53.978 0.04 6.92 2.4 10.66
5/18/2021 1:00:00 PM 12.46 54.428 0.04 6.94 2.39 10.59
5/18/2021 1:15:00 PM 12.67 54.806 0.04 6.94 2.44 10.56
5/18/2021 1:30:00 PM 12.92 55.256 0.04 6.95 2.46 10.51
5/18/2021 1:45:00 PM 13.21 55.778 0.04 6.95 2.37 10.42
5/18/2021 2:00:00 PM 13.35 56.03 0.04 6.96 2.35 10.38
5/18/2021 2:15:00 PM 13.61 56.498 0.04 6.95 2.38 10.33
5/18/2021 2:30:00 PM 13.73 56.714 0.04 6.97 2.4 10.31
5/18/2021 2:45:00 PM 13.65 56.57 0.04 6.96 2.44 10.28
5/18/2021 3:00:00 PM 13.76 56.768 0.04 6.96 2.39 10.23
5/18/2021 3:15:00 PM 13.97 57.146 0.04 6.97 2.5 10.18
5/18/2021 3:30:00 PM 14.32 57.776 0.04 6.98 2.41 10.15
5/18/2021 3:45:00 PM 14.41 57.938 0.04 6.98 2.46 10.08
5/18/2021 4:00:00 PM 14.54 58.172 0.04 6.98 2.46 10.02
5/18/2021 4:15:00 PM 14.69 58.442 0.04 6.98 2.41 10.01
5/18/2021 4:30:00 PM 14.86 58.748 0.04 6.99 2.48 9.99
5/18/2021 4:45:00 PM 14.97 58.946 0.04 6.99 2.4 9.94
5/18/2021 5:00:00 PM 15.07 59.126 0.04 6.99 2.41 9.91
5/18/2021 5:15:00 PM 15.07 59.126 0.04 6.98 2.45 9.91
5/18/2021 5:30:00 PM 15.09 59.162 0.04 6.98 2.41 9.88
5/18/2021 5:45:00 PM 15.04 59.072 0.04 6.98 2.44 9.86
5/18/2021 6:00:00 PM 14.96 58.928 0.04 6.97 2.48 9.84
5/18/2021 6:15:00 PM 14.9 58.82 0.04 6.95 2.41 9.82
5/18/2021 6:30:00 PM 14.82 58.676 0.04 6.93 2.46 9.79
5/18/2021 6:45:00 PM 14.75 58.55 0.04 6.91 2.41 9.77
5/18/2021 7:00:00 PM 14.68 58.424 0.04 6.91 2.5 9.75
5/18/2021 7:15:00 PM 14.61 58.298 0.04 6.89 2.44 9.73
5/18/2021 7:30:00 PM 14.52 58.136 0.04 6.86 2.49 9.71
5/18/2021 7:45:00 PM 14.39 57.902 0.04 6.87 2.58 9.69
5/18/2021 8:00:00 PM 14.28 57.704 0.04 6.82 2.53 9.69
5/18/2021 8:15:00 PM 14.17 57.506 0.04 6.82 2.49 9.68
5/18/2021 8:30:00 PM 14.04 57.272 0.041 6.8 2.57 9.68
5/18/2021 8:45:00 PM 13.9 57.02 0.041 6.78 2.52 9.67
5/18/2021 9:00:00 PM 13.75 56.75 0.041 6.75 2.56 9.67
5/18/2021 9:15:00 PM 13.61 56.498 0.041 6.75 2.55 9.69
5/18/2021 9:30:00 PM 13.47 56.246 0.041 6.74 2.7 9.71
5/18/2021 9:45:00 PM 13.34 56.012 0.041 6.75 2.68 9.73
5/18/2021 10:00:00 PM 13.2 55.76 0.041 6.72 2.58 9.75
5/18/2021 10:15:00 PM 13.06 55.508 0.041 6.73 2.6 9.78
5/18/2021 10:30:00 PM 12.92 55.256 0.041 6.71 2.65 9.82
5/18/2021 10:45:00 PM 12.79 55.022 0.041 6.71 2.66 9.85
5/18/2021 11:00:00 PM 12.65 54.77 0.041 6.7 2.65 9.87
5/18/2021 11:15:00 PM 12.52 54.536 0.041 6.7 2.7 9.9
5/18/2021 11:30:00 PM 12.4 54.32 0.041 6.7 2.82 9.93
5/18/2021 11:45:00 PM 12.28 54.104 0.041 6.69 2.69 9.96
5/19/2021 12:00:00 AM 12.17 53.906 0.041 6.69 2.65 9.99
5/19/2021 12:15:00 AM 12.06 53.708 0.041 6.69 2.71 10.01
5/19/2021 12:30:00 AM 11.95 53.51 0.041 6.69 2.6 10.03
5/19/2021 12:45:00 AM 11.85 53.33 0.041 6.69 2.66 10.06
5/19/2021 1:00:00 AM 11.74 53.132 0.041 6.69 2.63 10.09
5/19/2021 1:15:00 AM 11.64 52.952 0.041 6.69 2.63 10.11
5/19/2021 1:30:00 AM 11.53 52.754 0.041 6.68 2.72 10.14
5/19/2021 1:45:00 AM 11.43 52.574 0.041 6.67 2.74 10.16
5/19/2021 2:00:00 AM 11.33 52.394 0.041 6.67 2.67 10.18
5/19/2021 2:15:00 AM 11.23 52.214 0.041 6.67 2.69 10.2
5/19/2021 2:30:00 AM 11.13 52.034 0.041 6.68 2.65 10.23
5/19/2021 2:45:00 AM 11.04 51.872 0.041 6.68 2.56 10.26
5/19/2021 3:00:00 AM 10.95 51.71 0.041 6.68 2.64 10.28
5/19/2021 3:15:00 AM 10.85 51.53 0.042 6.66 2.61 10.31
5/19/2021 3:30:00 AM 10.77 51.386 0.042 6.68 2.64 10.32
5/19/2021 3:45:00 AM 10.68 51.224 0.042 6.67 2.6 10.34
5/19/2021 4:00:00 AM 10.59 51.062 0.042 6.67 2.66 10.36
5/19/2021 4:15:00 AM 10.51 50.918 0.042 6.66 2.61 10.39
5/19/2021 4:30:00 AM 10.43 50.774 0.042 6.67 2.64 10.41
5/19/2021 4:45:00 AM 10.36 50.648 0.042 6.66 2.67 10.43
5/19/2021 5:00:00 AM 10.28 50.504 0.042 6.67 2.61 10.46
5/19/2021 5:15:00 AM 10.21 50.378 0.042 6.67 2.66 10.48
5/19/2021 5:30:00 AM 10.13 50.234 0.042 6.66 2.6 10.49
5/19/2021 5:45:00 AM 10.06 50.108 0.042 6.67 2.6 10.51
5/19/2021 6:00:00 AM 9.99 49.982 0.042 6.66 2.59 10.53
5/19/2021 6:15:00 AM 9.93 49.874 0.042 6.67 2.52 10.57
5/19/2021 6:30:00 AM 9.87 49.766 0.042 6.67 2.55 10.61
5/19/2021 6:45:00 AM 9.83 49.694 0.042 6.69 2.53 10.65
5/19/2021 7:00:00 AM 9.79 49.622 0.042 6.69 2.54 10.71
5/19/2021 7:15:00 AM 9.76 49.568 0.041 6.7 2.53 10.75
5/19/2021 7:30:00 AM 9.74 49.532 0.041 6.72 2.53 10.79
5/19/2021 7:45:00 AM 9.74 49.532 0.041 6.73 2.53 10.83
5/19/2021 8:00:00 AM 9.77 49.586 0.041 6.74 2.6 10.86
5/19/2021 8:15:00 AM 9.8 49.64 0.041 6.76 2.52 10.89
5/19/2021 8:30:00 AM 9.85 49.73 0.041 6.77 2.53 10.9
5/19/2021 8:45:00 AM 9.92 49.856 0.041 6.78 2.43 10.92
5/19/2021 9:00:00 AM 10 50 0.041 6.8 2.48 10.92
5/19/2021 9:15:00 AM 10.1 50.18 0.041 6.81 2.42 10.92
5/19/2021 9:30:00 AM 10.22 50.396 0.041 6.83 2.42 10.93
5/19/2021 9:45:00 AM 10.36 50.648 0.041 6.83 2.38 10.92
5/19/2021 10:00:00 AM 10.52 50.936 0.041 6.84 2.36 10.89
5/19/2021 10:15:00 AM 10.69 51.242 0.041 6.86 2.37 10.88
5/19/2021 10:30:00 AM 10.88 51.584 0.041 6.87 2.4 10.87
5/19/2021 10:45:00 AM 11.09 51.962 0.041 6.88 2.37 10.83
5/19/2021 11:00:00 AM 11.31 52.358 0.041 6.89 2.41 10.79
5/19/2021 11:15:00 AM 11.54 52.772 0.041 6.89 2.43 10.76
5/19/2021 11:30:00 AM 11.79 53.222 0.041 6.9 2.43 10.71
5/19/2021 11:45:00 AM 12.06 53.708 0.041 6.92 2.4 10.67
5/19/2021 12:00:00 PM 12.33 54.194 0.041 6.93 2.36 10.62
5/19/2021 12:15:00 PM 12.61 54.698 0.041 6.93 2.46 10.55
5/19/2021 12:30:00 PM 12.9 55.22 0.041 6.94 2.4 10.52
5/19/2021 12:45:00 PM 13.19 55.742 0.041 6.96 2.41 10.45
5/19/2021 1:00:00 PM 13.46 56.228 0.041 6.97 2.38 10.41
5/19/2021 1:15:00 PM 13.75 56.75 0.041 6.98 2.35 10.34
5/19/2021 1:30:00 PM 14.04 57.272 0.041 6.98 2.37 10.29
5/19/2021 1:45:00 PM 14.32 57.776 0.041 6.99 2.34 10.23
5/19/2021 2:00:00 PM 14.59 58.262 0.041 6.99 2.37 10.17
5/19/2021 2:15:00 PM 14.81 58.658 0.041 7 2.33 10.14
5/19/2021 2:30:00 PM 15.04 59.072 0.04 7.01 2.3 10.08
5/19/2021 2:45:00 PM 15.21 59.378 0.04 7.02 2.44 10.04
5/19/2021 3:00:00 PM 15.4 59.72 0.04 7.03 2.41 10.01
5/19/2021 3:15:00 PM 15.55 59.99 0.04 7.05 2.37 9.97
5/19/2021 3:30:00 PM 15.68 60.224 0.04 7.05 2.32 9.93
5/19/2021 3:45:00 PM 15.77 60.386 0.04 7.04 2.39 9.89
5/19/2021 4:00:00 PM 15.9 60.62 0.04 7.06 2.41 9.87
5/19/2021 4:15:00 PM 16.01 60.818 0.04 7.06 2.52 9.84
5/19/2021 4:30:00 PM 16.11 60.998 0.04 7.06 2.54 9.8
5/19/2021 4:45:00 PM 16.16 61.088 0.04 7.05 2.43 9.77
5/19/2021 5:00:00 PM 16.19 61.142 0.04 7.05 2.46 9.74
5/19/2021 5:15:00 PM 16.19 61.142 0.04 7.03 2.46 9.71
5/19/2021 5:30:00 PM 16.18 61.124 0.04 7.04 2.52 9.7
5/19/2021 5:45:00 PM 16.13 61.034 0.04 7.03 2.44 9.68
5/19/2021 6:00:00 PM 16.08 60.944 0.04 7.01 2.44 9.67
5/19/2021 6:15:00 PM 16.01 60.818 0.04 7.01 2.47 9.65
5/19/2021 6:30:00 PM 15.91 60.638 0.041 6.99 2.51 9.61
5/19/2021 6:45:00 PM 15.82 60.476 0.041 6.98 2.47 9.58
5/19/2021 7:00:00 PM 15.72 60.296 0.041 6.96 2.49 9.57
5/19/2021 7:15:00 PM 15.62 60.116 0.041 6.95 2.48 9.57
5/19/2021 7:30:00 PM 15.52 59.936 0.041 6.92 2.48 9.56
5/19/2021 7:45:00 PM 15.41 59.738 0.041 6.89 2.41 9.55
5/19/2021 8:00:00 PM 15.31 59.558 0.041 6.88 2.5 9.53
5/19/2021 8:15:00 PM 15.2 59.36 0.041 6.86 2.53 9.49
5/19/2021 8:30:00 PM 15.08 59.144 0.041 6.83 2.52 9.47
5/19/2021 8:45:00 PM 14.96 58.928 0.041 6.82 2.58 9.47
5/19/2021 9:00:00 PM 14.84 58.712 0.041 6.8 2.54 9.46
5/19/2021 9:15:00 PM 14.71 58.478 0.041 6.79 2.59 9.47
5/19/2021 9:30:00 PM 14.59 58.262 0.041 6.78 2.72 9.48
5/19/2021 9:45:00 PM 14.47 58.046 0.041 6.75 2.62 9.49
5/19/2021 10:00:00 PM 14.34 57.812 0.042 6.75 2.63 9.52
5/19/2021 10:15:00 PM 14.22 57.596 0.042 6.74 2.67 9.54
5/19/2021 10:30:00 PM 14.1 57.38 0.042 6.75 2.68 9.57
5/19/2021 10:45:00 PM 13.97 57.146 0.042 6.73 2.63 9.58
5/19/2021 11:00:00 PM 13.85 56.93 0.042 6.72 2.64 9.6
5/19/2021 11:15:00 PM 13.73 56.714 0.042 6.73 2.61 9.64
5/19/2021 11:30:00 PM 13.61 56.498 0.042 6.71 2.76 9.67
5/19/2021 11:45:00 PM 13.49 56.282 0.042 6.73 2.72 9.7
5/20/2021 12:00:00 AM 13.37 56.066 0.042 6.72 2.67 9.72
5/20/2021 12:15:00 AM 13.25 55.85 0.042 6.73 2.72 9.74
5/20/2021 12:30:00 AM 13.14 55.652 0.042 6.71 2.63 9.77
5/20/2021 12:45:00 AM 13.03 55.454 0.042 6.72 2.67 9.8
5/20/2021 1:00:00 AM 12.92 55.256 0.042 6.72 2.63 9.82
5/20/2021 1:15:00 AM 12.81 55.058 0.042 6.71 2.7 9.85
5/20/2021 1:30:00 AM 12.71 54.878 0.042 6.71 2.7 9.87
5/20/2021 1:45:00 AM 12.6 54.68 0.042 6.71 2.64 9.89
5/20/2021 2:00:00 AM 12.51 54.518 0.042 6.7 2.63 9.91
5/20/2021 2:15:00 AM 12.41 54.338 0.042 6.71 2.67 9.94
5/20/2021 2:30:00 AM 12.31 54.158 0.042 6.71 2.66 9.97
5/20/2021 2:45:00 AM 12.22 53.996 0.042 6.7 2.68 9.99
5/20/2021 3:00:00 AM 12.13 53.834 0.042 6.71 2.69 10.02
5/20/2021 3:15:00 AM 12.05 53.69 0.042 6.69 2.74 10.03
5/20/2021 3:30:00 AM 11.96 53.528 0.042 6.71 2.67 10.04
5/20/2021 3:45:00 AM 11.88 53.384 0.042 6.69 2.62 10.06
5/20/2021 4:00:00 AM 11.8 53.24 0.042 6.7 2.66 10.08
5/20/2021 4:15:00 AM 11.73 53.114 0.042 6.71 2.67 10.11
5/20/2021 4:30:00 AM 11.66 52.988 0.042 6.7 2.58 10.13
5/20/2021 4:45:00 AM 11.59 52.862 0.042 6.71 2.62 10.15
5/20/2021 5:00:00 AM 11.52 52.736 0.042 6.7 2.65 10.17
5/20/2021 5:15:00 AM 11.45 52.61 0.042 6.68 2.72 10.18
5/20/2021 5:30:00 AM 11.38 52.484 0.042 6.7 2.63 10.2
5/20/2021 5:45:00 AM 11.32 52.376 0.042 6.7 2.58 10.21
5/20/2021 6:00:00 AM 11.26 52.268 0.042 6.7 2.58 10.23
5/20/2021 6:15:00 AM 11.2 52.16 0.042 6.7 2.59 10.27
5/20/2021 6:30:00 AM 11.15 52.07 0.042 6.7 2.58 10.31
5/20/2021 6:45:00 AM 11.11 51.998 0.042 6.71 2.52 10.36
5/20/2021 7:00:00 AM 11.08 51.944 0.042 6.73 2.53 10.41
5/20/2021 7:15:00 AM 11.06 51.908 0.042 6.74 2.55 10.46
5/20/2021 7:30:00 AM 11.07 51.926 0.042 6.76 2.47 10.52
5/20/2021 7:45:00 AM 11.09 51.962 0.042 6.78 2.49 10.58
5/20/2021 8:00:00 AM 11.11 51.998 0.042 6.79 2.51 10.61
5/20/2021 8:15:00 AM 11.14 52.052 0.042 6.81 2.44 10.63
5/20/2021 8:30:00 AM 11.19 52.142 0.042 6.82 2.46 10.66
5/20/2021 8:45:00 AM 11.26 52.268 0.042 6.83 2.48 10.66
5/20/2021 9:00:00 AM 11.33 52.394 0.042 6.85 2.54 10.66
5/20/2021 9:15:00 AM 11.42 52.556 0.042 6.86 2.51 10.68
5/20/2021 9:30:00 AM 11.56 52.808 0.042 6.89 2.48 10.7
5/20/2021 9:45:00 AM 11.71 53.078 0.042 6.89 2.4 10.7
5/20/2021 10:00:00 AM 11.88 53.384 0.042 6.92 2.48 10.67
5/20/2021 10:15:00 AM 12.08 53.744 0.042 6.92 2.4 10.65
5/20/2021 10:30:00 AM 12.19 53.942 0.042 6.94 2.39 10.61
5/20/2021 10:45:00 AM 12.41 54.338 0.042 6.95 2.43 10.58
5/20/2021 11:00:00 AM 12.53 54.554 0.042 6.97 2.38 10.54
5/20/2021 11:15:00 AM 12.73 54.914 0.042 6.97 2.42 10.54
5/20/2021 11:30:00 AM 12.9 55.22 0.041 6.98 2.46 10.51
5/20/2021 11:45:00 AM 12.99 55.382 0.041 6.99 2.43 10.47
5/20/2021 12:00:00 PM 13.17 55.706 0.041 7 2.42 10.44
5/20/2021 12:15:00 PM 13.48 56.264 0.041 7.01 2.41 10.4
5/20/2021 12:30:00 PM 13.78 56.804 0.041 7.02 2.37 10.33
5/20/2021 12:45:00 PM 14.12 57.416 0.041 7.02 2.4 10.27
5/20/2021 1:00:00 PM 14.43 57.974 0.041 7 2.4 10.21
5/20/2021 1:15:00 PM 14.72 58.496 0.041 7.03 2.41 10.16
5/20/2021 1:30:00 PM 15.03 59.054 0.041 7.02 2.38 10.09
5/20/2021 1:45:00 PM 15.33 59.594 0.041 7.04 2.36 10.03
5/20/2021 2:00:00 PM 15.61 60.098 0.041 7.05 2.34 9.98
5/20/2021 2:15:00 PM 15.86 60.548 0.041 7.05 2.35 9.92
5/20/2021 2:30:00 PM 16.09 60.962 0.041 7.05 2.31 9.88
5/20/2021 2:45:00 PM 16.28 61.304 0.041 7.08 2.48 9.84
5/20/2021 3:00:00 PM 16.48 61.664 0.041 7.05 2.44 9.79
5/20/2021 3:15:00 PM 16.62 61.916 0.041 7.08 2.39 9.76
5/20/2021 3:30:00 PM 16.78 62.204 0.041 7.07 2.49 9.72
5/20/2021 3:45:00 PM 16.99 62.582 0.041 7.08 2.35 9.68
5/20/2021 4:00:00 PM 17.08 62.744 0.041 7.09 2.4 9.62
5/20/2021 4:15:00 PM 17.24 63.032 0.041 7.09 2.35 9.6
5/20/2021 4:30:00 PM 17.39 63.302 0.041 7.08 2.41 9.56
5/20/2021 4:45:00 PM 17.36 63.248 0.041 7.08 2.34 9.5
5/20/2021 5:00:00 PM 17.41 63.338 0.041 7.07 2.44 9.49
5/20/2021 5:15:00 PM 17.47 63.446 0.041 7.08 2.45 9.48
5/20/2021 5:30:00 PM 17.44 63.392 0.041 7.06 2.43 9.45
5/20/2021 5:45:00 PM 17.38 63.284 0.041 7.06 2.4 9.42
5/20/2021 6:00:00 PM 17.29 63.122 0.041 7.03 2.39 9.39
5/20/2021 6:15:00 PM 17.2 62.96 0.041 7.03 2.39 9.35
5/20/2021 6:30:00 PM 17.1 62.78 0.041 7.01 2.43 9.34
5/20/2021 6:45:00 PM 16.99 62.582 0.041 6.99 2.65 9.34
5/20/2021 7:00:00 PM 16.94 62.492 0.041 6.99 2.44 9.33
5/20/2021 7:15:00 PM 16.85 62.33 0.041 6.97 2.46 9.31
5/20/2021 7:30:00 PM 16.73 62.114 0.042 6.96 2.46 9.3
5/20/2021 7:45:00 PM 16.6 61.88 0.042 6.94 2.39 9.27
5/20/2021 8:00:00 PM 16.46 61.628 0.042 6.91 2.47 9.26
5/20/2021 8:15:00 PM 16.34 61.412 0.042 6.9 2.49 9.25
5/20/2021 8:30:00 PM 16.2 61.16 0.042 6.87 2.51 9.24
5/20/2021 8:45:00 PM 16.05 60.89 0.042 6.85 2.53 9.23
5/20/2021 9:00:00 PM 15.9 60.62 0.042 6.83 2.53 9.23
5/20/2021 9:15:00 PM 15.72 60.296 0.042 6.81 2.68 9.25
5/20/2021 9:30:00 PM 15.56 60.008 0.042 6.81 2.51 9.27
5/20/2021 9:45:00 PM 15.41 59.738 0.042 6.81 2.63 9.29
5/20/2021 10:00:00 PM 15.27 59.486 0.042 6.79 2.65 9.31
5/20/2021 10:15:00 PM 15.14 59.252 0.042 6.79 2.53 9.33
5/20/2021 10:30:00 PM 15.01 59.018 0.043 6.77 2.64 9.36
5/20/2021 10:45:00 PM 14.89 58.802 0.043 6.76 2.59 9.39
5/20/2021 11:00:00 PM 14.77 58.586 0.043 6.77 2.64 9.42
5/20/2021 11:15:00 PM 14.64 58.352 0.043 6.75 2.58 9.44
5/20/2021 11:30:00 PM 14.51 58.118 0.043 6.75 2.59 9.46
5/20/2021 11:45:00 PM 14.39 57.902 0.043 6.75 2.63 9.49
5/21/2021 12:00:00 AM 14.27 57.686 0.043 6.75 2.66 9.52
5/21/2021 12:15:00 AM 14.14 57.452 0.043 6.76 2.62 9.55
5/21/2021 12:30:00 AM 14.03 57.254 0.043 6.75 2.59 9.58
5/21/2021 12:45:00 AM 13.92 57.056 0.043 6.76 2.6 9.6
5/21/2021 1:00:00 AM 13.81 56.858 0.043 6.75 2.61 9.62
5/21/2021 1:15:00 AM 13.7 56.66 0.043 6.74 2.65 9.65
5/21/2021 1:30:00 AM 13.6 56.48 0.043 6.73 2.57 9.68
5/21/2021 1:45:00 AM 13.5 56.3 0.043 6.73 2.57 9.7
5/21/2021 2:00:00 AM 13.4 56.12 0.043 6.74 2.55 9.72
5/21/2021 2:15:00 AM 13.3 55.94 0.043 6.73 2.65 9.74
5/21/2021 2:30:00 AM 13.2 55.76 0.043 6.73 2.61 9.76
5/21/2021 2:45:00 AM 13.11 55.598 0.043 6.74 2.57 9.78
5/21/2021 3:00:00 AM 13.01 55.418 0.043 6.74 2.62 9.81
5/21/2021 3:15:00 AM 12.91 55.238 0.043 6.72 2.61 9.84
5/21/2021 3:30:00 AM 12.81 55.058 0.043 6.72 2.62 9.86
5/21/2021 3:45:00 AM 12.72 54.896 0.043 6.72 2.69 9.89
5/21/2021 4:00:00 AM 12.63 54.734 0.043 6.73 2.61 9.9
5/21/2021 4:15:00 AM 12.55 54.59 0.043 6.73 2.62 9.92
5/21/2021 4:30:00 AM 12.47 54.446 0.043 6.72 2.66 9.94
5/21/2021 4:45:00 AM 12.39 54.302 0.043 6.73 2.64 9.96
5/21/2021 5:00:00 AM 12.31 54.158 0.043 6.71 2.61 9.98
5/21/2021 5:15:00 AM 12.23 54.014 0.043 6.72 2.6 10
5/21/2021 5:30:00 AM 12.16 53.888 0.043 6.73 2.64 10.02
5/21/2021 5:45:00 AM 12.09 53.762 0.043 6.72 2.55 10.04
5/21/2021 6:00:00 AM 12.02 53.636 0.043 6.71 2.54 10.06
5/21/2021 6:15:00 AM 11.95 53.51 0.043 6.72 2.55 10.09
5/21/2021 6:30:00 AM 11.9 53.42 0.043 6.72 2.51 10.13
5/21/2021 6:45:00 AM 11.85 53.33 0.043 6.74 2.55 10.17
5/21/2021 7:00:00 AM 11.82 53.276 0.043 6.74 2.54 10.22
5/21/2021 7:15:00 AM 11.8 53.24 0.043 6.73 2.54 10.27
5/21/2021 7:30:00 AM 11.78 53.204 0.043 6.77 2.47 10.31
5/21/2021 7:45:00 AM 11.79 53.222 0.043 6.78 2.46 10.35
5/21/2021 8:00:00 AM 11.81 53.258 0.043 6.8 2.45 10.38
5/21/2021 8:15:00 AM 11.86 53.348 0.043 6.81 2.43 10.41
5/21/2021 8:30:00 AM 11.92 53.456 0.043 6.83 2.45 10.43
5/21/2021 8:45:00 AM 12 53.6 0.043 6.86 2.43 10.44
5/21/2021 9:00:00 AM 12.09 53.762 0.043 6.87 2.46 10.46
5/21/2021 9:15:00 AM 12.2 53.96 0.043 6.87 2.46 10.46
5/21/2021 9:30:00 AM 12.33 54.194 0.043 6.9 2.41 10.45
5/21/2021 9:45:00 AM 12.49 54.482 0.043 6.91 2.39 10.43
5/21/2021 10:00:00 AM 12.66 54.788 0.043 6.92 2.41 10.42
5/21/2021 10:15:00 AM 12.85 55.13 0.042 6.94 2.42 10.41
5/21/2021 10:30:00 AM 13.06 55.508 0.042 6.95 2.42 10.37
5/21/2021 10:45:00 AM 13.28 55.904 0.042 6.96 2.4 10.34
5/21/2021 11:00:00 AM 13.52 56.336 0.042 6.98 2.42 10.31
5/21/2021 11:15:00 AM 13.77 56.786 0.042 6.99 2.45 10.27
5/21/2021 11:30:00 AM 14.03 57.254 0.042 6.99 2.35 10.23
5/21/2021 11:45:00 AM 14.29 57.722 0.042 7 2.4 10.19
5/21/2021 12:00:00 PM 14.57 58.226 0.042 7.03 2.44 10.13
5/21/2021 12:15:00 PM 14.85 58.73 0.042 7.02 2.44 10.1
5/21/2021 12:30:00 PM 15.13 59.234 0.042 7.03 2.44 10.04
5/21/2021 12:45:00 PM 15.41 59.738 0.042 7.05 2.39 10.01
5/21/2021 1:00:00 PM 15.69 60.242 0.042 7.06 2.34 9.95
5/21/2021 1:15:00 PM 15.97 60.746 0.042 7.06 2.32 9.91
5/21/2021 1:30:00 PM 16.25 61.25 0.042 7.08 2.39 9.87
5/21/2021 1:45:00 PM 16.49 61.682 0.042 7.07 2.4 9.81
5/21/2021 2:00:00 PM 16.76 62.168 0.042 7.09 2.32 9.77
5/21/2021 2:15:00 PM 17 62.6 0.042 7.1 2.36 9.71
5/21/2021 2:30:00 PM 17.18 62.924 0.042 7.1 2.39 9.65
5/21/2021 2:45:00 PM 17.44 63.392 0.042 7.12 2.4 9.63
5/21/2021 3:00:00 PM 17.58 63.644 0.042 7.12 2.34 9.57
5/21/2021 3:15:00 PM 17.78 64.004 0.042 7.13 2.35 9.52
5/21/2021 3:30:00 PM 17.95 64.31 0.042 7.12 2.44 9.49
5/21/2021 3:45:00 PM 18.04 64.472 0.042 7.11 2.35 9.47
5/21/2021 4:00:00 PM 18.21 64.778 0.042 7.11 2.37 9.43
5/21/2021 4:15:00 PM 18.35 65.03 0.042 7.11 2.37 9.38
5/21/2021 4:30:00 PM 18.32 64.976 0.042 7.1 2.34 9.31
5/21/2021 4:45:00 PM 18.27 64.886 0.042 7.08 2.37 9.28
5/21/2021 5:00:00 PM 18.3 64.94 0.042 7.1 2.3 9.29
5/21/2021 5:15:00 PM 18.28 64.904 0.042 7.09 2.36 9.28
5/21/2021 5:30:00 PM 18.27 64.886 0.042 7.1 2.39 9.26
5/21/2021 5:45:00 PM 18.27 64.886 0.042 7.08 2.38 9.25
5/21/2021 6:00:00 PM 18.26 64.868 0.042 7.08 2.35 9.24
5/21/2021 6:15:00 PM 18.2 64.76 0.042 7.06 2.42 9.22
5/21/2021 6:30:00 PM 18.11 64.598 0.042 7.04 2.39 9.17
5/21/2021 6:45:00 PM 18.03 64.454 0.042 7.03 2.42 9.13
5/21/2021 7:00:00 PM 17.92 64.256 0.042 7.01 2.37 9.12
5/21/2021 7:15:00 PM 17.8 64.04 0.042 6.99 2.49 9.12
5/21/2021 7:30:00 PM 17.69 63.842 0.042 6.95 2.4 9.09
5/21/2021 7:45:00 PM 17.58 63.644 0.042 6.96 2.43 9.06
5/21/2021 8:00:00 PM 17.48 63.464 0.042 6.92 2.54 9.04
5/21/2021 8:15:00 PM 17.37 63.266 0.043 6.91 2.51 9.02
5/21/2021 8:30:00 PM 17.25 63.05 0.043 6.88 2.5 9
5/21/2021 8:45:00 PM 17.14 62.852 0.043 6.87 2.6 8.98
5/21/2021 9:00:00 PM 17 62.6 0.043 6.85 2.52 8.98
5/21/2021 9:15:00 PM 16.86 62.348 0.043 6.84 2.62 9
5/21/2021 9:30:00 PM 16.72 62.096 0.043 6.83 2.52 9.02
5/21/2021 9:45:00 PM 16.59 61.862 0.043 6.81 2.52 9.03
5/21/2021 10:00:00 PM 16.47 61.646 0.043 6.81 2.54 9.04
5/21/2021 10:15:00 PM 16.35 61.43 0.043 6.81 2.5 9.07
5/21/2021 10:30:00 PM 16.23 61.214 0.043 6.8 2.56 9.09
5/21/2021 10:45:00 PM 16.1 60.98 0.043 6.79 2.58 9.12
5/21/2021 11:00:00 PM 15.98 60.764 0.043 6.79 2.65 9.14
5/21/2021 11:15:00 PM 15.86 60.548 0.043 6.79 2.57 9.16
5/21/2021 11:30:00 PM 15.74 60.332 0.044 6.79 2.56 9.18
5/21/2021 11:45:00 PM 15.62 60.116 0.044 6.79 2.59 9.21
5/22/2021 12:00:00 AM 15.5 59.9 0.044 6.79 2.64 9.24
5/22/2021 12:15:00 AM 15.38 59.684 0.044 6.78 2.58 9.26
5/22/2021 12:30:00 AM 15.26 59.468 0.044 6.78 2.52 9.28
5/22/2021 12:45:00 AM 15.15 59.27 0.044 6.77 2.55 9.3
5/22/2021 1:00:00 AM 15.04 59.072 0.044 6.78 2.61 9.33
5/22/2021 1:15:00 AM 14.94 58.892 0.044 6.77 2.61 9.35
5/22/2021 1:30:00 AM 14.84 58.712 0.044 6.78 2.59 9.38
5/22/2021 1:45:00 AM 14.74 58.532 0.044 6.78 2.58 9.4
5/22/2021 2:00:00 AM 14.64 58.352 0.044 6.77 2.65 9.41
5/22/2021 2:15:00 AM 14.54 58.172 0.044 6.77 2.6 9.42
5/22/2021 2:30:00 AM 14.45 58.01 0.044 6.76 2.57 9.45
5/22/2021 2:45:00 AM 14.35 57.83 0.044 6.77 2.62 9.47
5/22/2021 3:00:00 AM 14.26 57.668 0.044 6.76 2.56 9.49
5/22/2021 3:15:00 AM 14.17 57.506 0.044 6.77 2.69 9.51
5/22/2021 3:30:00 AM 14.08 57.344 0.044 6.78 2.56 9.53
5/22/2021 3:45:00 AM 14 57.2 0.044 6.77 2.53 9.55
5/22/2021 4:00:00 AM 13.92 57.056 0.044 6.77 2.66 9.56
5/22/2021 4:15:00 AM 13.83 56.894 0.044 6.76 2.62 9.57
5/22/2021 4:30:00 AM 13.75 56.75 0.044 6.77 2.55 9.6
5/22/2021 4:45:00 AM 13.66 56.588 0.044 6.76 2.58 9.62
5/22/2021 5:00:00 AM 13.58 56.444 0.044 6.77 2.55 9.65
5/22/2021 5:15:00 AM 13.49 56.282 0.044 6.75 2.6 9.66
5/22/2021 5:30:00 AM 13.41 56.138 0.044 6.76 2.53 9.69
5/22/2021 5:45:00 AM 13.33 55.994 0.044 6.77 2.66 9.7
5/22/2021 6:00:00 AM 13.25 55.85 0.044 6.77 2.52 9.72
5/22/2021 6:15:00 AM 13.18 55.724 0.044 6.78 2.68 9.75
5/22/2021 6:30:00 AM 13.11 55.598 0.044 6.78 2.59 9.8
5/22/2021 6:45:00 AM 13.05 55.49 0.044 6.78 2.45 9.84
5/22/2021 7:00:00 AM 13 55.4 0.044 6.8 2.5 9.9
5/22/2021 7:15:00 AM 12.98 55.364 0.044 6.82 2.48 9.98
5/22/2021 7:30:00 AM 12.96 55.328 0.044 6.82 2.48 10.03
5/22/2021 7:45:00 AM 12.94 55.292 0.044 6.85 2.44 10.07
5/22/2021 8:00:00 AM 12.95 55.31 0.044 6.86 2.48 10.11
5/22/2021 8:15:00 AM 12.97 55.346 0.044 6.88 2.47 10.15
5/22/2021 8:30:00 AM 13 55.4 0.043 6.89 2.43 10.18
5/22/2021 8:45:00 AM 13.06 55.508 0.043 6.91 2.39 10.21
5/22/2021 9:00:00 AM 13.17 55.706 0.043 6.93 2.46 10.23
5/22/2021 9:15:00 AM 13.25 55.85 0.043 6.96 2.4 10.23
5/22/2021 9:30:00 AM 13.29 55.922 0.043 6.96 2.44 10.22
5/22/2021 9:45:00 AM 13.44 56.192 0.043 6.97 2.41 10.24
5/22/2021 10:00:00 AM 13.55 56.39 0.043 6.98 2.5 10.23
5/22/2021 10:15:00 AM 13.6 56.48 0.043 7.01 2.35 10.25
5/22/2021 10:30:00 AM 13.74 56.732 0.043 7.02 2.4 10.23
5/22/2021 10:45:00 AM 13.92 57.056 0.043 7.04 2.38 10.2
5/22/2021 11:00:00 AM 14.05 57.29 0.043 7.06 2.43 10.19
5/22/2021 11:15:00 AM 14.2 57.56 0.043 7.07 2.38 10.18
5/22/2021 11:30:00 AM 14.34 57.812 0.043 7.1 2.32 10.16
5/22/2021 11:45:00 AM 14.48 58.064 0.043 7.08 2.42 10.13
5/22/2021 12:00:00 PM 14.7 58.46 0.043 7.1 2.37 10.1
5/22/2021 12:15:00 PM 14.95 58.91 0.043 7.11 2.4 10.06
5/22/2021 12:30:00 PM 15.23 59.414 0.043 7.12 2.45 10.02
5/22/2021 12:45:00 PM 15.4 59.72 0.043 7.13 2.48 9.99
5/22/2021 1:00:00 PM 15.56 60.008 0.043 7.13 2.37 9.95
5/22/2021 1:15:00 PM 15.76 60.368 0.043 7.14 2.37 9.9
5/22/2021 1:30:00 PM 15.94 60.692 0.042 7.15 2.35 9.87
5/22/2021 1:45:00 PM 16.01 60.818 0.042 7.15 2.43 9.85
5/22/2021 2:00:00 PM 16.13 61.034 0.042 7.16 2.36 9.81
5/22/2021 2:15:00 PM 16.24 61.232 0.042 7.15 2.38 9.76
5/22/2021 2:30:00 PM 16.33 61.394 0.042 7.17 2.35 9.74
5/22/2021 2:45:00 PM 16.42 61.556 0.042 7.16 2.38 9.71
5/22/2021 3:00:00 PM 16.49 61.682 0.042 7.18 2.33 9.69
5/22/2021 3:15:00 PM 16.52 61.736 0.042 7.16 2.42 9.66
5/22/2021 3:30:00 PM 16.54 61.772 0.042 7.14 2.41 9.63
5/22/2021 3:45:00 PM 16.66 61.988 0.042 7.17 2.36 9.64
5/22/2021 4:00:00 PM 16.72 62.096 0.042 7.15 2.34 9.59
5/22/2021 4:15:00 PM 16.66 61.988 0.042 7.14 2.45 9.55
5/22/2021 4:30:00 PM 16.68 62.024 0.042 7.14 2.37 9.56
5/22/2021 4:45:00 PM 16.72 62.096 0.042 7.13 2.35 9.55
5/22/2021 5:00:00 PM 16.71 62.078 0.042 7.12 2.48 9.52
5/22/2021 5:15:00 PM 16.71 62.078 0.042 7.11 2.45 9.51
5/22/2021 5:30:00 PM 16.73 62.114 0.042 7.11 2.46 9.49
5/22/2021 5:45:00 PM 16.73 62.114 0.042 7.11 2.44 9.48
5/22/2021 6:00:00 PM 16.68 62.024 0.042 7.1 2.36 9.47
5/22/2021 6:15:00 PM 16.64 61.952 0.042 7.09 2.38 9.43
5/22/2021 6:30:00 PM 16.61 61.898 0.042 7.06 2.44 9.42
5/22/2021 6:45:00 PM 16.58 61.844 0.042 7.06 2.78 9.4
5/22/2021 7:00:00 PM 16.55 61.79 0.042 7.05 2.51 9.38
5/22/2021 7:15:00 PM 16.5 61.7 0.042 7.03 2.34 9.34
5/22/2021 7:30:00 PM 16.45 61.61 0.043 7.01 2.48 9.32
5/22/2021 7:45:00 PM 16.41 61.538 0.043 7 2.42 9.29
5/22/2021 8:00:00 PM 16.35 61.43 0.043 6.97 2.46 9.25
5/22/2021 8:15:00 PM 16.29 61.322 0.043 6.96 2.37 9.21
5/22/2021 8:30:00 PM 16.22 61.196 0.043 6.94 2.55 9.18
5/22/2021 8:45:00 PM 16.15 61.07 0.043 6.9 2.39 9.16
5/22/2021 9:00:00 PM 16.09 60.962 0.043 6.9 2.44 9.14
5/22/2021 9:15:00 PM 16.03 60.854 0.043 6.87 2.49 9.13
5/22/2021 9:30:00 PM 15.97 60.746 0.043 6.86 2.5 9.12
5/22/2021 9:45:00 PM 15.9 60.62 0.044 6.85 2.49 9.11
5/22/2021 10:00:00 PM 15.83 60.494 0.044 6.85 2.48 9.11
5/22/2021 10:15:00 PM 15.77 60.386 0.044 6.83 2.54 9.12
5/22/2021 10:30:00 PM 15.71 60.278 0.044 6.84 2.46 9.13
5/22/2021 10:45:00 PM 15.65 60.17 0.044 6.82 2.5 9.14
5/22/2021 11:00:00 PM 15.59 60.062 0.044 6.81 2.55 9.15
5/22/2021 11:15:00 PM 15.53 59.954 0.044 6.8 2.49 9.17
5/22/2021 11:30:00 PM 15.47 59.846 0.044 6.79 2.6 9.17
5/22/2021 11:45:00 PM 15.42 59.756 0.044 6.8 2.69 9.19
5/23/2021 12:00:00 AM 15.36 59.648 0.044 6.8 2.64 9.2
5/23/2021 12:15:00 AM 15.29 59.522 0.044 6.78 2.45 9.21
5/23/2021 12:30:00 AM 15.24 59.432 0.044 6.78 2.48 9.21
5/23/2021 12:45:00 AM 15.17 59.306 0.044 6.78 2.55 9.22
5/23/2021 1:00:00 AM 15.1 59.18 0.044 6.77 2.49 9.23
5/23/2021 1:15:00 AM 15.04 59.072 0.044 6.78 2.58 9.25
5/23/2021 1:30:00 AM 14.97 58.946 0.044 6.77 2.52 9.26
5/23/2021 1:45:00 AM 14.9 58.82 0.044 6.78 2.52 9.27
5/23/2021 2:00:00 AM 14.83 58.694 0.044 6.79 2.53 9.29
5/23/2021 2:15:00 AM 14.76 58.568 0.044 6.79 2.48 9.31
5/23/2021 2:30:00 AM 14.69 58.442 0.044 6.79 2.53 9.32
5/23/2021 2:45:00 AM 14.63 58.334 0.045 6.78 2.44 9.33
5/23/2021 3:00:00 AM 14.56 58.208 0.045 6.78 2.47 9.34
5/23/2021 3:15:00 AM 14.5 58.1 0.045 6.78 2.44 9.35
5/23/2021 3:30:00 AM 14.43 57.974 0.045 6.78 2.47 9.37
5/23/2021 3:45:00 AM 14.36 57.848 0.045 6.78 2.48 9.38
5/23/2021 4:00:00 AM 14.29 57.722 0.045 6.79 2.57 9.4
5/23/2021 4:15:00 AM 14.22 57.596 0.045 6.79 2.5 9.41
5/23/2021 4:30:00 AM 14.15 57.47 0.045 6.78 2.47 9.43
5/23/2021 4:45:00 AM 14.08 57.344 0.045 6.77 2.4 9.44
5/23/2021 5:00:00 AM 14.02 57.236 0.045 6.76 2.52 9.46
5/23/2021 5:15:00 AM 13.95 57.11 0.045 6.77 2.5 9.46
5/23/2021 5:30:00 AM 13.88 56.984 0.045 6.78 2.46 9.48
5/23/2021 5:45:00 AM 13.82 56.876 0.045 6.78 2.59 9.49
5/23/2021 6:00:00 AM 13.76 56.768 0.045 6.78 2.49 9.51
5/23/2021 6:15:00 AM 13.71 56.678 0.045 6.77 2.53 9.54
5/23/2021 6:30:00 AM 13.66 56.588 0.045 6.78 2.49 9.59
5/23/2021 6:45:00 AM 13.63 56.534 0.045 6.79 2.46 9.63
5/23/2021 7:00:00 AM 13.6 56.48 0.045 6.81 2.4 9.67
5/23/2021 7:15:00 AM 13.58 56.444 0.045 6.82 2.5 9.71
5/23/2021 7:30:00 AM 13.56 56.408 0.044 6.83 2.42 9.75
5/23/2021 7:45:00 AM 13.57 56.426 0.044 6.84 2.46 9.8
5/23/2021 8:00:00 AM 13.59 56.462 0.044 6.86 2.39 9.83
5/23/2021 8:15:00 AM 13.63 56.534 0.044 6.87 2.34 9.86
5/23/2021 8:30:00 AM 13.69 56.642 0.044 6.89 2.38 9.87
5/23/2021 8:45:00 AM 13.77 56.786 0.044 6.9 2.43 9.88
5/23/2021 9:00:00 AM 13.87 56.966 0.044 6.92 2.37 9.89
5/23/2021 9:15:00 AM 13.99 57.182 0.044 6.93 2.33 9.91
5/23/2021 9:30:00 AM 14.1 57.38 0.044 6.95 2.39 9.93
5/23/2021 9:45:00 AM 14.28 57.704 0.044 6.99 2.35 9.94
5/23/2021 10:00:00 AM 14.47 58.046 0.044 7 2.44 9.92
5/23/2021 10:15:00 AM 14.67 58.406 0.044 7.01 2.36 9.91
5/23/2021 10:30:00 AM 14.85 58.73 0.044 7.02 2.42 9.89
5/23/2021 10:45:00 AM 14.95 58.91 0.044 7.03 2.37 9.85
5/23/2021 11:00:00 AM 15.08 59.144 0.044 7.03 2.43 9.85
5/23/2021 11:15:00 AM 15.2 59.36 0.044 7.06 2.33 9.82
5/23/2021 11:30:00 AM 15.29 59.522 0.044 7.07 2.53 9.81
5/23/2021 11:45:00 AM 15.5 59.9 0.044 7.09 2.37 9.78
5/23/2021 12:00:00 PM 15.73 60.314 0.043 7.09 2.68 9.76
5/23/2021 12:15:00 PM 15.87 60.566 0.043 7.1 2.56 9.71
5/23/2021 12:30:00 PM 16 60.8 0.043 7.09 2.68 9.69
5/23/2021 12:45:00 PM 16.22 61.196 0.043 7.11 2.76 9.66
5/23/2021 1:00:00 PM 16.48 61.664 0.043 7.11 2.59 9.62
5/23/2021 1:15:00 PM 16.63 61.934 0.043 7.12 2.38 9.6
5/23/2021 1:30:00 PM 16.76 62.168 0.043 7.12 2.56 9.58
5/23/2021 1:45:00 PM 16.86 62.348 0.043 7.13 2.48 9.52
5/23/2021 2:00:00 PM 17.08 62.744 0.043 7.13 2.39 9.51
5/23/2021 2:15:00 PM 17.29 63.122 0.043 7.16 2.45 9.49
5/23/2021 2:30:00 PM 17.59 63.662 0.043 7.15 2.52 9.44
5/23/2021 2:45:00 PM 17.6 63.68 0.043 7.15 2.67 9.37
5/23/2021 3:00:00 PM 17.86 64.148 0.043 7.15 2.6 9.3
5/23/2021 3:15:00 PM 17.97 64.346 0.043 7.15 2.67 9.29
5/23/2021 3:30:00 PM 17.97 64.346 0.043 7.16 2.79 9.29
5/23/2021 3:45:00 PM 17.96 64.328 0.043 7.14 2.58 9.26
5/23/2021 4:00:00 PM 18.07 64.526 0.043 7.14 2.54 9.23
5/23/2021 4:15:00 PM 18.19 64.742 0.043 7.15 2.37 9.22
5/23/2021 4:30:00 PM 18.3 64.94 0.043 7.15 2.4 9.21
5/23/2021 4:45:00 PM 18.35 65.03 0.043 7.14 2.37 9.19
5/23/2021 5:00:00 PM 18.29 64.922 0.043 7.14 2.46 9.16
5/23/2021 5:15:00 PM 18.29 64.922 0.043 7.15 2.69 9.16
5/23/2021 5:30:00 PM 18.3 64.94 0.043 7.12 2.33 9.14
5/23/2021 5:45:00 PM 18.25 64.85 0.043 7.14 2.42 9.12
5/23/2021 6:00:00 PM 18.22 64.796 0.043 7.11 2.43 9.1
5/23/2021 6:15:00 PM 18.18 64.724 0.043 7.1 2.47 9.07
5/23/2021 6:30:00 PM 18.13 64.634 0.043 7.09 2.38 9.05
5/23/2021 6:45:00 PM 18.08 64.544 0.043 7.07 2.44 9.02
5/23/2021 7:00:00 PM 18.03 64.454 0.043 7.08 2.33 9.02
5/23/2021 7:15:00 PM 17.97 64.346 0.043 7.04 2.36 8.98
5/23/2021 7:30:00 PM 17.9 64.22 0.043 7.04 2.41 8.93
5/23/2021 7:45:00 PM 17.84 64.112 0.043 7.01 2.32 8.9
5/23/2021 8:00:00 PM 17.77 63.986 0.044 7 2.47 8.86
5/23/2021 8:15:00 PM 17.69 63.842 0.044 6.99 2.35 8.84
5/23/2021 8:30:00 PM 17.6 63.68 0.044 6.96 2.52 8.82
5/23/2021 8:45:00 PM 17.52 63.536 0.044 6.93 2.5 8.81
5/23/2021 9:00:00 PM 17.44 63.392 0.044 6.92 2.48 8.8
5/23/2021 9:15:00 PM 17.35 63.23 0.044 6.92 2.47 8.8
5/23/2021 9:30:00 PM 17.26 63.068 0.044 6.91 2.52 8.8
5/23/2021 9:45:00 PM 17.17 62.906 0.044 6.91 2.51 8.8
5/23/2021 10:00:00 PM 17.07 62.726 0.044 6.89 2.52 8.82
5/23/2021 10:15:00 PM 16.99 62.582 0.044 6.89 2.47 8.84
5/23/2021 10:30:00 PM 16.89 62.402 0.044 6.89 2.53 8.86
5/23/2021 10:45:00 PM 16.8 62.24 0.045 6.89 2.49 8.88
5/23/2021 11:00:00 PM 16.71 62.078 0.045 6.87 2.51 8.9
5/23/2021 11:15:00 PM 16.61 61.898 0.045 6.88 2.56 8.91
5/23/2021 11:30:00 PM 16.51 61.718 0.045 6.88 2.46 8.93
5/23/2021 11:45:00 PM 16.4 61.52 0.045 6.87 2.55 8.95
5/24/2021 12:00:00 AM 16.29 61.322 0.045 6.86 2.46 8.97
5/24/2021 12:15:00 AM 16.18 61.124 0.045 6.87 2.49 9
5/24/2021 12:30:00 AM 16.06 60.908 0.045 6.87 2.55 9.02
5/24/2021 12:45:00 AM 15.96 60.728 0.045 6.87 2.43 9.04
5/24/2021 1:00:00 AM 15.85 60.53 0.045 6.87 2.46 9.06
5/24/2021 1:15:00 AM 15.74 60.332 0.045 6.87 2.49 9.08
5/24/2021 1:30:00 AM 15.64 60.152 0.045 6.87 2.55 9.11
5/24/2021 1:45:00 AM 15.54 59.972 0.045 6.87 2.56 9.13
5/24/2021 2:00:00 AM 15.43 59.774 0.045 6.86 2.57 9.16
5/24/2021 2:15:00 AM 15.33 59.594 0.045 6.87 2.45 9.17
5/24/2021 2:30:00 AM 15.22 59.396 0.045 6.87 2.48 9.19
5/24/2021 2:45:00 AM 15.12 59.216 0.045 6.87 2.56 9.21
5/24/2021 3:00:00 AM 15.02 59.036 0.045 6.85 2.52 9.24
5/24/2021 3:15:00 AM 14.91 58.838 0.045 6.86 2.52 9.26
5/24/2021 3:30:00 AM 14.81 58.658 0.045 6.86 2.47 9.28
5/24/2021 3:45:00 AM 14.71 58.478 0.045 6.86 2.46 9.3
5/24/2021 4:00:00 AM 14.6 58.28 0.045 6.85 2.52 9.33
5/24/2021 4:15:00 AM 14.5 58.1 0.045 6.85 2.51 9.34
5/24/2021 4:30:00 AM 14.4 57.92 0.045 6.86 2.45 9.37
5/24/2021 4:45:00 AM 14.29 57.722 0.045 6.85 2.55 9.39
5/24/2021 5:00:00 AM 14.19 57.542 0.045 6.85 2.53 9.42
5/24/2021 5:15:00 AM 14.09 57.362 0.045 6.85 2.5 9.44
5/24/2021 5:30:00 AM 13.99 57.182 0.045 6.85 2.53 9.47
5/24/2021 5:45:00 AM 13.9 57.02 0.045 6.85 2.47 9.48
5/24/2021 6:00:00 AM 13.81 56.858 0.045 6.84 2.49 9.51
5/24/2021 6:15:00 AM 13.74 56.732 0.045 6.84 2.51 9.56
5/24/2021 6:30:00 AM 13.67 56.606 0.045 6.86 2.51 9.61
5/24/2021 6:45:00 AM 13.61 56.498 0.045 6.87 2.47 9.67
5/24/2021 7:00:00 AM 13.56 56.408 0.045 6.88 2.5 9.73
5/24/2021 7:15:00 AM 13.51 56.318 0.045 6.89 2.5 9.79
5/24/2021 7:30:00 AM 13.49 56.282 0.045 6.91 2.42 9.85
5/24/2021 7:45:00 AM 13.46 56.228 0.045 6.92 2.41 9.89
5/24/2021 8:00:00 AM 13.43 56.174 0.045 6.92 2.44 9.92
5/24/2021 8:15:00 AM 13.43 56.174 0.045 6.96 2.47 9.98
5/24/2021 8:30:00 AM 13.45 56.21 0.045 6.96 2.69 10
5/24/2021 8:45:00 AM 13.49 56.282 0.045 6.98 2.45 10.03
5/24/2021 9:00:00 AM 13.56 56.408 0.045 6.98 2.42 10.05
5/24/2021 9:15:00 AM 13.64 56.552 0.044 7.01 2.38 10.06
5/24/2021 9:30:00 AM 13.68 56.624 0.044 7.01 2.3 10.05
5/24/2021 9:45:00 AM 13.78 56.804 0.044 7.03 2.36 10.06
5/24/2021 10:00:00 AM 13.87 56.966 0.044 7.05 2.39 10.06
5/24/2021 10:15:00 AM 13.96 57.128 0.044 7.06 2.5 10.05
5/24/2021 10:30:00 AM 14.12 57.416 0.044 7.06 2.46 10.05
5/24/2021 10:45:00 AM 14.3 57.74 0.044 7.08 2.33 10.03
5/24/2021 11:00:00 AM 14.46 58.028 0.044 7.09 2.41 10.01
5/24/2021 11:15:00 AM 14.7 58.46 0.044 7.09 2.37 9.98
5/24/2021 11:30:00 AM 14.87 58.766 0.044 7.11 2.37 9.96
5/24/2021 11:45:00 AM 14.99 58.982 0.044 7.12 2.41 9.94
5/24/2021 12:00:00 PM 15.17 59.306 0.044 7.13 2.42 9.91
5/24/2021 12:15:00 PM 15.38 59.684 0.044 7.14 2.34 9.9
5/24/2021 12:30:00 PM 15.52 59.936 0.044 7.17 2.43 9.88
5/24/2021 12:45:00 PM 15.71 60.278 0.044 7.18 2.36 9.85
5/24/2021 1:00:00 PM 15.72 60.296 0.044 7.18 2.36 9.82
5/24/2021 1:15:00 PM 15.79 60.422 0.044 7.17 2.35 9.79
5/24/2021 1:30:00 PM 15.94 60.692 0.044 7.18 2.42 9.76
5/24/2021 1:45:00 PM 16.02 60.836 0.044 7.19 2.29 9.72
5/24/2021 2:00:00 PM 16.06 60.908 0.044 7.18 2.28 9.7
5/24/2021 2:15:00 PM 16.09 60.962 0.044 7.18 2.35 9.7
5/24/2021 2:30:00 PM 16.14 61.052 0.044 7.17 2.38 9.67
5/24/2021 2:45:00 PM 16.23 61.214 0.043 7.17 2.33 9.66
5/24/2021 3:00:00 PM 16.3 61.34 0.043 7.19 2.37 9.63
5/24/2021 3:15:00 PM 16.36 61.448 0.043 7.19 2.5 9.62
5/24/2021 3:30:00 PM 16.49 61.682 0.043 7.2 2.4 9.6
5/24/2021 3:45:00 PM 16.71 62.078 0.043 7.19 2.34 9.59
5/24/2021 4:00:00 PM 16.72 62.096 0.043 7.18 2.36 9.55
5/24/2021 4:15:00 PM 16.75 62.15 0.043 7.18 2.46 9.54
5/24/2021 4:30:00 PM 16.79 62.222 0.043 7.2 2.41 9.5
5/24/2021 4:45:00 PM 16.9 62.42 0.043 7.18 2.32 9.49
5/24/2021 5:00:00 PM 17 62.6 0.043 7.17 2.24 9.44
5/24/2021 5:15:00 PM 16.97 62.546 0.043 7.16 2.34 9.43
5/24/2021 5:30:00 PM 16.84 62.312 0.043 7.16 2.31 9.43
5/24/2021 5:45:00 PM 16.68 62.024 0.043 7.14 2.31 9.44
5/24/2021 6:00:00 PM 16.52 61.736 0.043 7.14 2.34 9.42
5/24/2021 6:15:00 PM 16.36 61.448 0.044 7.12 2.3 9.41
5/24/2021 6:30:00 PM 16.24 61.232 0.044 7.1 2.35 9.42
5/24/2021 6:45:00 PM 16.15 61.07 0.044 7.08 2.37 9.41
5/24/2021 7:00:00 PM 16.06 60.908 0.044 7.07 2.3 9.4
5/24/2021 7:15:00 PM 15.97 60.746 0.044 7.07 2.41 9.38
5/24/2021 7:30:00 PM 15.89 60.602 0.044 7.03 2.45 9.37
5/24/2021 7:45:00 PM 15.81 60.458 0.044 7.03 2.26 9.33
5/24/2021 8:00:00 PM 15.75 60.35 0.044 7.01 2.32 9.3
5/24/2021 8:15:00 PM 15.68 60.224 0.044 7 2.41 9.28
5/24/2021 8:30:00 PM 15.6 60.08 0.044 6.99 2.35 9.27
5/24/2021 8:45:00 PM 15.53 59.954 0.044 6.97 2.42 9.25
5/24/2021 9:00:00 PM 15.47 59.846 0.044 6.96 2.42 9.25
5/24/2021 9:15:00 PM 15.39 59.702 0.044 6.95 2.45 9.24
5/24/2021 9:30:00 PM 15.32 59.576 0.045 6.94 2.39 9.24
5/24/2021 9:45:00 PM 15.24 59.432 0.045 6.92 2.51 9.24
5/24/2021 10:00:00 PM 15.17 59.306 0.045 6.91 2.49 9.25
5/24/2021 10:15:00 PM 15.09 59.162 0.045 6.9 2.52 9.26
5/24/2021 10:30:00 PM 15.02 59.036 0.045 6.91 2.53 9.28
5/24/2021 10:45:00 PM 14.94 58.892 0.045 6.91 2.49 9.29
5/24/2021 11:00:00 PM 14.87 58.766 0.045 6.91 2.52 9.31
5/24/2021 11:15:00 PM 14.8 58.64 0.045 6.9 2.52 9.33
5/24/2021 11:30:00 PM 14.74 58.532 0.045 6.89 2.48 9.34
5/24/2021 11:45:00 PM 14.68 58.424 0.045 6.9 2.48 9.36
5/25/2021 12:00:00 AM 14.63 58.334 0.045 6.88 2.46 9.36
5/25/2021 12:15:00 AM 14.57 58.226 0.045 6.89 2.44 9.37
5/25/2021 12:30:00 AM 14.53 58.154 0.045 6.88 2.4 9.38
5/25/2021 12:45:00 AM 14.48 58.064 0.045 6.9 2.5 9.39
5/25/2021 1:00:00 AM 14.43 57.974 0.045 6.88 2.41 9.4
5/25/2021 1:15:00 AM 14.38 57.884 0.045 6.88 2.46 9.41
5/25/2021 1:30:00 AM 14.33 57.794 0.045 6.88 2.44 9.42
5/25/2021 1:45:00 AM 14.29 57.722 0.045 6.88 2.44 9.44
5/25/2021 2:00:00 AM 14.24 57.632 0.045 6.87 2.42 9.45
5/25/2021 2:15:00 AM 14.2 57.56 0.045 6.88 2.42 9.45
5/25/2021 2:30:00 AM 14.16 57.488 0.046 6.88 2.48 9.47
5/25/2021 2:45:00 AM 14.11 57.398 0.046 6.88 2.52 9.48
5/25/2021 3:00:00 AM 14.07 57.326 0.046 6.88 2.47 9.48
5/25/2021 3:15:00 AM 14.04 57.272 0.046 6.88 2.5 9.49
5/25/2021 3:30:00 AM 14 57.2 0.046 6.88 2.53 9.5
5/25/2021 3:45:00 AM 13.96 57.128 0.046 6.88 2.49 9.5
5/25/2021 4:00:00 AM 13.92 57.056 0.046 6.88 2.45 9.51
5/25/2021 4:15:00 AM 13.89 57.002 0.046 6.88 2.49 9.52
5/25/2021 4:30:00 AM 13.86 56.948 0.046 6.87 2.41 9.52
5/25/2021 4:45:00 AM 13.82 56.876 0.046 6.88 2.47 9.53
5/25/2021 5:00:00 AM 13.79 56.822 0.046 6.88 2.55 9.54
5/25/2021 5:15:00 AM 13.76 56.768 0.046 6.88 2.46 9.54
5/25/2021 5:30:00 AM 13.73 56.714 0.046 6.88 2.46 9.55
5/25/2021 5:45:00 AM 13.7 56.66 0.046 6.87 2.54 9.56
5/25/2021 6:00:00 AM 13.68 56.624 0.046 6.88 2.45 9.58
5/25/2021 6:15:00 AM 13.65 56.57 0.046 6.88 2.42 9.59
5/25/2021 6:30:00 AM 13.63 56.534 0.046 6.89 2.34 9.61
5/25/2021 6:45:00 AM 13.62 56.516 0.046 6.89 2.41 9.65
5/25/2021 7:00:00 AM 13.6 56.48 0.046 6.89 2.41 9.68
5/25/2021 7:15:00 AM 13.59 56.462 0.046 6.91 2.32 9.7
5/25/2021 7:30:00 AM 13.58 56.444 0.046 6.91 2.42 9.73
5/25/2021 7:45:00 AM 13.58 56.444 0.046 6.94 2.33 9.77
5/25/2021 8:00:00 AM 13.6 56.48 0.045 6.95 2.38 9.83
5/25/2021 8:15:00 AM 13.61 56.498 0.045 6.95 2.36 9.86
5/25/2021 8:30:00 AM 13.64 56.552 0.045 6.96 2.36 9.9
5/25/2021 8:45:00 AM 13.66 56.588 0.045 6.98 2.35 9.91
5/25/2021 9:00:00 AM 13.68 56.624 0.045 6.98 2.39 9.93
5/25/2021 9:15:00 AM 13.71 56.678 0.045 7 2.35 9.95
5/25/2021 9:30:00 AM 13.75 56.75 0.045 7.02 2.34 9.97
5/25/2021 9:45:00 AM 13.8 56.84 0.045 7.03 2.31 9.98
5/25/2021 10:00:00 AM 13.87 56.966 0.045 7.04 2.3 10
5/25/2021 10:15:00 AM 13.93 57.074 0.045 7.06 2.32 10.01
5/25/2021 10:30:00 AM 14 57.2 0.045 7.06 2.38 10.02
5/25/2021 10:45:00 AM 14.08 57.344 0.045 7.08 2.37 10.02
5/25/2021 11:00:00 AM 14.18 57.524 0.045 7.09 2.32 10.01
5/25/2021 11:15:00 AM 14.31 57.758 0.045 7.11 2.33 10.02
5/25/2021 11:30:00 AM 14.44 57.992 0.044 7.12 2.4 10
5/25/2021 11:45:00 AM 14.62 58.316 0.044 7.12 2.3 10
5/25/2021 12:00:00 PM 14.87 58.766 0.044 7.15 2.35 9.98
5/25/2021 12:15:00 PM 15.08 59.144 0.044 7.16 2.42 9.95
5/25/2021 12:30:00 PM 15.27 59.486 0.044 7.18 2.34 9.92
5/25/2021 12:45:00 PM 15.48 59.864 0.044 7.19 2.34 9.89
5/25/2021 1:00:00 PM 15.76 60.368 0.044 7.2 2.29 9.85
5/25/2021 1:15:00 PM 16.19 61.142 0.044 7.2 2.36 9.79
5/25/2021 1:30:00 PM 16.44 61.592 0.044 7.21 2.26 9.73
5/25/2021 1:45:00 PM 16.7 62.06 0.044 7.21 2.28 9.7
5/25/2021 2:00:00 PM 17.03 62.654 0.044 7.22 2.25 9.61
5/25/2021 2:15:00 PM 17.3 63.14 0.044 7.23 2.27 9.56
5/25/2021 2:30:00 PM 17.57 63.626 0.044 7.22 2.29 9.5
5/25/2021 2:45:00 PM 17.78 64.004 0.044 7.24 2.34 9.45
5/25/2021 3:00:00 PM 17.94 64.292 0.044 7.22 2.39 9.41
5/25/2021 3:15:00 PM 18.13 64.634 0.044 7.23 2.29 9.38
5/25/2021 3:30:00 PM 18.28 64.904 0.044 7.23 2.26 9.33
5/25/2021 3:45:00 PM 18.31 64.958 0.044 7.23 2.25 9.28
5/25/2021 4:00:00 PM 18.21 64.778 0.044 7.2 2.23 9.19
5/25/2021 4:15:00 PM 18.11 64.598 0.044 7.17 2.31 9.13
5/25/2021 4:30:00 PM 18.2 64.76 0.044 7.17 2.29 9.16
5/25/2021 4:45:00 PM 18.24 64.832 0.044 7.18 2.2 9.16
5/25/2021 5:00:00 PM 18.25 64.85 0.044 7.2 2.27 9.17
5/25/2021 5:15:00 PM 18.23 64.814 0.044 7.18 2.24 9.15
5/25/2021 5:30:00 PM 18.28 64.904 0.044 7.19 2.28 9.13
5/25/2021 5:45:00 PM 18.3 64.94 0.044 7.18 2.34 9.09
5/25/2021 6:00:00 PM 18.31 64.958 0.044 7.16 2.3 9.07
5/25/2021 6:15:00 PM 18.3 64.94 0.044 7.16 2.22 9.05
5/25/2021 6:30:00 PM 18.25 64.85 0.044 7.14 2.38 9.01
5/25/2021 6:45:00 PM 18.2 64.76 0.044 7.12 2.29 8.99
5/25/2021 7:00:00 PM 18.15 64.67 0.044 7.11 2.31 8.97
5/25/2021 7:15:00 PM 18.07 64.526 0.044 7.09 2.26 8.96
5/25/2021 7:30:00 PM 17.99 64.382 0.044 7.09 2.38 8.94
5/25/2021 7:45:00 PM 17.91 64.238 0.044 7.08 2.25 8.94
5/25/2021 8:00:00 PM 17.81 64.058 0.044 7.05 2.27 8.9
5/25/2021 8:15:00 PM 17.71 63.878 0.045 7.04 2.28 8.86
5/25/2021 8:30:00 PM 17.62 63.716 0.045 7 2.31 8.85
5/25/2021 8:45:00 PM 17.53 63.554 0.045 6.99 2.29 8.82
5/25/2021 9:00:00 PM 17.42 63.356 0.045 6.98 2.39 8.82
5/25/2021 9:15:00 PM 17.31 63.158 0.045 6.97 2.42 8.82
5/25/2021 9:30:00 PM 17.2 62.96 0.045 6.95 2.42 8.81
5/25/2021 9:45:00 PM 17.09 62.762 0.045 6.94 2.37 8.82
5/25/2021 10:00:00 PM 17 62.6 0.045 6.94 2.47 8.83
5/25/2021 10:15:00 PM 16.89 62.402 0.045 6.92 2.43 8.85
5/25/2021 10:30:00 PM 16.79 62.222 0.046 6.91 2.44 8.87
5/25/2021 10:45:00 PM 16.7 62.06 0.046 6.92 2.4 8.88
5/25/2021 11:00:00 PM 16.6 61.88 0.046 6.91 2.45 8.9
5/25/2021 11:15:00 PM 16.51 61.718 0.046 6.9 2.43 8.91
5/25/2021 11:30:00 PM 16.41 61.538 0.046 6.9 2.42 8.93
5/25/2021 11:45:00 PM 16.31 61.358 0.046 6.9 2.38 8.95
5/26/2021 12:00:00 AM 16.22 61.196 0.046 6.89 2.43 8.97
5/26/2021 12:15:00 AM 16.13 61.034 0.046 6.89 2.44 8.99
5/26/2021 12:30:00 AM 16.04 60.872 0.046 6.88 2.4 9.01
5/26/2021 12:45:00 AM 15.96 60.728 0.046 6.89 2.4 9.03
5/26/2021 1:00:00 AM 15.87 60.566 0.046 6.88 2.45 9.03
5/26/2021 1:15:00 AM 15.78 60.404 0.046 6.88 2.44 9.05
5/26/2021 1:30:00 AM 15.7 60.26 0.046 6.87 2.42 9.07
5/26/2021 1:45:00 AM 15.61 60.098 0.046 6.88 2.42 9.09
5/26/2021 2:00:00 AM 15.54 59.972 0.046 6.88 2.42 9.11
5/26/2021 2:15:00 AM 15.47 59.846 0.046 6.87 2.46 9.13
5/26/2021 2:30:00 AM 15.4 59.72 0.046 6.87 2.44 9.14
5/26/2021 2:45:00 AM 15.33 59.594 0.046 6.87 2.46 9.15
5/26/2021 3:00:00 AM 15.26 59.468 0.046 6.87 2.38 9.16
5/26/2021 3:15:00 AM 15.2 59.36 0.046 6.87 2.49 9.17
5/26/2021 3:30:00 AM 15.14 59.252 0.046 6.86 2.44 9.18
5/26/2021 3:45:00 AM 15.08 59.144 0.046 6.86 2.49 9.2
5/26/2021 4:00:00 AM 15.03 59.054 0.046 6.86 2.5 9.21
5/26/2021 4:15:00 AM 14.97 58.946 0.047 6.85 2.44 9.22
5/26/2021 4:30:00 AM 14.92 58.856 0.047 6.86 2.47 9.23
5/26/2021 4:45:00 AM 14.87 58.766 0.047 6.86 2.46 9.25
5/26/2021 5:00:00 AM 14.81 58.658 0.047 6.85 2.51 9.26
5/26/2021 5:15:00 AM 14.76 58.568 0.047 6.84 2.53 9.27
5/26/2021 5:30:00 AM 14.71 58.478 0.047 6.86 2.41 9.28
5/26/2021 5:45:00 AM 14.64 58.352 0.047 6.85 2.45 9.29
5/26/2021 6:00:00 AM 14.58 58.244 0.047 6.85 2.44 9.31
5/26/2021 6:15:00 AM 14.52 58.136 0.047 6.85 2.39 9.33
5/26/2021 6:30:00 AM 14.47 58.046 0.047 6.86 2.36 9.37
5/26/2021 6:45:00 AM 14.43 57.974 0.046 6.86 2.39 9.41
5/26/2021 7:00:00 AM 14.41 57.938 0.046 6.87 2.46 9.48
5/26/2021 7:15:00 AM 14.37 57.866 0.046 6.88 2.42 9.51
5/26/2021 7:30:00 AM 14.35 57.83 0.046 6.88 2.41 9.56
5/26/2021 7:45:00 AM 14.35 57.83 0.046 6.89 2.45 9.6
5/26/2021 8:00:00 AM 14.38 57.884 0.046 6.92 2.4 9.66
5/26/2021 8:15:00 AM 14.4 57.92 0.046 6.92 2.32 9.7
5/26/2021 8:30:00 AM 14.44 57.992 0.046 6.96 2.35 9.74
5/26/2021 8:45:00 AM 14.51 58.118 0.046 6.96 2.43 9.75
5/26/2021 9:00:00 AM 14.61 58.298 0.046 6.99 2.36 9.76
5/26/2021 9:15:00 AM 14.66 58.388 0.046 7.01 2.31 9.76
5/26/2021 9:30:00 AM 14.73 58.514 0.046 7.01 2.46 9.77
5/26/2021 9:45:00 AM 14.88 58.784 0.046 7.04 2.34 9.76
5/26/2021 10:00:00 AM 15.05 59.09 0.046 7.06 2.41 9.75
5/26/2021 10:15:00 AM 15.18 59.324 0.045 7.07 2.39 9.73
5/26/2021 10:30:00 AM 15.38 59.684 0.045 7.09 2.34 9.72
5/26/2021 10:45:00 AM 15.62 60.116 0.045 7.1 2.29 9.68
5/26/2021 11:00:00 AM 15.88 60.584 0.045 7.1 2.35 9.64
5/26/2021 11:15:00 AM 16.15 61.07 0.045 7.13 2.32 9.61
5/26/2021 11:30:00 AM 16.38 61.484 0.045 7.14 2.44 9.58
5/26/2021 11:45:00 AM 16.64 61.952 0.045 7.14 2.33 9.54
5/26/2021 12:00:00 PM 16.95 62.51 0.045 7.16 2.31 9.51
5/26/2021 12:15:00 PM 16.99 62.582 0.045 7.15 2.34 9.4
5/26/2021 12:30:00 PM 17.07 62.726 0.045 7.15 2.3 9.38
5/26/2021 12:45:00 PM 17.42 63.356 0.045 7.17 2.56 9.35
5/26/2021 1:00:00 PM 17.69 63.842 0.045 7.18 2.37 9.31
5/26/2021 1:15:00 PM 17.52 63.536 0.045 7.15 2.35 9.23
5/26/2021 1:30:00 PM 17.64 63.752 0.045 7.16 2.33 9.24
5/26/2021 1:45:00 PM 17.95 64.31 0.045 7.15 3.42 9.15
5/26/2021 2:00:00 PM 17.97 64.346 0.044 7.12 2.83 9.13
5/26/2021 2:15:00 PM 18.24 64.832 0.045 7.14 2.93 9.16
5/26/2021 2:30:00 PM 18.46 65.228 0.045 7.14 3.07 9.15
5/26/2021 2:45:00 PM 18.64 65.552 0.044 7.16 2.74 9.15
5/26/2021 3:00:00 PM 18.73 65.714 0.044 7.17 2.59 9.1
5/26/2021 3:15:00 PM 18.93 66.074 0.044 7.18 2.69 9.1
5/26/2021 3:30:00 PM 19.23 66.614 0.044 7.18 2.6 9.04
5/26/2021 3:45:00 PM 19.45 67.01 0.044 7.19 2.61 9.02
5/26/2021 4:00:00 PM 19.59 67.262 0.044 7.19 2.55 8.98
5/26/2021 4:15:00 PM 19.71 67.478 0.044 7.18 2.45 8.93
5/26/2021 4:30:00 PM 19.71 67.478 0.044 7.18 2.53 8.85
5/26/2021 4:45:00 PM 19.62 67.316 0.044 7.13 2.56 8.73
5/26/2021 5:00:00 PM 19.55 67.19 0.044 7.12 2.53 8.67
5/26/2021 5:15:00 PM 19.53 67.154 0.044 7.11 2.54 8.71
5/26/2021 5:30:00 PM 19.43 66.974 0.044 7.1 2.5 8.72
5/26/2021 5:45:00 PM 19.3 66.74 0.044 7.11 2.48 8.74
5/26/2021 6:00:00 PM 19.21 66.578 0.044 7.12 2.53 8.79
5/26/2021 6:15:00 PM 19.08 66.344 0.044 7.12 2.46 8.77
5/26/2021 6:30:00 PM 18.97 66.146 0.044 7.09 2.49 8.77
5/26/2021 6:45:00 PM 18.87 65.966 0.044 7.08 2.51 8.76
5/26/2021 7:00:00 PM 18.75 65.75 0.044 7.06 2.53 8.73
5/26/2021 7:15:00 PM 18.63 65.534 0.044 7.04 2.52 8.72
5/26/2021 7:30:00 PM 18.5 65.3 0.044 7.02 2.44 8.68
5/26/2021 7:45:00 PM 18.4 65.12 0.044 6.99 2.42 8.65
5/26/2021 8:00:00 PM 18.31 64.958 0.044 6.98 2.48 8.64
5/26/2021 8:15:00 PM 18.23 64.814 0.044 6.94 2.47 8.62
5/26/2021 8:30:00 PM 18.14 64.652 0.045 6.97 2.45 8.61
5/26/2021 8:45:00 PM 18.05 64.49 0.045 6.94 2.48 8.6
5/26/2021 9:00:00 PM 17.97 64.346 0.045 6.92 2.59 8.59
5/26/2021 9:15:00 PM 17.89 64.202 0.045 6.92 2.59 8.59
5/26/2021 9:30:00 PM 17.8 64.04 0.045 6.92 2.53 8.59
5/26/2021 9:45:00 PM 17.69 63.842 0.045 6.9 2.57 8.61
5/26/2021 10:00:00 PM 17.59 63.662 0.045 6.9 2.58 8.62
5/26/2021 10:15:00 PM 17.49 63.482 0.046 6.9 2.57 8.64
5/26/2021 10:30:00 PM 17.38 63.284 0.046 6.89 2.56 8.66
5/26/2021 10:45:00 PM 17.26 63.068 0.046 6.9 2.54 8.68
5/26/2021 11:00:00 PM 17.14 62.852 0.046 6.87 2.61 8.7
5/26/2021 11:15:00 PM 17.03 62.654 0.046 6.88 2.58 8.72
5/26/2021 11:30:00 PM 16.91 62.438 0.046 6.87 2.61 8.75
5/26/2021 11:45:00 PM 16.79 62.222 0.046 6.88 2.53 8.78
5/27/2021 12:00:00 AM 16.67 62.006 0.046 6.86 2.5 8.8
5/27/2021 12:15:00 AM 16.56 61.808 0.046 6.88 2.5 8.82
5/27/2021 12:30:00 AM 16.45 61.61 0.046 6.87 2.48 8.84
5/27/2021 12:45:00 AM 16.37 61.466 0.046 6.89 2.44 8.86
5/27/2021 1:00:00 AM 16.28 61.304 0.046 6.88 2.49 8.88
5/27/2021 1:15:00 AM 16.2 61.16 0.046 6.88 2.48 8.91
5/27/2021 1:30:00 AM 16.11 60.998 0.047 6.88 2.4 8.93
5/27/2021 1:45:00 AM 16.02 60.836 0.047 6.88 2.55 8.95
5/27/2021 2:00:00 AM 15.94 60.692 0.047 6.87 2.43 8.97
5/27/2021 2:15:00 AM 15.85 60.53 0.047 6.87 2.44 8.99
5/27/2021 2:30:00 AM 15.77 60.386 0.047 6.87 2.53 9
5/27/2021 2:45:00 AM 15.68 60.224 0.047 6.87 2.47 9.02
5/27/2021 3:00:00 AM 15.59 60.062 0.047 6.87 2.46 9.04
5/27/2021 3:15:00 AM 15.51 59.918 0.047 6.87 2.41 9.06
5/27/2021 3:30:00 AM 15.43 59.774 0.047 6.87 2.4 9.09
5/27/2021 3:45:00 AM 15.35 59.63 0.047 6.87 2.48 9.11
5/27/2021 4:00:00 AM 15.26 59.468 0.047 6.87 2.4 9.13
5/27/2021 4:15:00 AM 15.16 59.288 0.047 6.87 2.5 9.14
5/27/2021 4:30:00 AM 15.06 59.108 0.047 6.87 2.53 9.16
5/27/2021 4:45:00 AM 14.97 58.946 0.047 6.87 2.45 9.18
5/27/2021 5:00:00 AM 14.87 58.766 0.047 6.86 2.52 9.21
5/27/2021 5:15:00 AM 14.77 58.586 0.047 6.87 2.54 9.23
5/27/2021 5:30:00 AM 14.67 58.406 0.047 6.86 2.56 9.26
5/27/2021 5:45:00 AM 14.58 58.244 0.047 6.86 2.41 9.28
5/27/2021 6:00:00 AM 14.49 58.082 0.047 6.87 2.43 9.31
5/27/2021 6:15:00 AM 14.41 57.938 0.047 6.87 2.4 9.34
5/27/2021 6:30:00 AM 14.34 57.812 0.047 6.87 2.44 9.38
5/27/2021 6:45:00 AM 14.26 57.668 0.047 6.89 2.42 9.42
5/27/2021 7:00:00 AM 14.22 57.596 0.047 6.89 2.39 9.48
5/27/2021 7:15:00 AM 14.18 57.524 0.047 6.9 2.36 9.53
5/27/2021 7:30:00 AM 14.13 57.434 0.047 6.92 2.36 9.57
5/27/2021 7:45:00 AM 14.1 57.38 0.047 6.93 2.37 9.59
5/27/2021 8:00:00 AM 14.09 57.362 0.047 6.93 2.37 9.62
5/27/2021 8:15:00 AM 14.09 57.362 0.047 6.95 2.36 9.66
5/27/2021 8:30:00 AM 14.11 57.398 0.047 6.98 2.33 9.69
5/27/2021 8:45:00 AM 14.15 57.47 0.047 6.97 2.41 9.7
5/27/2021 9:00:00 AM 14.18 57.524 0.047 6.99 2.4 9.72
5/27/2021 9:15:00 AM 14.23 57.614 0.047 7.01 2.32 9.73
5/27/2021 9:30:00 AM 14.3 57.74 0.046 7.01 2.34 9.74
5/27/2021 9:45:00 AM 14.39 57.902 0.046 7.03 2.29 9.75
5/27/2021 10:00:00 AM 14.49 58.082 0.046 7.03 2.29 9.75
5/27/2021 10:15:00 AM 14.6 58.28 0.046 7.04 2.29 9.75
5/27/2021 10:30:00 AM 14.76 58.568 0.046 7.05 2.27 9.74
5/27/2021 10:45:00 AM 14.93 58.874 0.046 7.06 2.3 9.71
5/27/2021 11:00:00 AM 15.09 59.162 0.046 7.06 2.32 9.69
5/27/2021 11:15:00 AM 15.29 59.522 0.046 7.08 2.28 9.68
5/27/2021 11:30:00 AM 15.52 59.936 0.046 7.08 2.31 9.64
5/27/2021 11:45:00 AM 15.77 60.386 0.046 7.1 2.27 9.6
5/27/2021 12:00:00 PM 16 60.8 0.046 7.11 2.31 9.59
5/27/2021 12:15:00 PM 16.25 61.25 0.046 7.11 2.24 9.53
5/27/2021 12:30:00 PM 16.51 61.718 0.046 7.12 2.37 9.5
5/27/2021 12:45:00 PM 16.78 62.204 0.046 7.13 2.33 9.46
5/27/2021 1:00:00 PM 17.03 62.654 0.046 7.14 2.29 9.42
5/27/2021 1:15:00 PM 17.32 63.176 0.046 7.15 2.32 9.39
5/27/2021 1:30:00 PM 17.58 63.644 0.046 7.14 2.28 9.33
5/27/2021 1:45:00 PM 17.83 64.094 0.046 7.15 2.24 9.29
5/27/2021 2:00:00 PM 17.95 64.31 0.045 7.16 2.3 9.28
5/27/2021 2:15:00 PM 18.2 64.76 0.045 7.19 2.28 9.25
5/27/2021 2:30:00 PM 18.35 65.03 0.045 7.2 2.28 9.23
5/27/2021 2:45:00 PM 18.48 65.264 0.045 7.2 2.3 9.2
5/27/2021 3:00:00 PM 18.64 65.552 0.045 7.21 2.29 9.18
5/27/2021 3:15:00 PM 18.67 65.606 0.045 7.21 2.24 9.14
5/27/2021 3:30:00 PM 18.79 65.82201 0.045 7.22 2.28 9.15
5/27/2021 3:45:00 PM 18.97 66.146 0.045 7.22 2.33 9.09
5/27/2021 4:00:00 PM 19.09 66.362 0.045 7.23 2.31 9.05
5/27/2021 4:15:00 PM 19.17 66.506 0.045 7.21 2.32 9
5/27/2021 4:30:00 PM 19.23 66.614 0.045 7.2 2.31 8.98
5/27/2021 4:45:00 PM 19.18 66.524 0.045 7.2 2.3 8.92
5/27/2021 5:00:00 PM 19.19 66.542 0.045 7.19 2.34 8.94
5/27/2021 5:15:00 PM 19.16 66.488 0.045 7.19 2.27 8.91
5/27/2021 5:30:00 PM 19.05 66.29 0.045 7.18 2.27 8.89
5/27/2021 5:45:00 PM 18.97 66.146 0.045 7.17 2.32 8.9
5/27/2021 6:00:00 PM 18.86 65.948 0.045 7.15 2.32 8.88
5/27/2021 6:15:00 PM 18.73 65.714 0.045 7.13 2.38 8.85
5/27/2021 6:30:00 PM 18.59 65.462 0.045 7.13 2.35 8.82
5/27/2021 6:45:00 PM 18.43 65.174 0.046 7.09 2.33 8.79
5/27/2021 7:00:00 PM 18.31 64.958 0.046 7.11 2.33 8.8
5/27/2021 7:15:00 PM 18.22 64.796 0.046 7.09 2.36 8.82
5/27/2021 7:30:00 PM 18.09 64.562 0.046 7.08 2.29 8.83
5/27/2021 7:45:00 PM 17.92 64.256 0.046 7.06 2.29 8.82
5/27/2021 8:00:00 PM 17.74 63.932 0.046 7.06 2.27 8.81
5/27/2021 8:15:00 PM 17.56 63.608 0.046 7.03 2.32 8.82
5/27/2021 8:30:00 PM 17.39 63.302 0.046 7.03 2.31 8.82
5/27/2021 8:45:00 PM 17.23 63.014 0.046 7 2.35 8.81
5/27/2021 9:00:00 PM 17.06 62.708 0.046 7 2.35 8.81
5/27/2021 9:15:00 PM 16.88 62.384 0.046 6.98 2.38 8.83
5/27/2021 9:30:00 PM 16.73 62.114 0.046 6.96 2.42 8.85
5/27/2021 9:45:00 PM 16.56 61.808 0.046 6.95 2.39 8.87
5/27/2021 10:00:00 PM 16.39 61.502 0.047 6.94 2.41 8.89
5/27/2021 10:15:00 PM 16.21 61.178 0.047 6.94 2.5 8.93
5/27/2021 10:30:00 PM 16.05 60.89 0.047 6.95 2.57 8.96
5/27/2021 10:45:00 PM 15.89 60.602 0.047 6.92 2.42 8.99
5/27/2021 11:00:00 PM 15.72 60.296 0.047 6.92 2.43 9.01
5/27/2021 11:15:00 PM 15.56 60.008 0.047 6.9 2.45 9.05
5/27/2021 11:30:00 PM 15.42 59.756 0.047 6.91 2.45 9.09
5/27/2021 11:45:00 PM 15.28 59.504 0.047 6.9 2.43 9.12
5/28/2021 12:00:00 AM 15.16 59.288 0.047 6.89 2.44 9.15
5/28/2021 12:15:00 AM 15.03 59.054 0.047 6.9 2.43 9.17
5/28/2021 12:30:00 AM 14.91 58.838 0.047 6.89 2.53 9.21
5/28/2021 12:45:00 AM 14.8 58.64 0.047 6.89 2.53 9.23
5/28/2021 1:00:00 AM 14.69 58.442 0.047 6.9 2.45 9.26
5/28/2021 1:15:00 AM 14.58 58.244 0.047 6.91 2.43 9.29
5/28/2021 1:30:00 AM 14.48 58.064 0.047 6.89 2.52 9.31
5/28/2021 1:45:00 AM 14.38 57.884 0.047 6.89 2.4 9.32
5/28/2021 2:00:00 AM 14.29 57.722 0.047 6.88 2.41 9.34
5/28/2021 2:15:00 AM 14.2 57.56 0.048 6.89 2.49 9.37
5/28/2021 2:30:00 AM 14.1 57.38 0.048 6.88 2.52 9.38
5/28/2021 2:45:00 AM 14.01 57.218 0.048 6.88 2.49 9.41
5/28/2021 3:00:00 AM 13.92 57.056 0.048 6.89 2.43 9.43
5/28/2021 3:15:00 AM 13.99 57.182 0.047 6.89 2.42 9.39
5/28/2021 3:30:00 AM 13.9 57.02 0.048 6.89 2.48 9.4
5/28/2021 3:45:00 AM 13.81 56.858 0.048 6.88 2.41 9.42
5/28/2021 4:00:00 AM 13.7 56.66 0.048 6.89 2.46 9.45
5/28/2021 4:15:00 AM 13.6 56.48 0.048 6.9 2.42 9.47
5/28/2021 4:30:00 AM 13.49 56.282 0.048 6.89 2.43 9.5
5/28/2021 4:45:00 AM 13.39 56.102 0.048 6.89 2.51 9.53
5/28/2021 5:00:00 AM 13.29 55.922 0.048 6.9 2.37 9.53
5/28/2021 5:15:00 AM 13.19 55.742 0.048 6.89 2.42 9.56
5/28/2021 5:30:00 AM 13.1 55.58 0.048 6.89 2.39 9.58
5/28/2021 5:45:00 AM 13.01 55.418 0.048 6.89 2.42 9.6
5/28/2021 6:00:00 AM 12.93 55.274 0.048 6.9 2.44 9.63
5/28/2021 6:15:00 AM 12.86 55.148 0.048 6.9 2.49 9.66
5/28/2021 6:30:00 AM 12.8 55.04 0.048 6.9 2.41 9.69
5/28/2021 6:45:00 AM 12.74 54.932 0.048 6.91 2.38 9.73
5/28/2021 7:00:00 AM 12.7 54.86 0.047 6.92 2.35 9.77
5/28/2021 7:15:00 AM 12.66 54.788 0.047 6.92 2.64 9.8
5/28/2021 7:30:00 AM 12.62 54.716 0.047 6.93 2.31 9.84
5/28/2021 7:45:00 AM 12.58 54.644 0.047 6.94 2.38 9.87
5/28/2021 8:00:00 AM 12.55 54.59 0.047 6.94 2.43 9.89
5/28/2021 8:15:00 AM 12.51 54.518 0.047 6.95 2.48 9.92
5/28/2021 8:30:00 AM 12.5 54.5 0.047 6.96 2.41 9.94
5/28/2021 8:45:00 AM 12.47 54.446 0.047 6.96 2.37 9.96
5/28/2021 9:00:00 AM 12.44 54.392 0.047 6.96 2.38 9.98
5/28/2021 9:15:00 AM 12.43 54.374 0.047 6.98 2.36 10.03
5/28/2021 9:30:00 AM 12.43 54.374 0.047 6.99 2.46 10.08
5/28/2021 9:45:00 AM 12.43 54.374 0.047 7 2.36 10.09
5/28/2021 10:00:00 AM 12.42 54.356 0.047 7.01 2.32 10.12
5/28/2021 10:15:00 AM 12.43 54.374 0.047 7.02 2.36 10.14
5/28/2021 10:30:00 AM 12.46 54.428 0.047 7.03 2.31 10.16